<?xml version="1.0" encoding="UTF-8" standalone="no" ?>
<gpx xmlns="http://www.topografix.com/GPX/1/1" xmlns:xsi="http://www.w3.org/2001/XMLSchema-instance" xsi:schemaLocation="http://www.topografix.com/GPX/1/1 http://www.topografix.com/GPX/1/1/gpx.xsd" version="1.1" creator="VisuGPX - https://www.visugpx.com">
  <metadata>
    <name>plateau d'Iroire =&amp;gt; col du Fanget =&amp;gt; Fourane</name>
    <desc><![CDATA[recherche d'itinéraire pédestre au départ de Seyne, pour création de circuits de 2 à 4-5h de marche.
sentier nettoyé par un groupe de 8 bénévoles le 28/08/2020.
retour sur le Haut Chardavon depuis le plateau d'Iroire, en ouvrant un sentier au départ de la source sous la ferme Barles, rejoignant directement un chemin dans une clairière au coeur des Loubières, se terminant en piste d'exploitation forestière raide..., pour tomber directement sur Fouranes]]></desc>
  </metadata>
  <trk>
    <name><![CDATA[plateau d'Iroire =&gt; col du Fanget =&gt; Fourane_1]]></name>
    <trkseg>
      <trkpt lat="44.33072" lon="6.30435">
        <ele>1680.1</ele>
        <time>2020-08-28T08:30:26Z</time>
      </trkpt>
      <trkpt lat="44.3307" lon="6.30429">
        <ele>1680.1</ele>
        <time>2020-08-28T08:30:32Z</time>
      </trkpt>
      <trkpt lat="44.33071" lon="6.30427">
        <ele>1680</ele>
        <time>2020-08-28T08:30:38Z</time>
      </trkpt>
      <trkpt lat="44.3307" lon="6.30426">
        <ele>1680</ele>
        <time>2020-08-28T08:30:43Z</time>
      </trkpt>
      <trkpt lat="44.3307" lon="6.30426">
        <ele>1680</ele>
        <time>2020-08-28T08:30:48Z</time>
      </trkpt>
      <trkpt lat="44.3307" lon="6.30426">
        <ele>1680</ele>
        <time>2020-08-28T08:30:54Z</time>
      </trkpt>
      <trkpt lat="44.33069" lon="6.30427">
        <ele>1680</ele>
        <time>2020-08-28T08:30:59Z</time>
      </trkpt>
      <trkpt lat="44.3307" lon="6.30426">
        <ele>1680</ele>
        <time>2020-08-28T08:31:05Z</time>
      </trkpt>
      <trkpt lat="44.33068" lon="6.30427">
        <ele>1680</ele>
        <time>2020-08-28T08:31:10Z</time>
      </trkpt>
      <trkpt lat="44.33069" lon="6.30427">
        <ele>1680</ele>
        <time>2020-08-28T08:31:16Z</time>
      </trkpt>
      <trkpt lat="44.33069" lon="6.30428">
        <ele>1680</ele>
        <time>2020-08-28T08:31:21Z</time>
      </trkpt>
      <trkpt lat="44.33069" lon="6.30429">
        <ele>1680.1</ele>
        <time>2020-08-28T08:31:27Z</time>
      </trkpt>
      <trkpt lat="44.33068" lon="6.3043">
        <ele>1680</ele>
        <time>2020-08-28T08:31:33Z</time>
      </trkpt>
      <trkpt lat="44.33068" lon="6.30429">
        <ele>1680</ele>
        <time>2020-08-28T08:31:38Z</time>
      </trkpt>
      <trkpt lat="44.33067" lon="6.30428">
        <ele>1680</ele>
        <time>2020-08-28T08:31:44Z</time>
      </trkpt>
      <trkpt lat="44.33067" lon="6.30428">
        <ele>1680</ele>
        <time>2020-08-28T08:31:49Z</time>
      </trkpt>
      <trkpt lat="44.33067" lon="6.30428">
        <ele>1680</ele>
        <time>2020-08-28T08:31:55Z</time>
      </trkpt>
      <trkpt lat="44.33066" lon="6.30429">
        <ele>1680</ele>
        <time>2020-08-28T08:32:00Z</time>
      </trkpt>
      <trkpt lat="44.33062" lon="6.30433">
        <ele>1680</ele>
        <time>2020-08-28T08:32:06Z</time>
      </trkpt>
      <trkpt lat="44.33058" lon="6.30436">
        <ele>1680</ele>
        <time>2020-08-28T08:32:12Z</time>
      </trkpt>
      <trkpt lat="44.33055" lon="6.30441">
        <ele>1680</ele>
        <time>2020-08-28T08:32:18Z</time>
      </trkpt>
      <trkpt lat="44.33051" lon="6.30444">
        <ele>1680</ele>
        <time>2020-08-28T08:32:23Z</time>
      </trkpt>
      <trkpt lat="44.33048" lon="6.30449">
        <ele>1680.1</ele>
        <time>2020-08-28T08:32:29Z</time>
      </trkpt>
      <trkpt lat="44.33045" lon="6.30452">
        <ele>1680.2</ele>
        <time>2020-08-28T08:32:34Z</time>
      </trkpt>
      <trkpt lat="44.33042" lon="6.30457">
        <ele>1680.2</ele>
        <time>2020-08-28T08:32:40Z</time>
      </trkpt>
      <trkpt lat="44.33037" lon="6.30463">
        <ele>1680.3</ele>
        <time>2020-08-28T08:32:46Z</time>
      </trkpt>
      <trkpt lat="44.33034" lon="6.30468">
        <ele>1680.4</ele>
        <time>2020-08-28T08:32:52Z</time>
      </trkpt>
      <trkpt lat="44.33031" lon="6.30473">
        <ele>1680.5</ele>
        <time>2020-08-28T08:32:58Z</time>
      </trkpt>
      <trkpt lat="44.33027" lon="6.30476">
        <ele>1680.6</ele>
        <time>2020-08-28T08:33:03Z</time>
      </trkpt>
      <trkpt lat="44.33023" lon="6.3048">
        <ele>1680.7</ele>
        <time>2020-08-28T08:33:09Z</time>
      </trkpt>
      <trkpt lat="44.33019" lon="6.30484">
        <ele>1680.9</ele>
        <time>2020-08-28T08:33:14Z</time>
      </trkpt>
      <trkpt lat="44.33015" lon="6.30487">
        <ele>1681</ele>
        <time>2020-08-28T08:33:20Z</time>
      </trkpt>
      <trkpt lat="44.33011" lon="6.30491">
        <ele>1681.2</ele>
        <time>2020-08-28T08:33:26Z</time>
      </trkpt>
      <trkpt lat="44.33006" lon="6.30496">
        <ele>1681.5</ele>
        <time>2020-08-28T08:33:31Z</time>
      </trkpt>
      <trkpt lat="44.33001" lon="6.30501">
        <ele>1681.8</ele>
        <time>2020-08-28T08:33:37Z</time>
      </trkpt>
      <trkpt lat="44.32996" lon="6.30504">
        <ele>1681</ele>
        <time>2020-08-28T08:33:42Z</time>
      </trkpt>
      <trkpt lat="44.32993" lon="6.30508">
        <ele>1680.3</ele>
        <time>2020-08-28T08:33:47Z</time>
      </trkpt>
      <trkpt lat="44.32988" lon="6.30511">
        <ele>1679.6</ele>
        <time>2020-08-28T08:33:53Z</time>
      </trkpt>
      <trkpt lat="44.32983" lon="6.30517">
        <ele>1679</ele>
        <time>2020-08-28T08:33:59Z</time>
      </trkpt>
      <trkpt lat="44.32979" lon="6.3052">
        <ele>1678.6</ele>
        <time>2020-08-28T08:34:04Z</time>
      </trkpt>
      <trkpt lat="44.32974" lon="6.30522">
        <ele>1678.4</ele>
        <time>2020-08-28T08:34:09Z</time>
      </trkpt>
      <trkpt lat="44.32969" lon="6.30527">
        <ele>1678.1</ele>
        <time>2020-08-28T08:34:15Z</time>
      </trkpt>
      <trkpt lat="44.32965" lon="6.30531">
        <ele>1677.8</ele>
        <time>2020-08-28T08:34:20Z</time>
      </trkpt>
      <trkpt lat="44.3296" lon="6.30536">
        <ele>1677.7</ele>
        <time>2020-08-28T08:34:26Z</time>
      </trkpt>
      <trkpt lat="44.32956" lon="6.3054">
        <ele>1677.5</ele>
        <time>2020-08-28T08:34:31Z</time>
      </trkpt>
      <trkpt lat="44.32951" lon="6.30544">
        <ele>1677.5</ele>
        <time>2020-08-28T08:34:37Z</time>
      </trkpt>
      <trkpt lat="44.32946" lon="6.30547">
        <ele>1677.4</ele>
        <time>2020-08-28T08:34:42Z</time>
      </trkpt>
      <trkpt lat="44.32941" lon="6.3055">
        <ele>1677.4</ele>
        <time>2020-08-28T08:34:47Z</time>
      </trkpt>
      <trkpt lat="44.32936" lon="6.30554">
        <ele>1677.4</ele>
        <time>2020-08-28T08:34:53Z</time>
      </trkpt>
      <trkpt lat="44.32929" lon="6.3056">
        <ele>1677.5</ele>
        <time>2020-08-28T08:34:59Z</time>
      </trkpt>
      <trkpt lat="44.32925" lon="6.30565">
        <ele>1677.5</ele>
        <time>2020-08-28T08:35:04Z</time>
      </trkpt>
      <trkpt lat="44.32922" lon="6.30569">
        <ele>1677.6</ele>
        <time>2020-08-28T08:35:09Z</time>
      </trkpt>
      <trkpt lat="44.32918" lon="6.30575">
        <ele>1677.8</ele>
        <time>2020-08-28T08:35:15Z</time>
      </trkpt>
      <trkpt lat="44.32915" lon="6.3058">
        <ele>1677.7</ele>
        <time>2020-08-28T08:35:20Z</time>
      </trkpt>
      <trkpt lat="44.3291" lon="6.30585">
        <ele>1678</ele>
        <time>2020-08-28T08:35:26Z</time>
      </trkpt>
      <trkpt lat="44.32907" lon="6.3059">
        <ele>1677.9</ele>
        <time>2020-08-28T08:35:32Z</time>
      </trkpt>
      <trkpt lat="44.32902" lon="6.30595">
        <ele>1677.9</ele>
        <time>2020-08-28T08:35:38Z</time>
      </trkpt>
      <trkpt lat="44.32898" lon="6.30601">
        <ele>1677.9</ele>
        <time>2020-08-28T08:35:44Z</time>
      </trkpt>
      <trkpt lat="44.32893" lon="6.30605">
        <ele>1677.9</ele>
        <time>2020-08-28T08:35:51Z</time>
      </trkpt>
      <trkpt lat="44.32889" lon="6.3061">
        <ele>1678</ele>
        <time>2020-08-28T08:35:56Z</time>
      </trkpt>
      <trkpt lat="44.32885" lon="6.30615">
        <ele>1678</ele>
        <time>2020-08-28T08:36:02Z</time>
      </trkpt>
      <trkpt lat="44.32882" lon="6.3062">
        <ele>1678.1</ele>
        <time>2020-08-28T08:36:07Z</time>
      </trkpt>
      <trkpt lat="44.32877" lon="6.30622">
        <ele>1678.4</ele>
        <time>2020-08-28T08:36:13Z</time>
      </trkpt>
      <trkpt lat="44.32874" lon="6.30625">
        <ele>1678.6</ele>
        <time>2020-08-28T08:36:19Z</time>
      </trkpt>
      <trkpt lat="44.32871" lon="6.3063">
        <ele>1678.8</ele>
        <time>2020-08-28T08:36:24Z</time>
      </trkpt>
      <trkpt lat="44.32869" lon="6.30634">
        <ele>1679</ele>
        <time>2020-08-28T08:36:29Z</time>
      </trkpt>
      <trkpt lat="44.32866" lon="6.30641">
        <ele>1679.3</ele>
        <time>2020-08-28T08:36:35Z</time>
      </trkpt>
      <trkpt lat="44.32862" lon="6.30645">
        <ele>1679.9</ele>
        <time>2020-08-28T08:36:40Z</time>
      </trkpt>
      <trkpt lat="44.32858" lon="6.30651">
        <ele>1680.6</ele>
        <time>2020-08-28T08:36:45Z</time>
      </trkpt>
      <trkpt lat="44.32853" lon="6.30659">
        <ele>1682</ele>
        <time>2020-08-28T08:36:51Z</time>
      </trkpt>
      <trkpt lat="44.32849" lon="6.30662">
        <ele>1682.9</ele>
        <time>2020-08-28T08:36:56Z</time>
      </trkpt>
      <trkpt lat="44.32845" lon="6.30667">
        <ele>1682.7</ele>
        <time>2020-08-28T08:37:02Z</time>
      </trkpt>
      <trkpt lat="44.32839" lon="6.30672">
        <ele>1684.1</ele>
        <time>2020-08-28T08:37:08Z</time>
      </trkpt>
      <trkpt lat="44.32834" lon="6.30676">
        <ele>1683.7</ele>
        <time>2020-08-28T08:37:14Z</time>
      </trkpt>
      <trkpt lat="44.3283" lon="6.30679">
        <ele>1684.5</ele>
        <time>2020-08-28T08:37:19Z</time>
      </trkpt>
      <trkpt lat="44.32827" lon="6.30681">
        <ele>1683.9</ele>
        <time>2020-08-28T08:37:25Z</time>
      </trkpt>
      <trkpt lat="44.32821" lon="6.30685">
        <ele>1682.8</ele>
        <time>2020-08-28T08:37:31Z</time>
      </trkpt>
      <trkpt lat="44.32816" lon="6.30687">
        <ele>1682.1</ele>
        <time>2020-08-28T08:37:37Z</time>
      </trkpt>
      <trkpt lat="44.32815" lon="6.30689">
        <ele>1681.8</ele>
        <time>2020-08-28T08:37:42Z</time>
      </trkpt>
      <trkpt lat="44.32811" lon="6.30693">
        <ele>1681.3</ele>
        <time>2020-08-28T08:37:47Z</time>
      </trkpt>
      <trkpt lat="44.32811" lon="6.30695">
        <ele>1681.2</ele>
        <time>2020-08-28T08:37:52Z</time>
      </trkpt>
      <trkpt lat="44.32811" lon="6.30695">
        <ele>1681.2</ele>
        <time>2020-08-28T08:37:58Z</time>
      </trkpt>
      <trkpt lat="44.32808" lon="6.30699">
        <ele>1680.8</ele>
        <time>2020-08-28T08:38:03Z</time>
      </trkpt>
      <trkpt lat="44.32804" lon="6.30701">
        <ele>1680.4</ele>
        <time>2020-08-28T08:38:08Z</time>
      </trkpt>
      <trkpt lat="44.328" lon="6.30707">
        <ele>1680.1</ele>
        <time>2020-08-28T08:38:14Z</time>
      </trkpt>
      <trkpt lat="44.32795" lon="6.30712">
        <ele>1679.7</ele>
        <time>2020-08-28T08:38:19Z</time>
      </trkpt>
      <trkpt lat="44.32791" lon="6.30718">
        <ele>1679.6</ele>
        <time>2020-08-28T08:38:25Z</time>
      </trkpt>
      <trkpt lat="44.32789" lon="6.30722">
        <ele>1679.5</ele>
        <time>2020-08-28T08:38:31Z</time>
      </trkpt>
      <trkpt lat="44.32786" lon="6.30728">
        <ele>1679.4</ele>
        <time>2020-08-28T08:38:37Z</time>
      </trkpt>
      <trkpt lat="44.32785" lon="6.30732">
        <ele>1679.4</ele>
        <time>2020-08-28T08:38:42Z</time>
      </trkpt>
      <trkpt lat="44.32781" lon="6.30741">
        <ele>1679.2</ele>
        <time>2020-08-28T08:38:48Z</time>
      </trkpt>
      <trkpt lat="44.32778" lon="6.30747">
        <ele>1679.2</ele>
        <time>2020-08-28T08:38:53Z</time>
      </trkpt>
      <trkpt lat="44.32774" lon="6.30755">
        <ele>1677.1</ele>
        <time>2020-08-28T08:38:58Z</time>
      </trkpt>
      <trkpt lat="44.32771" lon="6.30766">
        <ele>1676.8</ele>
        <time>2020-08-28T08:39:04Z</time>
      </trkpt>
      <trkpt lat="44.3277" lon="6.30772">
        <ele>1676.6</ele>
        <time>2020-08-28T08:39:10Z</time>
      </trkpt>
      <trkpt lat="44.3277" lon="6.3078">
        <ele>1676.3</ele>
        <time>2020-08-28T08:39:16Z</time>
      </trkpt>
      <trkpt lat="44.32769" lon="6.30786">
        <ele>1676.1</ele>
        <time>2020-08-28T08:39:22Z</time>
      </trkpt>
      <trkpt lat="44.32767" lon="6.30792">
        <ele>1675.9</ele>
        <time>2020-08-28T08:39:27Z</time>
      </trkpt>
      <trkpt lat="44.32764" lon="6.30799">
        <ele>1675.7</ele>
        <time>2020-08-28T08:39:33Z</time>
      </trkpt>
      <trkpt lat="44.32761" lon="6.30805">
        <ele>1675.6</ele>
        <time>2020-08-28T08:39:38Z</time>
      </trkpt>
      <trkpt lat="44.32758" lon="6.3081">
        <ele>1675.6</ele>
        <time>2020-08-28T08:39:44Z</time>
      </trkpt>
      <trkpt lat="44.32754" lon="6.30818">
        <ele>1675.6</ele>
        <time>2020-08-28T08:39:50Z</time>
      </trkpt>
      <trkpt lat="44.3275" lon="6.30821">
        <ele>1675.7</ele>
        <time>2020-08-28T08:39:55Z</time>
      </trkpt>
      <trkpt lat="44.32746" lon="6.30827">
        <ele>1674.9</ele>
        <time>2020-08-28T08:40:01Z</time>
      </trkpt>
      <trkpt lat="44.32741" lon="6.30832">
        <ele>1674.7</ele>
        <time>2020-08-28T08:40:07Z</time>
      </trkpt>
      <trkpt lat="44.32737" lon="6.30837">
        <ele>1673.9</ele>
        <time>2020-08-28T08:40:12Z</time>
      </trkpt>
      <trkpt lat="44.32731" lon="6.30844">
        <ele>1673</ele>
        <time>2020-08-28T08:40:18Z</time>
      </trkpt>
      <trkpt lat="44.32727" lon="6.3085">
        <ele>1672.5</ele>
        <time>2020-08-28T08:40:24Z</time>
      </trkpt>
      <trkpt lat="44.32718" lon="6.30856">
        <ele>1672</ele>
        <time>2020-08-28T08:40:30Z</time>
      </trkpt>
      <trkpt lat="44.32713" lon="6.30857">
        <ele>1671.9</ele>
        <time>2020-08-28T08:40:35Z</time>
      </trkpt>
      <trkpt lat="44.32708" lon="6.3086">
        <ele>1671.7</ele>
        <time>2020-08-28T08:40:41Z</time>
      </trkpt>
      <trkpt lat="44.32704" lon="6.30863">
        <ele>1671.6</ele>
        <time>2020-08-28T08:40:46Z</time>
      </trkpt>
      <trkpt lat="44.32698" lon="6.30867">
        <ele>1671.6</ele>
        <time>2020-08-28T08:40:52Z</time>
      </trkpt>
      <trkpt lat="44.32694" lon="6.30872">
        <ele>1671.5</ele>
        <time>2020-08-28T08:40:58Z</time>
      </trkpt>
      <trkpt lat="44.32689" lon="6.30875">
        <ele>1671.5</ele>
        <time>2020-08-28T08:41:04Z</time>
      </trkpt>
      <trkpt lat="44.32684" lon="6.30882">
        <ele>1671.5</ele>
        <time>2020-08-28T08:41:10Z</time>
      </trkpt>
      <trkpt lat="44.32678" lon="6.30887">
        <ele>1671.6</ele>
        <time>2020-08-28T08:41:16Z</time>
      </trkpt>
      <trkpt lat="44.32673" lon="6.30894">
        <ele>1671.8</ele>
        <time>2020-08-28T08:41:22Z</time>
      </trkpt>
      <trkpt lat="44.32669" lon="6.30902">
        <ele>1672.1</ele>
        <time>2020-08-28T08:41:27Z</time>
      </trkpt>
      <trkpt lat="44.32666" lon="6.3091">
        <ele>1672.3</ele>
        <time>2020-08-28T08:41:33Z</time>
      </trkpt>
      <trkpt lat="44.32665" lon="6.30913">
        <ele>1672.6</ele>
        <time>2020-08-28T08:41:38Z</time>
      </trkpt>
      <trkpt lat="44.32662" lon="6.30922">
        <ele>1672.5</ele>
        <time>2020-08-28T08:41:44Z</time>
      </trkpt>
      <trkpt lat="44.3266" lon="6.30928">
        <ele>1672.1</ele>
        <time>2020-08-28T08:41:50Z</time>
      </trkpt>
      <trkpt lat="44.32657" lon="6.30939">
        <ele>1671.6</ele>
        <time>2020-08-28T08:41:56Z</time>
      </trkpt>
      <trkpt lat="44.32653" lon="6.30948">
        <ele>1671.3</ele>
        <time>2020-08-28T08:42:02Z</time>
      </trkpt>
      <trkpt lat="44.32653" lon="6.30955">
        <ele>1671</ele>
        <time>2020-08-28T08:42:08Z</time>
      </trkpt>
      <trkpt lat="44.32652" lon="6.30959">
        <ele>1670.8</ele>
        <time>2020-08-28T08:42:13Z</time>
      </trkpt>
      <trkpt lat="44.32648" lon="6.30966">
        <ele>1670.7</ele>
        <time>2020-08-28T08:42:19Z</time>
      </trkpt>
      <trkpt lat="44.32645" lon="6.30974">
        <ele>1670.4</ele>
        <time>2020-08-28T08:42:25Z</time>
      </trkpt>
      <trkpt lat="44.32641" lon="6.30982">
        <ele>1670.3</ele>
        <time>2020-08-28T08:42:31Z</time>
      </trkpt>
      <trkpt lat="44.32637" lon="6.30988">
        <ele>1670.3</ele>
        <time>2020-08-28T08:42:36Z</time>
      </trkpt>
      <trkpt lat="44.32635" lon="6.30995">
        <ele>1670.3</ele>
        <time>2020-08-28T08:42:42Z</time>
      </trkpt>
      <trkpt lat="44.32632" lon="6.31004">
        <ele>1664.6</ele>
        <time>2020-08-28T08:42:48Z</time>
      </trkpt>
      <trkpt lat="44.32631" lon="6.31012">
        <ele>1664.2</ele>
        <time>2020-08-28T08:42:54Z</time>
      </trkpt>
      <trkpt lat="44.32629" lon="6.3102">
        <ele>1663.7</ele>
        <time>2020-08-28T08:42:59Z</time>
      </trkpt>
      <trkpt lat="44.3263" lon="6.3103">
        <ele>1662.8</ele>
        <time>2020-08-28T08:43:05Z</time>
      </trkpt>
      <trkpt lat="44.32628" lon="6.31034">
        <ele>1662.5</ele>
        <time>2020-08-28T08:43:10Z</time>
      </trkpt>
      <trkpt lat="44.32628" lon="6.31033">
        <ele>1662.6</ele>
        <time>2020-08-28T08:43:15Z</time>
      </trkpt>
      <trkpt lat="44.32628" lon="6.31034">
        <ele>1662.5</ele>
        <time>2020-08-28T08:43:21Z</time>
      </trkpt>
      <trkpt lat="44.32627" lon="6.31034">
        <ele>1662.6</ele>
        <time>2020-08-28T08:43:27Z</time>
      </trkpt>
      <trkpt lat="44.32628" lon="6.31033">
        <ele>1662.6</ele>
        <time>2020-08-28T08:43:32Z</time>
      </trkpt>
      <trkpt lat="44.32627" lon="6.31034">
        <ele>1662.5</ele>
        <time>2020-08-28T08:43:38Z</time>
      </trkpt>
      <trkpt lat="44.32624" lon="6.31038">
        <ele>1662.4</ele>
        <time>2020-08-28T08:43:44Z</time>
      </trkpt>
      <trkpt lat="44.32623" lon="6.31041">
        <ele>1662.2</ele>
        <time>2020-08-28T08:43:50Z</time>
      </trkpt>
      <trkpt lat="44.32621" lon="6.31044">
        <ele>1662.1</ele>
        <time>2020-08-28T08:43:56Z</time>
      </trkpt>
      <trkpt lat="44.32621" lon="6.31047">
        <ele>1661.9</ele>
        <time>2020-08-28T08:44:01Z</time>
      </trkpt>
      <trkpt lat="44.3262" lon="6.31048">
        <ele>1661.8</ele>
        <time>2020-08-28T08:44:07Z</time>
      </trkpt>
      <trkpt lat="44.32617" lon="6.31052">
        <ele>1661.8</ele>
        <time>2020-08-28T08:44:13Z</time>
      </trkpt>
      <trkpt lat="44.32613" lon="6.31059">
        <ele>1661.7</ele>
        <time>2020-08-28T08:44:19Z</time>
      </trkpt>
      <trkpt lat="44.3261" lon="6.31066">
        <ele>1661.6</ele>
        <time>2020-08-28T08:44:24Z</time>
      </trkpt>
      <trkpt lat="44.32607" lon="6.31073">
        <ele>1661.7</ele>
        <time>2020-08-28T08:44:30Z</time>
      </trkpt>
      <trkpt lat="44.32603" lon="6.31079">
        <ele>1662</ele>
        <time>2020-08-28T08:44:35Z</time>
      </trkpt>
      <trkpt lat="44.32599" lon="6.31084">
        <ele>1655</ele>
        <time>2020-08-28T08:44:40Z</time>
      </trkpt>
      <trkpt lat="44.32597" lon="6.31089">
        <ele>1655.5</ele>
        <time>2020-08-28T08:44:46Z</time>
      </trkpt>
      <trkpt lat="44.32593" lon="6.31094">
        <ele>1655.4</ele>
        <time>2020-08-28T08:44:51Z</time>
      </trkpt>
      <trkpt lat="44.32589" lon="6.311">
        <ele>1654.1</ele>
        <time>2020-08-28T08:44:57Z</time>
      </trkpt>
      <trkpt lat="44.32586" lon="6.31105">
        <ele>1653.1</ele>
        <time>2020-08-28T08:45:03Z</time>
      </trkpt>
      <trkpt lat="44.32582" lon="6.3111">
        <ele>1661.6</ele>
        <time>2020-08-28T08:45:08Z</time>
      </trkpt>
      <trkpt lat="44.32579" lon="6.31113">
        <ele>1661.3</ele>
        <time>2020-08-28T08:45:13Z</time>
      </trkpt>
      <trkpt lat="44.32574" lon="6.3112">
        <ele>1660.6</ele>
        <time>2020-08-28T08:45:19Z</time>
      </trkpt>
      <trkpt lat="44.32571" lon="6.31126">
        <ele>1659.9</ele>
        <time>2020-08-28T08:45:25Z</time>
      </trkpt>
      <trkpt lat="44.3257" lon="6.31131">
        <ele>1659.4</ele>
        <time>2020-08-28T08:45:31Z</time>
      </trkpt>
      <trkpt lat="44.32569" lon="6.31135">
        <ele>1658.9</ele>
        <time>2020-08-28T08:45:36Z</time>
      </trkpt>
      <trkpt lat="44.32569" lon="6.31138">
        <ele>1658.5</ele>
        <time>2020-08-28T08:45:42Z</time>
      </trkpt>
      <trkpt lat="44.32568" lon="6.31137">
        <ele>1658.7</ele>
        <time>2020-08-28T08:45:48Z</time>
      </trkpt>
      <trkpt lat="44.32567" lon="6.31136">
        <ele>1658.9</ele>
        <time>2020-08-28T08:45:53Z</time>
      </trkpt>
      <trkpt lat="44.32566" lon="6.31137">
        <ele>1658.9</ele>
        <time>2020-08-28T08:45:59Z</time>
      </trkpt>
      <trkpt lat="44.32564" lon="6.31141">
        <ele>1658.5</ele>
        <time>2020-08-28T08:46:04Z</time>
      </trkpt>
      <trkpt lat="44.32561" lon="6.31144">
        <ele>1658.4</ele>
        <time>2020-08-28T08:46:10Z</time>
      </trkpt>
      <trkpt lat="44.32557" lon="6.31149">
        <ele>1658.3</ele>
        <time>2020-08-28T08:46:15Z</time>
      </trkpt>
      <trkpt lat="44.3255" lon="6.31153">
        <ele>1658.8</ele>
        <time>2020-08-28T08:46:21Z</time>
      </trkpt>
      <trkpt lat="44.32546" lon="6.31157">
        <ele>1659.1</ele>
        <time>2020-08-28T08:46:26Z</time>
      </trkpt>
      <trkpt lat="44.32541" lon="6.3116">
        <ele>1659.5</ele>
        <time>2020-08-28T08:46:32Z</time>
      </trkpt>
      <trkpt lat="44.32538" lon="6.31162">
        <ele>1659.7</ele>
        <time>2020-08-28T08:46:37Z</time>
      </trkpt>
      <trkpt lat="44.32533" lon="6.31169">
        <ele>1652.1</ele>
        <time>2020-08-28T08:46:43Z</time>
      </trkpt>
      <trkpt lat="44.32533" lon="6.3117">
        <ele>1652.1</ele>
        <time>2020-08-28T08:46:49Z</time>
      </trkpt>
      <trkpt lat="44.32535" lon="6.3117">
        <ele>1651.8</ele>
        <time>2020-08-28T08:46:55Z</time>
      </trkpt>
      <trkpt lat="44.32535" lon="6.31171">
        <ele>1651.8</ele>
        <time>2020-08-28T08:47:01Z</time>
      </trkpt>
      <trkpt lat="44.32533" lon="6.31176">
        <ele>1651.8</ele>
        <time>2020-08-28T08:47:07Z</time>
      </trkpt>
      <trkpt lat="44.32531" lon="6.31181">
        <ele>1651.7</ele>
        <time>2020-08-28T08:47:12Z</time>
      </trkpt>
      <trkpt lat="44.32531" lon="6.31188">
        <ele>1651.1</ele>
        <time>2020-08-28T08:47:18Z</time>
      </trkpt>
      <trkpt lat="44.32534" lon="6.31194">
        <ele>1650.4</ele>
        <time>2020-08-28T08:47:24Z</time>
      </trkpt>
      <trkpt lat="44.32538" lon="6.31195">
        <ele>1650</ele>
        <time>2020-08-28T08:47:29Z</time>
      </trkpt>
      <trkpt lat="44.32543" lon="6.3119">
        <ele>1650</ele>
        <time>2020-08-28T08:47:35Z</time>
      </trkpt>
      <trkpt lat="44.32548" lon="6.31185">
        <ele>1649.8</ele>
        <time>2020-08-28T08:47:41Z</time>
      </trkpt>
      <trkpt lat="44.32551" lon="6.31182">
        <ele>1649.8</ele>
        <time>2020-08-28T08:47:47Z</time>
      </trkpt>
      <trkpt lat="44.32551" lon="6.31183">
        <ele>1649.8</ele>
        <time>2020-08-28T08:47:53Z</time>
      </trkpt>
      <trkpt lat="44.3255" lon="6.31183">
        <ele>1649.8</ele>
        <time>2020-08-28T08:47:58Z</time>
      </trkpt>
      <trkpt lat="44.3255" lon="6.31186">
        <ele>1649.6</ele>
        <time>2020-08-28T08:48:03Z</time>
      </trkpt>
      <trkpt lat="44.32551" lon="6.31192">
        <ele>1649.3</ele>
        <time>2020-08-28T08:48:09Z</time>
      </trkpt>
      <trkpt lat="44.32549" lon="6.31197">
        <ele>1649.1</ele>
        <time>2020-08-28T08:48:14Z</time>
      </trkpt>
      <trkpt lat="44.3255" lon="6.31203">
        <ele>1648.6</ele>
        <time>2020-08-28T08:48:19Z</time>
      </trkpt>
      <trkpt lat="44.3255" lon="6.31208">
        <ele>1648.3</ele>
        <time>2020-08-28T08:48:24Z</time>
      </trkpt>
      <trkpt lat="44.32548" lon="6.31216">
        <ele>1647.8</ele>
        <time>2020-08-28T08:48:30Z</time>
      </trkpt>
      <trkpt lat="44.32547" lon="6.31225">
        <ele>1647.2</ele>
        <time>2020-08-28T08:48:36Z</time>
      </trkpt>
      <trkpt lat="44.32544" lon="6.3123">
        <ele>1647.1</ele>
        <time>2020-08-28T08:48:41Z</time>
      </trkpt>
      <trkpt lat="44.32539" lon="6.31234">
        <ele>1647.2</ele>
        <time>2020-08-28T08:48:47Z</time>
      </trkpt>
      <trkpt lat="44.3254" lon="6.31239">
        <ele>1646.9</ele>
        <time>2020-08-28T08:48:53Z</time>
      </trkpt>
      <trkpt lat="44.32541" lon="6.31245">
        <ele>1646.6</ele>
        <time>2020-08-28T08:48:59Z</time>
      </trkpt>
      <trkpt lat="44.32539" lon="6.31254">
        <ele>1639.7</ele>
        <time>2020-08-28T08:49:04Z</time>
      </trkpt>
      <trkpt lat="44.32539" lon="6.31264">
        <ele>1639.4</ele>
        <time>2020-08-28T08:49:10Z</time>
      </trkpt>
      <trkpt lat="44.32537" lon="6.31268">
        <ele>1639.3</ele>
        <time>2020-08-28T08:49:15Z</time>
      </trkpt>
      <trkpt lat="44.32533" lon="6.31275">
        <ele>1639.2</ele>
        <time>2020-08-28T08:49:20Z</time>
      </trkpt>
      <trkpt lat="44.3253" lon="6.31282">
        <ele>1638.8</ele>
        <time>2020-08-28T08:49:26Z</time>
      </trkpt>
      <trkpt lat="44.32532" lon="6.31289">
        <ele>1638.3</ele>
        <time>2020-08-28T08:49:31Z</time>
      </trkpt>
      <trkpt lat="44.32531" lon="6.31296">
        <ele>1637.9</ele>
        <time>2020-08-28T08:49:37Z</time>
      </trkpt>
      <trkpt lat="44.32531" lon="6.31301">
        <ele>1637.5</ele>
        <time>2020-08-28T08:49:42Z</time>
      </trkpt>
      <trkpt lat="44.32534" lon="6.3131">
        <ele>1637</ele>
        <time>2020-08-28T08:49:48Z</time>
      </trkpt>
      <trkpt lat="44.32536" lon="6.31319">
        <ele>1636.6</ele>
        <time>2020-08-28T08:49:54Z</time>
      </trkpt>
      <trkpt lat="44.32534" lon="6.31328">
        <ele>1636.3</ele>
        <time>2020-08-28T08:50:00Z</time>
      </trkpt>
      <trkpt lat="44.32528" lon="6.3133">
        <ele>1636.3</ele>
        <time>2020-08-28T08:50:06Z</time>
      </trkpt>
      <trkpt lat="44.32528" lon="6.31335">
        <ele>1631.1</ele>
        <time>2020-08-28T08:50:12Z</time>
      </trkpt>
      <trkpt lat="44.32526" lon="6.31344">
        <ele>1630.8</ele>
        <time>2020-08-28T08:50:18Z</time>
      </trkpt>
      <trkpt lat="44.32523" lon="6.31353">
        <ele>1630.6</ele>
        <time>2020-08-28T08:50:24Z</time>
      </trkpt>
      <trkpt lat="44.32519" lon="6.31359">
        <ele>1630.3</ele>
        <time>2020-08-28T08:50:29Z</time>
      </trkpt>
      <trkpt lat="44.32517" lon="6.31366">
        <ele>1629.9</ele>
        <time>2020-08-28T08:50:34Z</time>
      </trkpt>
      <trkpt lat="44.32515" lon="6.31376">
        <ele>1629.2</ele>
        <time>2020-08-28T08:50:40Z</time>
      </trkpt>
      <trkpt lat="44.32511" lon="6.31381">
        <ele>1628.9</ele>
        <time>2020-08-28T08:50:45Z</time>
      </trkpt>
      <trkpt lat="44.32508" lon="6.31385">
        <ele>1628.6</ele>
        <time>2020-08-28T08:50:51Z</time>
      </trkpt>
      <trkpt lat="44.32505" lon="6.3139">
        <ele>1628.3</ele>
        <time>2020-08-28T08:50:56Z</time>
      </trkpt>
      <trkpt lat="44.32502" lon="6.31396">
        <ele>1627.8</ele>
        <time>2020-08-28T08:51:02Z</time>
      </trkpt>
      <trkpt lat="44.32499" lon="6.31401">
        <ele>1626.8</ele>
        <time>2020-08-28T08:51:07Z</time>
      </trkpt>
      <trkpt lat="44.32496" lon="6.31408">
        <ele>1626.4</ele>
        <time>2020-08-28T08:51:13Z</time>
      </trkpt>
      <trkpt lat="44.32491" lon="6.31412">
        <ele>1626.3</ele>
        <time>2020-08-28T08:51:18Z</time>
      </trkpt>
      <trkpt lat="44.32486" lon="6.31416">
        <ele>1626.3</ele>
        <time>2020-08-28T08:51:24Z</time>
      </trkpt>
      <trkpt lat="44.32482" lon="6.31422">
        <ele>1623.6</ele>
        <time>2020-08-28T08:51:30Z</time>
      </trkpt>
      <trkpt lat="44.3248" lon="6.31427">
        <ele>1623.3</ele>
        <time>2020-08-28T08:51:35Z</time>
      </trkpt>
      <trkpt lat="44.32478" lon="6.31434">
        <ele>1622.9</ele>
        <time>2020-08-28T08:51:41Z</time>
      </trkpt>
      <trkpt lat="44.32476" lon="6.31442">
        <ele>1622.6</ele>
        <time>2020-08-28T08:51:47Z</time>
      </trkpt>
      <trkpt lat="44.32475" lon="6.31447">
        <ele>1622.4</ele>
        <time>2020-08-28T08:51:52Z</time>
      </trkpt>
      <trkpt lat="44.32473" lon="6.31454">
        <ele>1622.1</ele>
        <time>2020-08-28T08:51:58Z</time>
      </trkpt>
      <trkpt lat="44.32471" lon="6.31463">
        <ele>1621.9</ele>
        <time>2020-08-28T08:52:04Z</time>
      </trkpt>
      <trkpt lat="44.32469" lon="6.31471">
        <ele>1621.8</ele>
        <time>2020-08-28T08:52:09Z</time>
      </trkpt>
      <trkpt lat="44.32467" lon="6.31478">
        <ele>1621.7</ele>
        <time>2020-08-28T08:52:15Z</time>
      </trkpt>
      <trkpt lat="44.32465" lon="6.31483">
        <ele>1621.6</ele>
        <time>2020-08-28T08:52:20Z</time>
      </trkpt>
      <trkpt lat="44.32464" lon="6.3149">
        <ele>1621.5</ele>
        <time>2020-08-28T08:52:25Z</time>
      </trkpt>
      <trkpt lat="44.32462" lon="6.31499">
        <ele>1621.5</ele>
        <time>2020-08-28T08:52:31Z</time>
      </trkpt>
      <trkpt lat="44.32461" lon="6.31505">
        <ele>1618.9</ele>
        <time>2020-08-28T08:52:36Z</time>
      </trkpt>
      <trkpt lat="44.32459" lon="6.31513">
        <ele>1618.8</ele>
        <time>2020-08-28T08:52:42Z</time>
      </trkpt>
      <trkpt lat="44.32457" lon="6.31518">
        <ele>1618.6</ele>
        <time>2020-08-28T08:52:47Z</time>
      </trkpt>
      <trkpt lat="44.32451" lon="6.31525">
        <ele>1618.3</ele>
        <time>2020-08-28T08:52:53Z</time>
      </trkpt>
      <trkpt lat="44.32445" lon="6.3153">
        <ele>1618.1</ele>
        <time>2020-08-28T08:52:58Z</time>
      </trkpt>
      <trkpt lat="44.32443" lon="6.31533">
        <ele>1618</ele>
        <time>2020-08-28T08:53:03Z</time>
      </trkpt>
      <trkpt lat="44.32442" lon="6.31538">
        <ele>1617.7</ele>
        <time>2020-08-28T08:53:09Z</time>
      </trkpt>
      <trkpt lat="44.32439" lon="6.31542">
        <ele>1617.5</ele>
        <time>2020-08-28T08:53:15Z</time>
      </trkpt>
      <trkpt lat="44.32436" lon="6.31546">
        <ele>1617.2</ele>
        <time>2020-08-28T08:53:20Z</time>
      </trkpt>
      <trkpt lat="44.32432" lon="6.31552">
        <ele>1616.7</ele>
        <time>2020-08-28T08:53:26Z</time>
      </trkpt>
      <trkpt lat="44.32428" lon="6.31558">
        <ele>1616.1</ele>
        <time>2020-08-28T08:53:32Z</time>
      </trkpt>
      <trkpt lat="44.32426" lon="6.3156">
        <ele>1615.8</ele>
        <time>2020-08-28T08:53:37Z</time>
      </trkpt>
      <trkpt lat="44.32425" lon="6.31566">
        <ele>1615.2</ele>
        <time>2020-08-28T08:53:42Z</time>
      </trkpt>
      <trkpt lat="44.32422" lon="6.31573">
        <ele>1614.2</ele>
        <time>2020-08-28T08:53:48Z</time>
      </trkpt>
      <trkpt lat="44.32419" lon="6.3158">
        <ele>1612.9</ele>
        <time>2020-08-28T08:53:54Z</time>
      </trkpt>
      <trkpt lat="44.32418" lon="6.31587">
        <ele>1611.5</ele>
        <time>2020-08-28T08:54:00Z</time>
      </trkpt>
      <trkpt lat="44.32419" lon="6.31594">
        <ele>1610.5</ele>
        <time>2020-08-28T08:54:06Z</time>
      </trkpt>
      <trkpt lat="44.32422" lon="6.316">
        <ele>1609.8</ele>
        <time>2020-08-28T08:54:11Z</time>
      </trkpt>
      <trkpt lat="44.32426" lon="6.31605">
        <ele>1609.2</ele>
        <time>2020-08-28T08:54:17Z</time>
      </trkpt>
      <trkpt lat="44.3243" lon="6.31611">
        <ele>1608.7</ele>
        <time>2020-08-28T08:54:22Z</time>
      </trkpt>
      <trkpt lat="44.32434" lon="6.31617">
        <ele>1608.2</ele>
        <time>2020-08-28T08:54:28Z</time>
      </trkpt>
      <trkpt lat="44.32439" lon="6.31624">
        <ele>1607.6</ele>
        <time>2020-08-28T08:54:33Z</time>
      </trkpt>
      <trkpt lat="44.32442" lon="6.31629">
        <ele>1607.2</ele>
        <time>2020-08-28T08:54:38Z</time>
      </trkpt>
      <trkpt lat="44.32444" lon="6.31637">
        <ele>1606.5</ele>
        <time>2020-08-28T08:54:44Z</time>
      </trkpt>
      <trkpt lat="44.32445" lon="6.31645">
        <ele>1605.9</ele>
        <time>2020-08-28T08:54:49Z</time>
      </trkpt>
      <trkpt lat="44.32447" lon="6.31653">
        <ele>1605.4</ele>
        <time>2020-08-28T08:54:54Z</time>
      </trkpt>
      <trkpt lat="44.32448" lon="6.31661">
        <ele>1605.1</ele>
        <time>2020-08-28T08:55:00Z</time>
      </trkpt>
      <trkpt lat="44.32448" lon="6.31667">
        <ele>1598</ele>
        <time>2020-08-28T08:55:05Z</time>
      </trkpt>
      <trkpt lat="44.32446" lon="6.31672">
        <ele>1597.8</ele>
        <time>2020-08-28T08:55:10Z</time>
      </trkpt>
      <trkpt lat="44.32444" lon="6.3168">
        <ele>1597.6</ele>
        <time>2020-08-28T08:55:16Z</time>
      </trkpt>
      <trkpt lat="44.32443" lon="6.31687">
        <ele>1597.2</ele>
        <time>2020-08-28T08:55:22Z</time>
      </trkpt>
      <trkpt lat="44.32442" lon="6.31695">
        <ele>1596.8</ele>
        <time>2020-08-28T08:55:28Z</time>
      </trkpt>
      <trkpt lat="44.3244" lon="6.31701">
        <ele>1596.4</ele>
        <time>2020-08-28T08:55:33Z</time>
      </trkpt>
      <trkpt lat="44.32438" lon="6.31709">
        <ele>1595.9</ele>
        <time>2020-08-28T08:55:39Z</time>
      </trkpt>
      <trkpt lat="44.32437" lon="6.31715">
        <ele>1595.5</ele>
        <time>2020-08-28T08:55:44Z</time>
      </trkpt>
      <trkpt lat="44.32435" lon="6.3172">
        <ele>1595.1</ele>
        <time>2020-08-28T08:55:49Z</time>
      </trkpt>
      <trkpt lat="44.32435" lon="6.31729">
        <ele>1594.4</ele>
        <time>2020-08-28T08:55:55Z</time>
      </trkpt>
      <trkpt lat="44.32432" lon="6.31738">
        <ele>1593.7</ele>
        <time>2020-08-28T08:56:01Z</time>
      </trkpt>
      <trkpt lat="44.3243" lon="6.31746">
        <ele>1593.1</ele>
        <time>2020-08-28T08:56:07Z</time>
      </trkpt>
      <trkpt lat="44.32428" lon="6.31752">
        <ele>1589</ele>
        <time>2020-08-28T08:56:12Z</time>
      </trkpt>
      <trkpt lat="44.32423" lon="6.31761">
        <ele>1588.7</ele>
        <time>2020-08-28T08:56:18Z</time>
      </trkpt>
      <trkpt lat="44.32418" lon="6.31766">
        <ele>1588.2</ele>
        <time>2020-08-28T08:56:23Z</time>
      </trkpt>
      <trkpt lat="44.32416" lon="6.31773">
        <ele>1586.2</ele>
        <time>2020-08-28T08:56:29Z</time>
      </trkpt>
      <trkpt lat="44.32413" lon="6.31782">
        <ele>1585.3</ele>
        <time>2020-08-28T08:56:35Z</time>
      </trkpt>
      <trkpt lat="44.32411" lon="6.3179">
        <ele>1584.6</ele>
        <time>2020-08-28T08:56:41Z</time>
      </trkpt>
      <trkpt lat="44.32409" lon="6.31799">
        <ele>1584.2</ele>
        <time>2020-08-28T08:56:46Z</time>
      </trkpt>
      <trkpt lat="44.32408" lon="6.31807">
        <ele>1584</ele>
        <time>2020-08-28T08:56:52Z</time>
      </trkpt>
      <trkpt lat="44.32409" lon="6.31806">
        <ele>1584</ele>
        <time>2020-08-28T08:56:58Z</time>
      </trkpt>
      <trkpt lat="44.32412" lon="6.31812">
        <ele>1583.9</ele>
        <time>2020-08-28T08:57:04Z</time>
      </trkpt>
      <trkpt lat="44.32413" lon="6.31819">
        <ele>1583.9</ele>
        <time>2020-08-28T08:57:09Z</time>
      </trkpt>
      <trkpt lat="44.32419" lon="6.31824">
        <ele>1584.2</ele>
        <time>2020-08-28T08:57:15Z</time>
      </trkpt>
      <trkpt lat="44.32425" lon="6.31829">
        <ele>1584</ele>
        <time>2020-08-28T08:57:21Z</time>
      </trkpt>
      <trkpt lat="44.32431" lon="6.31832">
        <ele>1583.9</ele>
        <time>2020-08-28T08:57:26Z</time>
      </trkpt>
      <trkpt lat="44.32437" lon="6.31832">
        <ele>1583.7</ele>
        <time>2020-08-28T08:57:32Z</time>
      </trkpt>
      <trkpt lat="44.32442" lon="6.3183">
        <ele>1583.5</ele>
        <time>2020-08-28T08:57:37Z</time>
      </trkpt>
      <trkpt lat="44.32448" lon="6.3183">
        <ele>1583.2</ele>
        <time>2020-08-28T08:57:43Z</time>
      </trkpt>
      <trkpt lat="44.32453" lon="6.31829">
        <ele>1582.9</ele>
        <time>2020-08-28T08:57:49Z</time>
      </trkpt>
      <trkpt lat="44.32458" lon="6.31828">
        <ele>1582.6</ele>
        <time>2020-08-28T08:57:54Z</time>
      </trkpt>
      <trkpt lat="44.32462" lon="6.31826">
        <ele>1582.2</ele>
        <time>2020-08-28T08:58:00Z</time>
      </trkpt>
      <trkpt lat="44.32467" lon="6.31825">
        <ele>1581.8</ele>
        <time>2020-08-28T08:58:06Z</time>
      </trkpt>
      <trkpt lat="44.32472" lon="6.31822">
        <ele>1581.5</ele>
        <time>2020-08-28T08:58:11Z</time>
      </trkpt>
      <trkpt lat="44.32477" lon="6.31822">
        <ele>1580.8</ele>
        <time>2020-08-28T08:58:16Z</time>
      </trkpt>
      <trkpt lat="44.32481" lon="6.31822">
        <ele>1580.2</ele>
        <time>2020-08-28T08:58:21Z</time>
      </trkpt>
      <trkpt lat="44.32485" lon="6.31819">
        <ele>1579.9</ele>
        <time>2020-08-28T08:58:26Z</time>
      </trkpt>
      <trkpt lat="44.32491" lon="6.31815">
        <ele>1579.9</ele>
        <time>2020-08-28T08:58:32Z</time>
      </trkpt>
      <trkpt lat="44.32496" lon="6.31812">
        <ele>1580.2</ele>
        <time>2020-08-28T08:58:38Z</time>
      </trkpt>
      <trkpt lat="44.32503" lon="6.31809">
        <ele>1578.5</ele>
        <time>2020-08-28T08:58:44Z</time>
      </trkpt>
      <trkpt lat="44.32509" lon="6.31806">
        <ele>1579</ele>
        <time>2020-08-28T08:58:50Z</time>
      </trkpt>
      <trkpt lat="44.32516" lon="6.31806">
        <ele>1579.1</ele>
        <time>2020-08-28T08:58:56Z</time>
      </trkpt>
      <trkpt lat="44.32522" lon="6.31808">
        <ele>1579.1</ele>
        <time>2020-08-28T08:59:01Z</time>
      </trkpt>
      <trkpt lat="44.32529" lon="6.3181">
        <ele>1578.9</ele>
        <time>2020-08-28T08:59:07Z</time>
      </trkpt>
      <trkpt lat="44.32535" lon="6.31812">
        <ele>1578.8</ele>
        <time>2020-08-28T08:59:12Z</time>
      </trkpt>
      <trkpt lat="44.3254" lon="6.31813">
        <ele>1578.7</ele>
        <time>2020-08-28T08:59:18Z</time>
      </trkpt>
      <trkpt lat="44.32545" lon="6.31814">
        <ele>1578.5</ele>
        <time>2020-08-28T08:59:23Z</time>
      </trkpt>
      <trkpt lat="44.32548" lon="6.31816">
        <ele>1578.3</ele>
        <time>2020-08-28T08:59:28Z</time>
      </trkpt>
      <trkpt lat="44.32555" lon="6.31818">
        <ele>1577.7</ele>
        <time>2020-08-28T08:59:34Z</time>
      </trkpt>
      <trkpt lat="44.32561" lon="6.31819">
        <ele>1577.2</ele>
        <time>2020-08-28T08:59:40Z</time>
      </trkpt>
      <trkpt lat="44.32562" lon="6.31818">
        <ele>1577.2</ele>
        <time>2020-08-28T08:59:46Z</time>
      </trkpt>
      <trkpt lat="44.32567" lon="6.31819">
        <ele>1576.6</ele>
        <time>2020-08-28T08:59:51Z</time>
      </trkpt>
      <trkpt lat="44.32575" lon="6.3182">
        <ele>1575.5</ele>
        <time>2020-08-28T08:59:57Z</time>
      </trkpt>
      <trkpt lat="44.32581" lon="6.3182">
        <ele>1575.1</ele>
        <time>2020-08-28T09:00:02Z</time>
      </trkpt>
      <trkpt lat="44.32586" lon="6.31817">
        <ele>1573.2</ele>
        <time>2020-08-28T09:00:08Z</time>
      </trkpt>
      <trkpt lat="44.32591" lon="6.31815">
        <ele>1573.4</ele>
        <time>2020-08-28T09:00:13Z</time>
      </trkpt>
      <trkpt lat="44.32595" lon="6.31814">
        <ele>1573.5</ele>
        <time>2020-08-28T09:00:19Z</time>
      </trkpt>
      <trkpt lat="44.32594" lon="6.31815">
        <ele>1573.4</ele>
        <time>2020-08-28T09:00:25Z</time>
      </trkpt>
      <trkpt lat="44.32594" lon="6.31815">
        <ele>1573.4</ele>
        <time>2020-08-28T09:00:31Z</time>
      </trkpt>
      <trkpt lat="44.32595" lon="6.31816">
        <ele>1573.3</ele>
        <time>2020-08-28T09:00:36Z</time>
      </trkpt>
      <trkpt lat="44.326" lon="6.31812">
        <ele>1573.7</ele>
        <time>2020-08-28T09:00:42Z</time>
      </trkpt>
      <trkpt lat="44.32606" lon="6.31809">
        <ele>1573.8</ele>
        <time>2020-08-28T09:00:47Z</time>
      </trkpt>
      <trkpt lat="44.32609" lon="6.31808">
        <ele>1573.9</ele>
        <time>2020-08-28T09:00:52Z</time>
      </trkpt>
      <trkpt lat="44.32615" lon="6.31804">
        <ele>1574.1</ele>
        <time>2020-08-28T09:00:58Z</time>
      </trkpt>
      <trkpt lat="44.32621" lon="6.31801">
        <ele>1574</ele>
        <time>2020-08-28T09:01:03Z</time>
      </trkpt>
      <trkpt lat="44.32624" lon="6.31797">
        <ele>1574.2</ele>
        <time>2020-08-28T09:01:08Z</time>
      </trkpt>
      <trkpt lat="44.32632" lon="6.31795">
        <ele>1574</ele>
        <time>2020-08-28T09:01:14Z</time>
      </trkpt>
      <trkpt lat="44.32638" lon="6.31794">
        <ele>1573.8</ele>
        <time>2020-08-28T09:01:20Z</time>
      </trkpt>
      <trkpt lat="44.32642" lon="6.31791">
        <ele>1573.9</ele>
        <time>2020-08-28T09:01:25Z</time>
      </trkpt>
      <trkpt lat="44.32646" lon="6.31788">
        <ele>1574.1</ele>
        <time>2020-08-28T09:01:30Z</time>
      </trkpt>
      <trkpt lat="44.32653" lon="6.31787">
        <ele>1574</ele>
        <time>2020-08-28T09:01:36Z</time>
      </trkpt>
      <trkpt lat="44.32654" lon="6.31786">
        <ele>1574.1</ele>
        <time>2020-08-28T09:01:41Z</time>
      </trkpt>
      <trkpt lat="44.32658" lon="6.31787">
        <ele>1573.9</ele>
        <time>2020-08-28T09:01:47Z</time>
      </trkpt>
      <trkpt lat="44.32663" lon="6.31786">
        <ele>1573.9</ele>
        <time>2020-08-28T09:01:52Z</time>
      </trkpt>
      <trkpt lat="44.32669" lon="6.31785">
        <ele>1567.3</ele>
        <time>2020-08-28T09:01:58Z</time>
      </trkpt>
      <trkpt lat="44.32673" lon="6.31784">
        <ele>1567.5</ele>
        <time>2020-08-28T09:02:03Z</time>
      </trkpt>
      <trkpt lat="44.32678" lon="6.31782">
        <ele>1567.5</ele>
        <time>2020-08-28T09:02:09Z</time>
      </trkpt>
      <trkpt lat="44.32683" lon="6.31777">
        <ele>1567.9</ele>
        <time>2020-08-28T09:02:15Z</time>
      </trkpt>
      <trkpt lat="44.3269" lon="6.31778">
        <ele>1567.1</ele>
        <time>2020-08-28T09:02:21Z</time>
      </trkpt>
      <trkpt lat="44.32694" lon="6.31778">
        <ele>1566.7</ele>
        <time>2020-08-28T09:02:26Z</time>
      </trkpt>
      <trkpt lat="44.32699" lon="6.31774">
        <ele>1566.6</ele>
        <time>2020-08-28T09:02:32Z</time>
      </trkpt>
      <trkpt lat="44.32703" lon="6.31772">
        <ele>1566.4</ele>
        <time>2020-08-28T09:02:37Z</time>
      </trkpt>
      <trkpt lat="44.32709" lon="6.31766">
        <ele>1566.3</ele>
        <time>2020-08-28T09:02:43Z</time>
      </trkpt>
      <trkpt lat="44.32714" lon="6.31761">
        <ele>1566.2</ele>
        <time>2020-08-28T09:02:48Z</time>
      </trkpt>
      <trkpt lat="44.3272" lon="6.31757">
        <ele>1565.9</ele>
        <time>2020-08-28T09:02:53Z</time>
      </trkpt>
      <trkpt lat="44.32725" lon="6.31751">
        <ele>1565.9</ele>
        <time>2020-08-28T09:02:59Z</time>
      </trkpt>
      <trkpt lat="44.3273" lon="6.31748">
        <ele>1571.9</ele>
        <time>2020-08-28T09:03:05Z</time>
      </trkpt>
      <trkpt lat="44.32736" lon="6.31744">
        <ele>1570.8</ele>
        <time>2020-08-28T09:03:11Z</time>
      </trkpt>
      <trkpt lat="44.3274" lon="6.31744">
        <ele>1569.9</ele>
        <time>2020-08-28T09:03:16Z</time>
      </trkpt>
      <trkpt lat="44.32746" lon="6.3174">
        <ele>1569.8</ele>
        <time>2020-08-28T09:03:22Z</time>
      </trkpt>
      <trkpt lat="44.32753" lon="6.31735">
        <ele>1562.4</ele>
        <time>2020-08-28T09:03:28Z</time>
      </trkpt>
      <trkpt lat="44.32758" lon="6.31731">
        <ele>1561.5</ele>
        <time>2020-08-28T09:03:33Z</time>
      </trkpt>
      <trkpt lat="44.32762" lon="6.31725">
        <ele>1560.7</ele>
        <time>2020-08-28T09:03:39Z</time>
      </trkpt>
      <trkpt lat="44.32765" lon="6.3172">
        <ele>1560.2</ele>
        <time>2020-08-28T09:03:44Z</time>
      </trkpt>
      <trkpt lat="44.32771" lon="6.31714">
        <ele>1559.6</ele>
        <time>2020-08-28T09:03:50Z</time>
      </trkpt>
      <trkpt lat="44.32773" lon="6.31708">
        <ele>1559.6</ele>
        <time>2020-08-28T09:03:56Z</time>
      </trkpt>
      <trkpt lat="44.32776" lon="6.31703">
        <ele>1559.5</ele>
        <time>2020-08-28T09:04:01Z</time>
      </trkpt>
      <trkpt lat="44.32782" lon="6.31698">
        <ele>1558.8</ele>
        <time>2020-08-28T09:04:07Z</time>
      </trkpt>
      <trkpt lat="44.32785" lon="6.31691">
        <ele>1558.6</ele>
        <time>2020-08-28T09:04:12Z</time>
      </trkpt>
      <trkpt lat="44.32787" lon="6.31686">
        <ele>1558.4</ele>
        <time>2020-08-28T09:04:17Z</time>
      </trkpt>
      <trkpt lat="44.32791" lon="6.31679">
        <ele>1557.5</ele>
        <time>2020-08-28T09:04:23Z</time>
      </trkpt>
      <trkpt lat="44.32793" lon="6.31669">
        <ele>1557.3</ele>
        <time>2020-08-28T09:04:29Z</time>
      </trkpt>
      <trkpt lat="44.32796" lon="6.31664">
        <ele>1552.2</ele>
        <time>2020-08-28T09:04:35Z</time>
      </trkpt>
      <trkpt lat="44.32798" lon="6.31657">
        <ele>1551.5</ele>
        <time>2020-08-28T09:04:40Z</time>
      </trkpt>
      <trkpt lat="44.328" lon="6.3165">
        <ele>1550.5</ele>
        <time>2020-08-28T09:04:46Z</time>
      </trkpt>
      <trkpt lat="44.32802" lon="6.3164">
        <ele>1549.4</ele>
        <time>2020-08-28T09:04:52Z</time>
      </trkpt>
      <trkpt lat="44.32802" lon="6.31634">
        <ele>1548.7</ele>
        <time>2020-08-28T09:04:57Z</time>
      </trkpt>
      <trkpt lat="44.32807" lon="6.31628">
        <ele>1547.1</ele>
        <time>2020-08-28T09:05:03Z</time>
      </trkpt>
      <trkpt lat="44.32809" lon="6.31626">
        <ele>1546.5</ele>
        <time>2020-08-28T09:05:09Z</time>
      </trkpt>
      <trkpt lat="44.3281" lon="6.31626">
        <ele>1546.3</ele>
        <time>2020-08-28T09:05:15Z</time>
      </trkpt>
      <trkpt lat="44.3281" lon="6.31625">
        <ele>1546.2</ele>
        <time>2020-08-28T09:05:21Z</time>
      </trkpt>
      <trkpt lat="44.3281" lon="6.31625">
        <ele>1546.2</ele>
        <time>2020-08-28T09:05:27Z</time>
      </trkpt>
      <trkpt lat="44.3281" lon="6.31625">
        <ele>1546.2</ele>
        <time>2020-08-28T09:05:32Z</time>
      </trkpt>
      <trkpt lat="44.32809" lon="6.31624">
        <ele>1546.2</ele>
        <time>2020-08-28T09:05:38Z</time>
      </trkpt>
      <trkpt lat="44.32809" lon="6.31624">
        <ele>1546.2</ele>
        <time>2020-08-28T09:05:44Z</time>
      </trkpt>
      <trkpt lat="44.3281" lon="6.31623">
        <ele>1545.7</ele>
        <time>2020-08-28T09:05:49Z</time>
      </trkpt>
      <trkpt lat="44.32817" lon="6.31627">
        <ele>1545.2</ele>
        <time>2020-08-28T09:05:55Z</time>
      </trkpt>
      <trkpt lat="44.3282" lon="6.31633">
        <ele>1545.7</ele>
        <time>2020-08-28T09:06:00Z</time>
      </trkpt>
      <trkpt lat="44.32821" lon="6.31642">
        <ele>1546.4</ele>
        <time>2020-08-28T09:06:05Z</time>
      </trkpt>
      <trkpt lat="44.32821" lon="6.31649">
        <ele>1546.7</ele>
        <time>2020-08-28T09:06:10Z</time>
      </trkpt>
      <trkpt lat="44.32823" lon="6.31657">
        <ele>1546.4</ele>
        <time>2020-08-28T09:06:16Z</time>
      </trkpt>
      <trkpt lat="44.32824" lon="6.31664">
        <ele>1545.9</ele>
        <time>2020-08-28T09:06:21Z</time>
      </trkpt>
      <trkpt lat="44.32825" lon="6.3167">
        <ele>1548</ele>
        <time>2020-08-28T09:06:27Z</time>
      </trkpt>
      <trkpt lat="44.32825" lon="6.31676">
        <ele>1549</ele>
        <time>2020-08-28T09:06:32Z</time>
      </trkpt>
      <trkpt lat="44.32824" lon="6.31685">
        <ele>1550.8</ele>
        <time>2020-08-28T09:06:38Z</time>
      </trkpt>
      <trkpt lat="44.32827" lon="6.3169">
        <ele>1551.2</ele>
        <time>2020-08-28T09:06:44Z</time>
      </trkpt>
      <trkpt lat="44.32827" lon="6.31698">
        <ele>1551.9</ele>
        <time>2020-08-28T09:06:49Z</time>
      </trkpt>
      <trkpt lat="44.32827" lon="6.31707">
        <ele>1552.2</ele>
        <time>2020-08-28T09:06:55Z</time>
      </trkpt>
      <trkpt lat="44.32824" lon="6.31714">
        <ele>1552.1</ele>
        <time>2020-08-28T09:07:01Z</time>
      </trkpt>
      <trkpt lat="44.32827" lon="6.31722">
        <ele>1551.3</ele>
        <time>2020-08-28T09:07:07Z</time>
      </trkpt>
      <trkpt lat="44.3283" lon="6.31731">
        <ele>1549.7</ele>
        <time>2020-08-28T09:07:13Z</time>
      </trkpt>
      <trkpt lat="44.32829" lon="6.31738">
        <ele>1548.3</ele>
        <time>2020-08-28T09:07:19Z</time>
      </trkpt>
      <trkpt lat="44.3283" lon="6.31745">
        <ele>1545.9</ele>
        <time>2020-08-28T09:07:24Z</time>
      </trkpt>
      <trkpt lat="44.32828" lon="6.31753">
        <ele>1544</ele>
        <time>2020-08-28T09:07:29Z</time>
      </trkpt>
      <trkpt lat="44.32828" lon="6.31762">
        <ele>1544.6</ele>
        <time>2020-08-28T09:07:35Z</time>
      </trkpt>
      <trkpt lat="44.32828" lon="6.3177">
        <ele>1544.8</ele>
        <time>2020-08-28T09:07:41Z</time>
      </trkpt>
      <trkpt lat="44.3283" lon="6.31777">
        <ele>1544.5</ele>
        <time>2020-08-28T09:07:46Z</time>
      </trkpt>
      <trkpt lat="44.32829" lon="6.31785">
        <ele>1544</ele>
        <time>2020-08-28T09:07:51Z</time>
      </trkpt>
      <trkpt lat="44.32827" lon="6.31793">
        <ele>1543.4</ele>
        <time>2020-08-28T09:07:57Z</time>
      </trkpt>
      <trkpt lat="44.32827" lon="6.31801">
        <ele>1542.2</ele>
        <time>2020-08-28T09:08:02Z</time>
      </trkpt>
      <trkpt lat="44.32823" lon="6.31808">
        <ele>1541.3</ele>
        <time>2020-08-28T09:08:07Z</time>
      </trkpt>
      <trkpt lat="44.32821" lon="6.31817">
        <ele>1539.4</ele>
        <time>2020-08-28T09:08:13Z</time>
      </trkpt>
      <trkpt lat="44.32817" lon="6.31823">
        <ele>1539.2</ele>
        <time>2020-08-28T09:08:18Z</time>
      </trkpt>
      <trkpt lat="44.32812" lon="6.31833">
        <ele>1539.8</ele>
        <time>2020-08-28T09:08:24Z</time>
      </trkpt>
      <trkpt lat="44.3281" lon="6.31835">
        <ele>1531.2</ele>
        <time>2020-08-28T09:08:30Z</time>
      </trkpt>
      <trkpt lat="44.32809" lon="6.31838">
        <ele>1531.2</ele>
        <time>2020-08-28T09:08:36Z</time>
      </trkpt>
      <trkpt lat="44.32808" lon="6.31838">
        <ele>1531.4</ele>
        <time>2020-08-28T09:08:42Z</time>
      </trkpt>
      <trkpt lat="44.32806" lon="6.31842">
        <ele>1531.4</ele>
        <time>2020-08-28T09:08:48Z</time>
      </trkpt>
      <trkpt lat="44.32806" lon="6.31844">
        <ele>1531.3</ele>
        <time>2020-08-28T09:08:53Z</time>
      </trkpt>
      <trkpt lat="44.32806" lon="6.31845">
        <ele>1531.3</ele>
        <time>2020-08-28T09:08:58Z</time>
      </trkpt>
      <trkpt lat="44.32804" lon="6.31844">
        <ele>1531.4</ele>
        <time>2020-08-28T09:09:03Z</time>
      </trkpt>
      <trkpt lat="44.32804" lon="6.31845">
        <ele>1531.4</ele>
        <time>2020-08-28T09:09:08Z</time>
      </trkpt>
      <trkpt lat="44.32804" lon="6.31845">
        <ele>1531.5</ele>
        <time>2020-08-28T09:09:14Z</time>
      </trkpt>
      <trkpt lat="44.32803" lon="6.31846">
        <ele>1531.5</ele>
        <time>2020-08-28T09:09:19Z</time>
      </trkpt>
      <trkpt lat="44.328" lon="6.31852">
        <ele>1531.4</ele>
        <time>2020-08-28T09:09:24Z</time>
      </trkpt>
      <trkpt lat="44.32796" lon="6.31859">
        <ele>1531.3</ele>
        <time>2020-08-28T09:09:30Z</time>
      </trkpt>
      <trkpt lat="44.32792" lon="6.31864">
        <ele>1531.2</ele>
        <time>2020-08-28T09:09:36Z</time>
      </trkpt>
      <trkpt lat="44.32787" lon="6.31871">
        <ele>1531</ele>
        <time>2020-08-28T09:09:42Z</time>
      </trkpt>
      <trkpt lat="44.32783" lon="6.31877">
        <ele>1530.8</ele>
        <time>2020-08-28T09:09:48Z</time>
      </trkpt>
      <trkpt lat="44.32778" lon="6.31881">
        <ele>1530.7</ele>
        <time>2020-08-28T09:09:53Z</time>
      </trkpt>
      <trkpt lat="44.32774" lon="6.31884">
        <ele>1530.8</ele>
        <time>2020-08-28T09:09:58Z</time>
      </trkpt>
      <trkpt lat="44.32768" lon="6.31889">
        <ele>1530.6</ele>
        <time>2020-08-28T09:10:04Z</time>
      </trkpt>
      <trkpt lat="44.32763" lon="6.31893">
        <ele>1530.4</ele>
        <time>2020-08-28T09:10:10Z</time>
      </trkpt>
      <trkpt lat="44.32759" lon="6.31896">
        <ele>1530.3</ele>
        <time>2020-08-28T09:10:15Z</time>
      </trkpt>
      <trkpt lat="44.32754" lon="6.31902">
        <ele>1529.9</ele>
        <time>2020-08-28T09:10:20Z</time>
      </trkpt>
      <trkpt lat="44.32749" lon="6.31909">
        <ele>1533.2</ele>
        <time>2020-08-28T09:10:26Z</time>
      </trkpt>
      <trkpt lat="44.32744" lon="6.31912">
        <ele>1533.1</ele>
        <time>2020-08-28T09:10:31Z</time>
      </trkpt>
      <trkpt lat="44.32739" lon="6.31916">
        <ele>1534.7</ele>
        <time>2020-08-28T09:10:36Z</time>
      </trkpt>
      <trkpt lat="44.32734" lon="6.31922">
        <ele>1530</ele>
        <time>2020-08-28T09:10:42Z</time>
      </trkpt>
      <trkpt lat="44.3273" lon="6.31929">
        <ele>1530.2</ele>
        <time>2020-08-28T09:10:47Z</time>
      </trkpt>
      <trkpt lat="44.32726" lon="6.31935">
        <ele>1530.3</ele>
        <time>2020-08-28T09:10:53Z</time>
      </trkpt>
      <trkpt lat="44.32722" lon="6.31941">
        <ele>1530.4</ele>
        <time>2020-08-28T09:10:59Z</time>
      </trkpt>
      <trkpt lat="44.32721" lon="6.31947">
        <ele>1530.2</ele>
        <time>2020-08-28T09:11:04Z</time>
      </trkpt>
      <trkpt lat="44.32719" lon="6.31954">
        <ele>1530</ele>
        <time>2020-08-28T09:11:10Z</time>
      </trkpt>
      <trkpt lat="44.3272" lon="6.31962">
        <ele>1529.5</ele>
        <time>2020-08-28T09:11:16Z</time>
      </trkpt>
      <trkpt lat="44.32725" lon="6.31968">
        <ele>1529.1</ele>
        <time>2020-08-28T09:11:22Z</time>
      </trkpt>
      <trkpt lat="44.32729" lon="6.31972">
        <ele>1528.6</ele>
        <time>2020-08-28T09:11:27Z</time>
      </trkpt>
      <trkpt lat="44.32735" lon="6.31976">
        <ele>1528</ele>
        <time>2020-08-28T09:11:33Z</time>
      </trkpt>
      <trkpt lat="44.3274" lon="6.31979">
        <ele>1527.6</ele>
        <time>2020-08-28T09:11:39Z</time>
      </trkpt>
      <trkpt lat="44.32746" lon="6.3198">
        <ele>1527.2</ele>
        <time>2020-08-28T09:11:44Z</time>
      </trkpt>
      <trkpt lat="44.32752" lon="6.31979">
        <ele>1521.9</ele>
        <time>2020-08-28T09:11:49Z</time>
      </trkpt>
      <trkpt lat="44.32757" lon="6.31979">
        <ele>1521.7</ele>
        <time>2020-08-28T09:11:54Z</time>
      </trkpt>
      <trkpt lat="44.32763" lon="6.31977">
        <ele>1521.4</ele>
        <time>2020-08-28T09:12:00Z</time>
      </trkpt>
      <trkpt lat="44.32768" lon="6.31976">
        <ele>1521</ele>
        <time>2020-08-28T09:12:05Z</time>
      </trkpt>
      <trkpt lat="44.32772" lon="6.31977">
        <ele>1520.7</ele>
        <time>2020-08-28T09:12:10Z</time>
      </trkpt>
      <trkpt lat="44.32778" lon="6.31978">
        <ele>1520.3</ele>
        <time>2020-08-28T09:12:16Z</time>
      </trkpt>
      <trkpt lat="44.32783" lon="6.31981">
        <ele>1519.8</ele>
        <time>2020-08-28T09:12:21Z</time>
      </trkpt>
      <trkpt lat="44.3279" lon="6.31986">
        <ele>1519.2</ele>
        <time>2020-08-28T09:12:26Z</time>
      </trkpt>
      <trkpt lat="44.32795" lon="6.31988">
        <ele>1518.7</ele>
        <time>2020-08-28T09:12:32Z</time>
      </trkpt>
      <trkpt lat="44.32799" lon="6.3199">
        <ele>1518.2</ele>
        <time>2020-08-28T09:12:37Z</time>
      </trkpt>
      <trkpt lat="44.32802" lon="6.31993">
        <ele>1517.9</ele>
        <time>2020-08-28T09:12:42Z</time>
      </trkpt>
      <trkpt lat="44.32806" lon="6.32">
        <ele>1517.4</ele>
        <time>2020-08-28T09:12:48Z</time>
      </trkpt>
      <trkpt lat="44.32808" lon="6.32007">
        <ele>1516.4</ele>
        <time>2020-08-28T09:12:54Z</time>
      </trkpt>
      <trkpt lat="44.32805" lon="6.32016">
        <ele>1516.7</ele>
        <time>2020-08-28T09:13:00Z</time>
      </trkpt>
      <trkpt lat="44.328" lon="6.32023">
        <ele>1517.1</ele>
        <time>2020-08-28T09:13:06Z</time>
      </trkpt>
      <trkpt lat="44.32796" lon="6.32032">
        <ele>1517.3</ele>
        <time>2020-08-28T09:13:12Z</time>
      </trkpt>
      <trkpt lat="44.32793" lon="6.32041">
        <ele>1517.4</ele>
        <time>2020-08-28T09:13:18Z</time>
      </trkpt>
      <trkpt lat="44.32786" lon="6.32046">
        <ele>1517.8</ele>
        <time>2020-08-28T09:13:24Z</time>
      </trkpt>
      <trkpt lat="44.32781" lon="6.32052">
        <ele>1518</ele>
        <time>2020-08-28T09:13:30Z</time>
      </trkpt>
      <trkpt lat="44.32777" lon="6.32059">
        <ele>1518.2</ele>
        <time>2020-08-28T09:13:35Z</time>
      </trkpt>
      <trkpt lat="44.32773" lon="6.32066">
        <ele>1518.5</ele>
        <time>2020-08-28T09:13:41Z</time>
      </trkpt>
      <trkpt lat="44.3277" lon="6.32072">
        <ele>1518.8</ele>
        <time>2020-08-28T09:13:46Z</time>
      </trkpt>
      <trkpt lat="44.32766" lon="6.32076">
        <ele>1519.2</ele>
        <time>2020-08-28T09:13:51Z</time>
      </trkpt>
      <trkpt lat="44.32761" lon="6.32081">
        <ele>1519.7</ele>
        <time>2020-08-28T09:13:57Z</time>
      </trkpt>
      <trkpt lat="44.32756" lon="6.32084">
        <ele>1518.4</ele>
        <time>2020-08-28T09:14:03Z</time>
      </trkpt>
      <trkpt lat="44.32752" lon="6.32086">
        <ele>1519.7</ele>
        <time>2020-08-28T09:14:08Z</time>
      </trkpt>
      <trkpt lat="44.32748" lon="6.32091">
        <ele>1519.2</ele>
        <time>2020-08-28T09:14:14Z</time>
      </trkpt>
      <trkpt lat="44.32748" lon="6.32097">
        <ele>1518.3</ele>
        <time>2020-08-28T09:14:20Z</time>
      </trkpt>
      <trkpt lat="44.32748" lon="6.321">
        <ele>1517.8</ele>
        <time>2020-08-28T09:14:26Z</time>
      </trkpt>
      <trkpt lat="44.32742" lon="6.32105">
        <ele>1517</ele>
        <time>2020-08-28T09:14:32Z</time>
      </trkpt>
      <trkpt lat="44.32738" lon="6.3211">
        <ele>1516.3</ele>
        <time>2020-08-28T09:14:37Z</time>
      </trkpt>
      <trkpt lat="44.32734" lon="6.32116">
        <ele>1515.7</ele>
        <time>2020-08-28T09:14:42Z</time>
      </trkpt>
      <trkpt lat="44.32729" lon="6.32121">
        <ele>1515.3</ele>
        <time>2020-08-28T09:14:47Z</time>
      </trkpt>
      <trkpt lat="44.32726" lon="6.32126">
        <ele>1514.9</ele>
        <time>2020-08-28T09:14:52Z</time>
      </trkpt>
      <trkpt lat="44.32721" lon="6.3213">
        <ele>1514.6</ele>
        <time>2020-08-28T09:14:57Z</time>
      </trkpt>
      <trkpt lat="44.32715" lon="6.32137">
        <ele>1514.2</ele>
        <time>2020-08-28T09:15:03Z</time>
      </trkpt>
      <trkpt lat="44.3271" lon="6.32141">
        <ele>1514</ele>
        <time>2020-08-28T09:15:09Z</time>
      </trkpt>
      <trkpt lat="44.32703" lon="6.32145">
        <ele>1514</ele>
        <time>2020-08-28T09:15:15Z</time>
      </trkpt>
      <trkpt lat="44.32697" lon="6.32151">
        <ele>1513.8</ele>
        <time>2020-08-28T09:15:20Z</time>
      </trkpt>
      <trkpt lat="44.32692" lon="6.32158">
        <ele>1513.5</ele>
        <time>2020-08-28T09:15:26Z</time>
      </trkpt>
      <trkpt lat="44.32688" lon="6.32163">
        <ele>1513.3</ele>
        <time>2020-08-28T09:15:31Z</time>
      </trkpt>
      <trkpt lat="44.32684" lon="6.32167">
        <ele>1508</ele>
        <time>2020-08-28T09:15:36Z</time>
      </trkpt>
      <trkpt lat="44.32681" lon="6.32175">
        <ele>1508.1</ele>
        <time>2020-08-28T09:15:42Z</time>
      </trkpt>
      <trkpt lat="44.32683" lon="6.3218">
        <ele>1507.3</ele>
        <time>2020-08-28T09:15:48Z</time>
      </trkpt>
      <trkpt lat="44.32684" lon="6.3218">
        <ele>1507.3</ele>
        <time>2020-08-28T09:15:53Z</time>
      </trkpt>
      <trkpt lat="44.32682" lon="6.32184">
        <ele>1507</ele>
        <time>2020-08-28T09:15:58Z</time>
      </trkpt>
      <trkpt lat="44.32684" lon="6.32188">
        <ele>1506.4</ele>
        <time>2020-08-28T09:16:03Z</time>
      </trkpt>
      <trkpt lat="44.32681" lon="6.32192">
        <ele>1506.1</ele>
        <time>2020-08-28T09:16:08Z</time>
      </trkpt>
      <trkpt lat="44.32679" lon="6.32197">
        <ele>1505.8</ele>
        <time>2020-08-28T09:16:14Z</time>
      </trkpt>
      <trkpt lat="44.32676" lon="6.32201">
        <ele>1505.5</ele>
        <time>2020-08-28T09:16:20Z</time>
      </trkpt>
      <trkpt lat="44.32673" lon="6.32206">
        <ele>1505.1</ele>
        <time>2020-08-28T09:16:26Z</time>
      </trkpt>
      <trkpt lat="44.3267" lon="6.32211">
        <ele>1504.8</ele>
        <time>2020-08-28T09:16:31Z</time>
      </trkpt>
      <trkpt lat="44.32667" lon="6.32217">
        <ele>1504.5</ele>
        <time>2020-08-28T09:16:36Z</time>
      </trkpt>
      <trkpt lat="44.32667" lon="6.3222">
        <ele>1504.3</ele>
        <time>2020-08-28T09:16:41Z</time>
      </trkpt>
      <trkpt lat="44.32668" lon="6.32224">
        <ele>1504.1</ele>
        <time>2020-08-28T09:16:47Z</time>
      </trkpt>
      <trkpt lat="44.32669" lon="6.32228">
        <ele>1503.9</ele>
        <time>2020-08-28T09:16:52Z</time>
      </trkpt>
      <trkpt lat="44.32669" lon="6.3223">
        <ele>1503.8</ele>
        <time>2020-08-28T09:16:58Z</time>
      </trkpt>
      <trkpt lat="44.32668" lon="6.32232">
        <ele>1503.8</ele>
        <time>2020-08-28T09:17:04Z</time>
      </trkpt>
      <trkpt lat="44.32668" lon="6.32234">
        <ele>1503.8</ele>
        <time>2020-08-28T09:17:10Z</time>
      </trkpt>
      <trkpt lat="44.32671" lon="6.32234">
        <ele>1503.7</ele>
        <time>2020-08-28T09:17:15Z</time>
      </trkpt>
      <trkpt lat="44.32674" lon="6.32236">
        <ele>1503.6</ele>
        <time>2020-08-28T09:17:21Z</time>
      </trkpt>
      <trkpt lat="44.32676" lon="6.3224">
        <ele>1503.5</ele>
        <time>2020-08-28T09:17:26Z</time>
      </trkpt>
      <trkpt lat="44.32681" lon="6.32244">
        <ele>1503.3</ele>
        <time>2020-08-28T09:17:32Z</time>
      </trkpt>
      <trkpt lat="44.32683" lon="6.3225">
        <ele>1503</ele>
        <time>2020-08-28T09:17:38Z</time>
      </trkpt>
      <trkpt lat="44.32685" lon="6.32256">
        <ele>1497</ele>
        <time>2020-08-28T09:17:44Z</time>
      </trkpt>
      <trkpt lat="44.32687" lon="6.32263">
        <ele>1496</ele>
        <time>2020-08-28T09:17:50Z</time>
      </trkpt>
      <trkpt lat="44.32687" lon="6.3227">
        <ele>1495.2</ele>
        <time>2020-08-28T09:17:56Z</time>
      </trkpt>
      <trkpt lat="44.32689" lon="6.32273">
        <ele>1494.7</ele>
        <time>2020-08-28T09:18:02Z</time>
      </trkpt>
      <trkpt lat="44.3269" lon="6.32277">
        <ele>1494.1</ele>
        <time>2020-08-28T09:18:08Z</time>
      </trkpt>
      <trkpt lat="44.32694" lon="6.32281">
        <ele>1493.3</ele>
        <time>2020-08-28T09:18:14Z</time>
      </trkpt>
      <trkpt lat="44.32697" lon="6.32286">
        <ele>1492.5</ele>
        <time>2020-08-28T09:18:20Z</time>
      </trkpt>
      <trkpt lat="44.327" lon="6.3229">
        <ele>1492</ele>
        <time>2020-08-28T09:18:26Z</time>
      </trkpt>
      <trkpt lat="44.32703" lon="6.32293">
        <ele>1491.5</ele>
        <time>2020-08-28T09:18:31Z</time>
      </trkpt>
      <trkpt lat="44.32706" lon="6.32295">
        <ele>1491.1</ele>
        <time>2020-08-28T09:18:36Z</time>
      </trkpt>
      <trkpt lat="44.32709" lon="6.323">
        <ele>1490.5</ele>
        <time>2020-08-28T09:18:42Z</time>
      </trkpt>
      <trkpt lat="44.32707" lon="6.32305">
        <ele>1490.3</ele>
        <time>2020-08-28T09:18:48Z</time>
      </trkpt>
      <trkpt lat="44.32704" lon="6.32306">
        <ele>1490.7</ele>
        <time>2020-08-28T09:18:54Z</time>
      </trkpt>
      <trkpt lat="44.32704" lon="6.32306">
        <ele>1490.6</ele>
        <time>2020-08-28T09:19:00Z</time>
      </trkpt>
      <trkpt lat="44.32704" lon="6.32306">
        <ele>1490.7</ele>
        <time>2020-08-28T09:19:06Z</time>
      </trkpt>
      <trkpt lat="44.32705" lon="6.32305">
        <ele>1490.6</ele>
        <time>2020-08-28T09:19:12Z</time>
      </trkpt>
      <trkpt lat="44.32706" lon="6.32309">
        <ele>1490.1</ele>
        <time>2020-08-28T09:19:18Z</time>
      </trkpt>
      <trkpt lat="44.32707" lon="6.32308">
        <ele>1490.2</ele>
        <time>2020-08-28T09:19:23Z</time>
      </trkpt>
      <trkpt lat="44.32707" lon="6.32309">
        <ele>1490.2</ele>
        <time>2020-08-28T09:19:29Z</time>
      </trkpt>
      <trkpt lat="44.32711" lon="6.32313">
        <ele>1489.4</ele>
        <time>2020-08-28T09:19:35Z</time>
      </trkpt>
      <trkpt lat="44.32714" lon="6.32317">
        <ele>1488.5</ele>
        <time>2020-08-28T09:19:40Z</time>
      </trkpt>
      <trkpt lat="44.32716" lon="6.32321">
        <ele>1488</ele>
        <time>2020-08-28T09:19:46Z</time>
      </trkpt>
      <trkpt lat="44.32716" lon="6.32322">
        <ele>1487.8</ele>
        <time>2020-08-28T09:19:52Z</time>
      </trkpt>
      <trkpt lat="44.32716" lon="6.32322">
        <ele>1487.8</ele>
        <time>2020-08-28T09:19:57Z</time>
      </trkpt>
      <trkpt lat="44.32716" lon="6.32322">
        <ele>1487.8</ele>
        <time>2020-08-28T09:20:03Z</time>
      </trkpt>
      <trkpt lat="44.32718" lon="6.32327">
        <ele>1487.3</ele>
        <time>2020-08-28T09:20:09Z</time>
      </trkpt>
      <trkpt lat="44.32724" lon="6.32325">
        <ele>1485.9</ele>
        <time>2020-08-28T09:20:15Z</time>
      </trkpt>
      <trkpt lat="44.32731" lon="6.32325">
        <ele>1484.1</ele>
        <time>2020-08-28T09:20:21Z</time>
      </trkpt>
      <trkpt lat="44.32737" lon="6.32325">
        <ele>1482.5</ele>
        <time>2020-08-28T09:20:27Z</time>
      </trkpt>
      <trkpt lat="44.32741" lon="6.32324">
        <ele>1481.6</ele>
        <time>2020-08-28T09:20:32Z</time>
      </trkpt>
      <trkpt lat="44.32744" lon="6.32329">
        <ele>1479.5</ele>
        <time>2020-08-28T09:20:37Z</time>
      </trkpt>
      <trkpt lat="44.32745" lon="6.32337">
        <ele>1476.4</ele>
        <time>2020-08-28T09:20:43Z</time>
      </trkpt>
      <trkpt lat="44.32749" lon="6.3234">
        <ele>1476.3</ele>
        <time>2020-08-28T09:20:48Z</time>
      </trkpt>
      <trkpt lat="44.32756" lon="6.32343">
        <ele>1469.8</ele>
        <time>2020-08-28T09:20:54Z</time>
      </trkpt>
      <trkpt lat="44.32761" lon="6.32349">
        <ele>1467.5</ele>
        <time>2020-08-28T09:21:00Z</time>
      </trkpt>
      <trkpt lat="44.32765" lon="6.32353">
        <ele>1466.1</ele>
        <time>2020-08-28T09:21:06Z</time>
      </trkpt>
      <trkpt lat="44.32769" lon="6.32355">
        <ele>1465.1</ele>
        <time>2020-08-28T09:21:11Z</time>
      </trkpt>
      <trkpt lat="44.32773" lon="6.32358">
        <ele>1464.1</ele>
        <time>2020-08-28T09:21:16Z</time>
      </trkpt>
      <trkpt lat="44.32776" lon="6.32367">
        <ele>1463.1</ele>
        <time>2020-08-28T09:21:22Z</time>
      </trkpt>
      <trkpt lat="44.32776" lon="6.32373">
        <ele>1462.6</ele>
        <time>2020-08-28T09:21:27Z</time>
      </trkpt>
      <trkpt lat="44.3278" lon="6.32379">
        <ele>1461.9</ele>
        <time>2020-08-28T09:21:33Z</time>
      </trkpt>
      <trkpt lat="44.32781" lon="6.32386">
        <ele>1461.6</ele>
        <time>2020-08-28T09:21:38Z</time>
      </trkpt>
      <trkpt lat="44.32781" lon="6.32393">
        <ele>1461.4</ele>
        <time>2020-08-28T09:21:44Z</time>
      </trkpt>
      <trkpt lat="44.32786" lon="6.32395">
        <ele>1460.8</ele>
        <time>2020-08-28T09:21:49Z</time>
      </trkpt>
      <trkpt lat="44.32791" lon="6.32399">
        <ele>1460.1</ele>
        <time>2020-08-28T09:21:54Z</time>
      </trkpt>
      <trkpt lat="44.32795" lon="6.32402">
        <ele>1459.4</ele>
        <time>2020-08-28T09:21:59Z</time>
      </trkpt>
      <trkpt lat="44.32799" lon="6.32407">
        <ele>1458.7</ele>
        <time>2020-08-28T09:22:05Z</time>
      </trkpt>
      <trkpt lat="44.32803" lon="6.3241">
        <ele>1458</ele>
        <time>2020-08-28T09:22:10Z</time>
      </trkpt>
      <trkpt lat="44.32807" lon="6.32415">
        <ele>1457.2</ele>
        <time>2020-08-28T09:22:16Z</time>
      </trkpt>
      <trkpt lat="44.3281" lon="6.32421">
        <ele>1453</ele>
        <time>2020-08-28T09:22:22Z</time>
      </trkpt>
      <trkpt lat="44.32813" lon="6.32425">
        <ele>1452.7</ele>
        <time>2020-08-28T09:22:27Z</time>
      </trkpt>
      <trkpt lat="44.32816" lon="6.32431">
        <ele>1452.3</ele>
        <time>2020-08-28T09:22:33Z</time>
      </trkpt>
      <trkpt lat="44.3282" lon="6.32435">
        <ele>1452.1</ele>
        <time>2020-08-28T09:22:38Z</time>
      </trkpt>
      <trkpt lat="44.32826" lon="6.3244">
        <ele>1451.8</ele>
        <time>2020-08-28T09:22:44Z</time>
      </trkpt>
      <trkpt lat="44.3283" lon="6.32445">
        <ele>1451.6</ele>
        <time>2020-08-28T09:22:50Z</time>
      </trkpt>
      <trkpt lat="44.32833" lon="6.32449">
        <ele>1443.3</ele>
        <time>2020-08-28T09:22:56Z</time>
      </trkpt>
      <trkpt lat="44.32838" lon="6.32453">
        <ele>1442.7</ele>
        <time>2020-08-28T09:23:02Z</time>
      </trkpt>
      <trkpt lat="44.3284" lon="6.32459">
        <ele>1442.2</ele>
        <time>2020-08-28T09:23:08Z</time>
      </trkpt>
      <trkpt lat="44.32844" lon="6.32464">
        <ele>1441.8</ele>
        <time>2020-08-28T09:23:14Z</time>
      </trkpt>
      <trkpt lat="44.32848" lon="6.32469">
        <ele>1441.4</ele>
        <time>2020-08-28T09:23:19Z</time>
      </trkpt>
      <trkpt lat="44.32854" lon="6.32476">
        <ele>1441</ele>
        <time>2020-08-28T09:23:25Z</time>
      </trkpt>
      <trkpt lat="44.32856" lon="6.3248">
        <ele>1440.8</ele>
        <time>2020-08-28T09:23:30Z</time>
      </trkpt>
      <trkpt lat="44.32856" lon="6.32482">
        <ele>1440.8</ele>
        <time>2020-08-28T09:23:36Z</time>
      </trkpt>
      <trkpt lat="44.32855" lon="6.32483">
        <ele>1440.8</ele>
        <time>2020-08-28T09:23:42Z</time>
      </trkpt>
      <trkpt lat="44.32855" lon="6.32483">
        <ele>1440.8</ele>
        <time>2020-08-28T09:23:47Z</time>
      </trkpt>
      <trkpt lat="44.32855" lon="6.32483">
        <ele>1440.8</ele>
        <time>2020-08-28T09:23:52Z</time>
      </trkpt>
      <trkpt lat="44.32855" lon="6.32483">
        <ele>1440.8</ele>
        <time>2020-08-28T09:23:57Z</time>
      </trkpt>
      <trkpt lat="44.32855" lon="6.32483">
        <ele>1440.8</ele>
        <time>2020-08-28T09:24:03Z</time>
      </trkpt>
      <trkpt lat="44.32855" lon="6.32483">
        <ele>1440.8</ele>
        <time>2020-08-28T09:24:08Z</time>
      </trkpt>
      <trkpt lat="44.32855" lon="6.32483">
        <ele>1440.8</ele>
        <time>2020-08-28T09:24:14Z</time>
      </trkpt>
      <trkpt lat="44.32856" lon="6.32479">
        <ele>1440.8</ele>
        <time>2020-08-28T09:24:20Z</time>
      </trkpt>
      <trkpt lat="44.32855" lon="6.3248">
        <ele>1440.8</ele>
        <time>2020-08-28T09:24:26Z</time>
      </trkpt>
      <trkpt lat="44.32855" lon="6.3248">
        <ele>1440.8</ele>
        <time>2020-08-28T09:24:32Z</time>
      </trkpt>
      <trkpt lat="44.32857" lon="6.32481">
        <ele>1440.7</ele>
        <time>2020-08-28T09:24:38Z</time>
      </trkpt>
      <trkpt lat="44.32863" lon="6.32484">
        <ele>1440.3</ele>
        <time>2020-08-28T09:24:44Z</time>
      </trkpt>
      <trkpt lat="44.32866" lon="6.32486">
        <ele>1440.1</ele>
        <time>2020-08-28T09:24:50Z</time>
      </trkpt>
      <trkpt lat="44.32871" lon="6.3249">
        <ele>1439.7</ele>
        <time>2020-08-28T09:24:56Z</time>
      </trkpt>
      <trkpt lat="44.32876" lon="6.32493">
        <ele>1439.2</ele>
        <time>2020-08-28T09:25:01Z</time>
      </trkpt>
      <trkpt lat="44.32879" lon="6.32496">
        <ele>1438.9</ele>
        <time>2020-08-28T09:25:07Z</time>
      </trkpt>
      <trkpt lat="44.3288" lon="6.32499">
        <ele>1438.8</ele>
        <time>2020-08-28T09:25:13Z</time>
      </trkpt>
      <trkpt lat="44.32886" lon="6.32502">
        <ele>1437.5</ele>
        <time>2020-08-28T09:25:19Z</time>
      </trkpt>
      <trkpt lat="44.32892" lon="6.32507">
        <ele>1437.1</ele>
        <time>2020-08-28T09:25:25Z</time>
      </trkpt>
      <trkpt lat="44.32897" lon="6.32511">
        <ele>1436.8</ele>
        <time>2020-08-28T09:25:31Z</time>
      </trkpt>
      <trkpt lat="44.32901" lon="6.32515">
        <ele>1436.6</ele>
        <time>2020-08-28T09:25:37Z</time>
      </trkpt>
      <trkpt lat="44.32906" lon="6.32519">
        <ele>1436.5</ele>
        <time>2020-08-28T09:25:43Z</time>
      </trkpt>
      <trkpt lat="44.32908" lon="6.32519">
        <ele>1436.5</ele>
        <time>2020-08-28T09:25:49Z</time>
      </trkpt>
      <trkpt lat="44.32909" lon="6.32519">
        <ele>1436.4</ele>
        <time>2020-08-28T09:25:54Z</time>
      </trkpt>
      <trkpt lat="44.32909" lon="6.32519">
        <ele>1436.4</ele>
        <time>2020-08-28T09:25:59Z</time>
      </trkpt>
      <trkpt lat="44.32909" lon="6.32519">
        <ele>1436.4</ele>
        <time>2020-08-28T09:26:04Z</time>
      </trkpt>
      <trkpt lat="44.32909" lon="6.32519">
        <ele>1436.4</ele>
        <time>2020-08-28T09:26:10Z</time>
      </trkpt>
      <trkpt lat="44.32909" lon="6.32519">
        <ele>1436.4</ele>
        <time>2020-08-28T09:26:16Z</time>
      </trkpt>
      <trkpt lat="44.32909" lon="6.32519">
        <ele>1436.4</ele>
        <time>2020-08-28T09:26:21Z</time>
      </trkpt>
      <trkpt lat="44.32905" lon="6.32524">
        <ele>1437</ele>
        <time>2020-08-28T09:26:27Z</time>
      </trkpt>
      <trkpt lat="44.32904" lon="6.32527">
        <ele>1437.3</ele>
        <time>2020-08-28T09:26:32Z</time>
      </trkpt>
      <trkpt lat="44.32901" lon="6.32529">
        <ele>1437.5</ele>
        <time>2020-08-28T09:26:37Z</time>
      </trkpt>
      <trkpt lat="44.329" lon="6.32533">
        <ele>1437.8</ele>
        <time>2020-08-28T09:26:42Z</time>
      </trkpt>
      <trkpt lat="44.329" lon="6.3253">
        <ele>1437.6</ele>
        <time>2020-08-28T09:26:48Z</time>
      </trkpt>
      <trkpt lat="44.32899" lon="6.32529">
        <ele>1437.7</ele>
        <time>2020-08-28T09:26:53Z</time>
      </trkpt>
      <trkpt lat="44.32899" lon="6.32529">
        <ele>1437.6</ele>
        <time>2020-08-28T09:26:59Z</time>
      </trkpt>
      <trkpt lat="44.32899" lon="6.32529">
        <ele>1437.6</ele>
        <time>2020-08-28T09:27:05Z</time>
      </trkpt>
      <trkpt lat="44.32899" lon="6.32529">
        <ele>1437.6</ele>
        <time>2020-08-28T09:27:11Z</time>
      </trkpt>
      <trkpt lat="44.32899" lon="6.32529">
        <ele>1437.6</ele>
        <time>2020-08-28T09:27:17Z</time>
      </trkpt>
      <trkpt lat="44.32899" lon="6.32529">
        <ele>1437.6</ele>
        <time>2020-08-28T09:27:23Z</time>
      </trkpt>
      <trkpt lat="44.32899" lon="6.32529">
        <ele>1437.6</ele>
        <time>2020-08-28T09:27:29Z</time>
      </trkpt>
      <trkpt lat="44.32899" lon="6.32529">
        <ele>1437.6</ele>
        <time>2020-08-28T09:27:35Z</time>
      </trkpt>
      <trkpt lat="44.32899" lon="6.32529">
        <ele>1437.6</ele>
        <time>2020-08-28T09:27:41Z</time>
      </trkpt>
      <trkpt lat="44.32899" lon="6.32529">
        <ele>1437.6</ele>
        <time>2020-08-28T09:27:47Z</time>
      </trkpt>
      <trkpt lat="44.32899" lon="6.32529">
        <ele>1437.6</ele>
        <time>2020-08-28T09:27:52Z</time>
      </trkpt>
      <trkpt lat="44.32899" lon="6.32529">
        <ele>1437.6</ele>
        <time>2020-08-28T09:27:57Z</time>
      </trkpt>
      <trkpt lat="44.329" lon="6.32528">
        <ele>1437.6</ele>
        <time>2020-08-28T09:28:03Z</time>
      </trkpt>
      <trkpt lat="44.32901" lon="6.32524">
        <ele>1437.3</ele>
        <time>2020-08-28T09:28:10Z</time>
      </trkpt>
      <trkpt lat="44.32907" lon="6.32521">
        <ele>1436.7</ele>
        <time>2020-08-28T09:28:15Z</time>
      </trkpt>
      <trkpt lat="44.3291" lon="6.32515">
        <ele>1436</ele>
        <time>2020-08-28T09:28:21Z</time>
      </trkpt>
      <trkpt lat="44.32913" lon="6.32509">
        <ele>1435.1</ele>
        <time>2020-08-28T09:28:27Z</time>
      </trkpt>
      <trkpt lat="44.32918" lon="6.32509">
        <ele>1430.9</ele>
        <time>2020-08-28T09:28:33Z</time>
      </trkpt>
      <trkpt lat="44.32918" lon="6.32511">
        <ele>1430.6</ele>
        <time>2020-08-28T09:28:39Z</time>
      </trkpt>
      <trkpt lat="44.32919" lon="6.32513">
        <ele>1430.3</ele>
        <time>2020-08-28T09:28:45Z</time>
      </trkpt>
      <trkpt lat="44.32918" lon="6.32513">
        <ele>1430.3</ele>
        <time>2020-08-28T09:28:51Z</time>
      </trkpt>
      <trkpt lat="44.32918" lon="6.32513">
        <ele>1430.3</ele>
        <time>2020-08-28T09:28:56Z</time>
      </trkpt>
      <trkpt lat="44.32919" lon="6.32512">
        <ele>1430.4</ele>
        <time>2020-08-28T09:29:01Z</time>
      </trkpt>
      <trkpt lat="44.3292" lon="6.32514">
        <ele>1430.1</ele>
        <time>2020-08-28T09:29:07Z</time>
      </trkpt>
      <trkpt lat="44.3292" lon="6.32514">
        <ele>1430.1</ele>
        <time>2020-08-28T09:29:12Z</time>
      </trkpt>
      <trkpt lat="44.32921" lon="6.32519">
        <ele>1429.6</ele>
        <time>2020-08-28T09:29:18Z</time>
      </trkpt>
      <trkpt lat="44.32922" lon="6.3252">
        <ele>1429.4</ele>
        <time>2020-08-28T09:29:24Z</time>
      </trkpt>
      <trkpt lat="44.32923" lon="6.32521">
        <ele>1429.3</ele>
        <time>2020-08-28T09:29:30Z</time>
      </trkpt>
      <trkpt lat="44.32923" lon="6.32521">
        <ele>1429.3</ele>
        <time>2020-08-28T09:29:36Z</time>
      </trkpt>
      <trkpt lat="44.32923" lon="6.32521">
        <ele>1429.3</ele>
        <time>2020-08-28T09:29:41Z</time>
      </trkpt>
      <trkpt lat="44.32923" lon="6.32521">
        <ele>1429.3</ele>
        <time>2020-08-28T09:29:46Z</time>
      </trkpt>
      <trkpt lat="44.32923" lon="6.32521">
        <ele>1429.3</ele>
        <time>2020-08-28T09:29:52Z</time>
      </trkpt>
      <trkpt lat="44.32923" lon="6.32521">
        <ele>1429.3</ele>
        <time>2020-08-28T09:29:58Z</time>
      </trkpt>
      <trkpt lat="44.32923" lon="6.32522">
        <ele>1429.2</ele>
        <time>2020-08-28T09:30:04Z</time>
      </trkpt>
      <trkpt lat="44.32925" lon="6.32522">
        <ele>1429.1</ele>
        <time>2020-08-28T09:30:10Z</time>
      </trkpt>
      <trkpt lat="44.32927" lon="6.32523">
        <ele>1428.9</ele>
        <time>2020-08-28T09:30:16Z</time>
      </trkpt>
      <trkpt lat="44.32927" lon="6.32521">
        <ele>1429</ele>
        <time>2020-08-28T09:30:22Z</time>
      </trkpt>
      <trkpt lat="44.32927" lon="6.32523">
        <ele>1428.8</ele>
        <time>2020-08-28T09:30:28Z</time>
      </trkpt>
      <trkpt lat="44.32928" lon="6.32525">
        <ele>1428.7</ele>
        <time>2020-08-28T09:30:33Z</time>
      </trkpt>
      <trkpt lat="44.32926" lon="6.32528">
        <ele>1428.8</ele>
        <time>2020-08-28T09:30:39Z</time>
      </trkpt>
      <trkpt lat="44.32929" lon="6.32529">
        <ele>1428.5</ele>
        <time>2020-08-28T09:30:45Z</time>
      </trkpt>
      <trkpt lat="44.32931" lon="6.32535">
        <ele>1428.4</ele>
        <time>2020-08-28T09:30:50Z</time>
      </trkpt>
      <trkpt lat="44.32934" lon="6.32534">
        <ele>1428.1</ele>
        <time>2020-08-28T09:30:56Z</time>
      </trkpt>
      <trkpt lat="44.32934" lon="6.32532">
        <ele>1428.1</ele>
        <time>2020-08-28T09:31:02Z</time>
      </trkpt>
      <trkpt lat="44.32937" lon="6.32532">
        <ele>1427.8</ele>
        <time>2020-08-28T09:31:07Z</time>
      </trkpt>
      <trkpt lat="44.3294" lon="6.3253">
        <ele>1427.5</ele>
        <time>2020-08-28T09:31:12Z</time>
      </trkpt>
      <trkpt lat="44.3294" lon="6.3253">
        <ele>1427.5</ele>
        <time>2020-08-28T09:31:18Z</time>
      </trkpt>
      <trkpt lat="44.32939" lon="6.32529">
        <ele>1427.6</ele>
        <time>2020-08-28T09:31:24Z</time>
      </trkpt>
      <trkpt lat="44.3294" lon="6.32528">
        <ele>1427.5</ele>
        <time>2020-08-28T09:31:29Z</time>
      </trkpt>
      <trkpt lat="44.32943" lon="6.32529">
        <ele>1427.1</ele>
        <time>2020-08-28T09:31:35Z</time>
      </trkpt>
      <trkpt lat="44.32944" lon="6.3253">
        <ele>1427</ele>
        <time>2020-08-28T09:31:41Z</time>
      </trkpt>
      <trkpt lat="44.32943" lon="6.32532">
        <ele>1427.1</ele>
        <time>2020-08-28T09:31:47Z</time>
      </trkpt>
      <trkpt lat="44.32942" lon="6.32532">
        <ele>1427.3</ele>
        <time>2020-08-28T09:31:52Z</time>
      </trkpt>
      <trkpt lat="44.32943" lon="6.32531">
        <ele>1427.1</ele>
        <time>2020-08-28T09:31:58Z</time>
      </trkpt>
      <trkpt lat="44.32944" lon="6.3253">
        <ele>1427</ele>
        <time>2020-08-28T09:32:03Z</time>
      </trkpt>
      <trkpt lat="44.32945" lon="6.3253">
        <ele>1426.9</ele>
        <time>2020-08-28T09:32:09Z</time>
      </trkpt>
      <trkpt lat="44.32946" lon="6.3253">
        <ele>1426.8</ele>
        <time>2020-08-28T09:32:14Z</time>
      </trkpt>
      <trkpt lat="44.32945" lon="6.32528">
        <ele>1426.9</ele>
        <time>2020-08-28T09:32:19Z</time>
      </trkpt>
      <trkpt lat="44.32946" lon="6.32528">
        <ele>1426.7</ele>
        <time>2020-08-28T09:32:25Z</time>
      </trkpt>
      <trkpt lat="44.32948" lon="6.32528">
        <ele>1426.5</ele>
        <time>2020-08-28T09:32:31Z</time>
      </trkpt>
      <trkpt lat="44.3295" lon="6.32526">
        <ele>1426.3</ele>
        <time>2020-08-28T09:32:36Z</time>
      </trkpt>
      <trkpt lat="44.32954" lon="6.32525">
        <ele>1425.6</ele>
        <time>2020-08-28T09:32:42Z</time>
      </trkpt>
      <trkpt lat="44.32956" lon="6.32523">
        <ele>1425.4</ele>
        <time>2020-08-28T09:32:48Z</time>
      </trkpt>
      <trkpt lat="44.32959" lon="6.32519">
        <ele>1424.9</ele>
        <time>2020-08-28T09:32:54Z</time>
      </trkpt>
      <trkpt lat="44.3296" lon="6.32517">
        <ele>1424.8</ele>
        <time>2020-08-28T09:32:59Z</time>
      </trkpt>
      <trkpt lat="44.32962" lon="6.32517">
        <ele>1424.3</ele>
        <time>2020-08-28T09:33:05Z</time>
      </trkpt>
      <trkpt lat="44.32968" lon="6.32514">
        <ele>1423.4</ele>
        <time>2020-08-28T09:33:11Z</time>
      </trkpt>
      <trkpt lat="44.32971" lon="6.32512">
        <ele>1422.8</ele>
        <time>2020-08-28T09:33:16Z</time>
      </trkpt>
      <trkpt lat="44.32975" lon="6.32509">
        <ele>1421.9</ele>
        <time>2020-08-28T09:33:22Z</time>
      </trkpt>
      <trkpt lat="44.3298" lon="6.32507">
        <ele>1420.8</ele>
        <time>2020-08-28T09:33:28Z</time>
      </trkpt>
      <trkpt lat="44.32984" lon="6.32505">
        <ele>1419.7</ele>
        <time>2020-08-28T09:33:34Z</time>
      </trkpt>
      <trkpt lat="44.32988" lon="6.32503">
        <ele>1418.6</ele>
        <time>2020-08-28T09:33:39Z</time>
      </trkpt>
      <trkpt lat="44.32989" lon="6.32502">
        <ele>1418.2</ele>
        <time>2020-08-28T09:33:44Z</time>
      </trkpt>
      <trkpt lat="44.3299" lon="6.32503">
        <ele>1417.8</ele>
        <time>2020-08-28T09:33:49Z</time>
      </trkpt>
      <trkpt lat="44.32992" lon="6.32505">
        <ele>1417.6</ele>
        <time>2020-08-28T09:33:55Z</time>
      </trkpt>
      <trkpt lat="44.32993" lon="6.32507">
        <ele>1417.6</ele>
        <time>2020-08-28T09:34:01Z</time>
      </trkpt>
      <trkpt lat="44.32994" lon="6.32506">
        <ele>1417.4</ele>
        <time>2020-08-28T09:34:07Z</time>
      </trkpt>
      <trkpt lat="44.32994" lon="6.32508">
        <ele>1417.6</ele>
        <time>2020-08-28T09:34:12Z</time>
      </trkpt>
      <trkpt lat="44.32995" lon="6.32507">
        <ele>1417.4</ele>
        <time>2020-08-28T09:34:18Z</time>
      </trkpt>
      <trkpt lat="44.32995" lon="6.32505">
        <ele>1416.6</ele>
        <time>2020-08-28T09:34:24Z</time>
      </trkpt>
      <trkpt lat="44.32996" lon="6.32505">
        <ele>1416.4</ele>
        <time>2020-08-28T09:34:30Z</time>
      </trkpt>
      <trkpt lat="44.32996" lon="6.32506">
        <ele>1416.7</ele>
        <time>2020-08-28T09:34:35Z</time>
      </trkpt>
      <trkpt lat="44.32995" lon="6.32507">
        <ele>1417.4</ele>
        <time>2020-08-28T09:34:40Z</time>
      </trkpt>
      <trkpt lat="44.32995" lon="6.32507">
        <ele>1417.3</ele>
        <time>2020-08-28T09:34:46Z</time>
      </trkpt>
      <trkpt lat="44.32994" lon="6.32506">
        <ele>1417.1</ele>
        <time>2020-08-28T09:34:51Z</time>
      </trkpt>
      <trkpt lat="44.32994" lon="6.32506">
        <ele>1417.1</ele>
        <time>2020-08-28T09:34:57Z</time>
      </trkpt>
      <trkpt lat="44.32994" lon="6.32506">
        <ele>1417.1</ele>
        <time>2020-08-28T09:35:03Z</time>
      </trkpt>
      <trkpt lat="44.32994" lon="6.32506">
        <ele>1417.1</ele>
        <time>2020-08-28T09:35:08Z</time>
      </trkpt>
      <trkpt lat="44.32994" lon="6.32506">
        <ele>1417.1</ele>
        <time>2020-08-28T09:35:14Z</time>
      </trkpt>
      <trkpt lat="44.32995" lon="6.32507">
        <ele>1417.2</ele>
        <time>2020-08-28T09:35:21Z</time>
      </trkpt>
      <trkpt lat="44.33" lon="6.32507">
        <ele>1416.5</ele>
        <time>2020-08-28T09:35:26Z</time>
      </trkpt>
      <trkpt lat="44.33003" lon="6.32504">
        <ele>1412.3</ele>
        <time>2020-08-28T09:35:32Z</time>
      </trkpt>
      <trkpt lat="44.33005" lon="6.32502">
        <ele>1412.1</ele>
        <time>2020-08-28T09:35:38Z</time>
      </trkpt>
      <trkpt lat="44.33005" lon="6.32506">
        <ele>1411.2</ele>
        <time>2020-08-28T09:35:44Z</time>
      </trkpt>
      <trkpt lat="44.33005" lon="6.32511">
        <ele>1410.4</ele>
        <time>2020-08-28T09:35:50Z</time>
      </trkpt>
      <trkpt lat="44.33005" lon="6.32515">
        <ele>1409.7</ele>
        <time>2020-08-28T09:35:56Z</time>
      </trkpt>
      <trkpt lat="44.33008" lon="6.32518">
        <ele>1409.1</ele>
        <time>2020-08-28T09:36:01Z</time>
      </trkpt>
      <trkpt lat="44.33013" lon="6.3252">
        <ele>1408.3</ele>
        <time>2020-08-28T09:36:07Z</time>
      </trkpt>
      <trkpt lat="44.33016" lon="6.3252">
        <ele>1407.9</ele>
        <time>2020-08-28T09:36:12Z</time>
      </trkpt>
      <trkpt lat="44.33019" lon="6.32519">
        <ele>1407.6</ele>
        <time>2020-08-28T09:36:18Z</time>
      </trkpt>
      <trkpt lat="44.33019" lon="6.32519">
        <ele>1407.6</ele>
        <time>2020-08-28T09:36:24Z</time>
      </trkpt>
      <trkpt lat="44.33019" lon="6.3252">
        <ele>1407.5</ele>
        <time>2020-08-28T09:36:30Z</time>
      </trkpt>
      <trkpt lat="44.33019" lon="6.3252">
        <ele>1407.5</ele>
        <time>2020-08-28T09:36:35Z</time>
      </trkpt>
      <trkpt lat="44.33017" lon="6.32519">
        <ele>1407.8</ele>
        <time>2020-08-28T09:36:41Z</time>
      </trkpt>
      <trkpt lat="44.3302" lon="6.3252">
        <ele>1407.4</ele>
        <time>2020-08-28T09:36:46Z</time>
      </trkpt>
      <trkpt lat="44.33027" lon="6.32522">
        <ele>1406.2</ele>
        <time>2020-08-28T09:36:52Z</time>
      </trkpt>
      <trkpt lat="44.33029" lon="6.32521">
        <ele>1406.1</ele>
        <time>2020-08-28T09:36:57Z</time>
      </trkpt>
      <trkpt lat="44.3303" lon="6.32518">
        <ele>1405.9</ele>
        <time>2020-08-28T09:37:02Z</time>
      </trkpt>
      <trkpt lat="44.33031" lon="6.32519">
        <ele>1405.8</ele>
        <time>2020-08-28T09:37:08Z</time>
      </trkpt>
      <trkpt lat="44.33031" lon="6.3252">
        <ele>1405.8</ele>
        <time>2020-08-28T09:37:14Z</time>
      </trkpt>
      <trkpt lat="44.3303" lon="6.32519">
        <ele>1405.8</ele>
        <time>2020-08-28T09:37:20Z</time>
      </trkpt>
      <trkpt lat="44.3303" lon="6.32521">
        <ele>1405.8</ele>
        <time>2020-08-28T09:37:26Z</time>
      </trkpt>
      <trkpt lat="44.33032" lon="6.3252">
        <ele>1405.6</ele>
        <time>2020-08-28T09:37:31Z</time>
      </trkpt>
      <trkpt lat="44.33034" lon="6.32521">
        <ele>1405.3</ele>
        <time>2020-08-28T09:37:37Z</time>
      </trkpt>
      <trkpt lat="44.33037" lon="6.3252">
        <ele>1404.8</ele>
        <time>2020-08-28T09:37:43Z</time>
      </trkpt>
      <trkpt lat="44.33039" lon="6.32519">
        <ele>1404.5</ele>
        <time>2020-08-28T09:37:48Z</time>
      </trkpt>
      <trkpt lat="44.3304" lon="6.32518">
        <ele>1404.4</ele>
        <time>2020-08-28T09:37:53Z</time>
      </trkpt>
      <trkpt lat="44.33043" lon="6.32518">
        <ele>1403.9</ele>
        <time>2020-08-28T09:37:59Z</time>
      </trkpt>
      <trkpt lat="44.33045" lon="6.32511">
        <ele>1403.4</ele>
        <time>2020-08-28T09:38:05Z</time>
      </trkpt>
      <trkpt lat="44.33047" lon="6.32506">
        <ele>1402.9</ele>
        <time>2020-08-28T09:38:10Z</time>
      </trkpt>
      <trkpt lat="44.33048" lon="6.32506">
        <ele>1402.9</ele>
        <time>2020-08-28T09:38:16Z</time>
      </trkpt>
      <trkpt lat="44.33048" lon="6.32506">
        <ele>1402.8</ele>
        <time>2020-08-28T09:38:22Z</time>
      </trkpt>
      <trkpt lat="44.3305" lon="6.32504">
        <ele>1402.4</ele>
        <time>2020-08-28T09:38:27Z</time>
      </trkpt>
      <trkpt lat="44.3305" lon="6.32505">
        <ele>1402.3</ele>
        <time>2020-08-28T09:38:32Z</time>
      </trkpt>
      <trkpt lat="44.33053" lon="6.32504">
        <ele>1401.9</ele>
        <time>2020-08-28T09:38:38Z</time>
      </trkpt>
      <trkpt lat="44.33054" lon="6.32504">
        <ele>1401.7</ele>
        <time>2020-08-28T09:38:44Z</time>
      </trkpt>
      <trkpt lat="44.33054" lon="6.32501">
        <ele>1401.6</ele>
        <time>2020-08-28T09:38:50Z</time>
      </trkpt>
      <trkpt lat="44.33055" lon="6.32494">
        <ele>1403.2</ele>
        <time>2020-08-28T09:38:56Z</time>
      </trkpt>
      <trkpt lat="44.33058" lon="6.32492">
        <ele>1402.7</ele>
        <time>2020-08-28T09:39:02Z</time>
      </trkpt>
      <trkpt lat="44.33058" lon="6.32489">
        <ele>1402.9</ele>
        <time>2020-08-28T09:39:08Z</time>
      </trkpt>
      <trkpt lat="44.33063" lon="6.32484">
        <ele>1402.4</ele>
        <time>2020-08-28T09:39:13Z</time>
      </trkpt>
      <trkpt lat="44.33066" lon="6.32483">
        <ele>1401.9</ele>
        <time>2020-08-28T09:39:21Z</time>
      </trkpt>
      <trkpt lat="44.33068" lon="6.32483">
        <ele>1401.7</ele>
        <time>2020-08-28T09:39:27Z</time>
      </trkpt>
      <trkpt lat="44.33067" lon="6.32481">
        <ele>1402.1</ele>
        <time>2020-08-28T09:39:33Z</time>
      </trkpt>
      <trkpt lat="44.33066" lon="6.32481">
        <ele>1402.2</ele>
        <time>2020-08-28T09:39:39Z</time>
      </trkpt>
      <trkpt lat="44.33066" lon="6.32481">
        <ele>1402.2</ele>
        <time>2020-08-28T09:39:44Z</time>
      </trkpt>
      <trkpt lat="44.33066" lon="6.32481">
        <ele>1402.2</ele>
        <time>2020-08-28T09:39:50Z</time>
      </trkpt>
      <trkpt lat="44.33066" lon="6.32481">
        <ele>1402.2</ele>
        <time>2020-08-28T09:39:56Z</time>
      </trkpt>
      <trkpt lat="44.33066" lon="6.32481">
        <ele>1402.2</ele>
        <time>2020-08-28T09:40:02Z</time>
      </trkpt>
      <trkpt lat="44.33066" lon="6.32481">
        <ele>1402.2</ele>
        <time>2020-08-28T09:40:08Z</time>
      </trkpt>
      <trkpt lat="44.33066" lon="6.32481">
        <ele>1402.2</ele>
        <time>2020-08-28T09:40:14Z</time>
      </trkpt>
      <trkpt lat="44.33067" lon="6.32482">
        <ele>1401.9</ele>
        <time>2020-08-28T09:40:20Z</time>
      </trkpt>
      <trkpt lat="44.33069" lon="6.32482">
        <ele>1401.6</ele>
        <time>2020-08-28T09:40:25Z</time>
      </trkpt>
      <trkpt lat="44.33071" lon="6.32485">
        <ele>1400.7</ele>
        <time>2020-08-28T09:40:31Z</time>
      </trkpt>
      <trkpt lat="44.33076" lon="6.32485">
        <ele>1399.8</ele>
        <time>2020-08-28T09:40:36Z</time>
      </trkpt>
      <trkpt lat="44.33079" lon="6.3248">
        <ele>1400.6</ele>
        <time>2020-08-28T09:40:42Z</time>
      </trkpt>
      <trkpt lat="44.3308" lon="6.32479">
        <ele>1400.8</ele>
        <time>2020-08-28T09:40:48Z</time>
      </trkpt>
      <trkpt lat="44.3308" lon="6.32479">
        <ele>1400.7</ele>
        <time>2020-08-28T09:40:53Z</time>
      </trkpt>
      <trkpt lat="44.3308" lon="6.32483">
        <ele>1399.9</ele>
        <time>2020-08-28T09:40:58Z</time>
      </trkpt>
      <trkpt lat="44.33083" lon="6.32486">
        <ele>1398.9</ele>
        <time>2020-08-28T09:41:04Z</time>
      </trkpt>
      <trkpt lat="44.33083" lon="6.32485">
        <ele>1399</ele>
        <time>2020-08-28T09:41:10Z</time>
      </trkpt>
      <trkpt lat="44.33083" lon="6.32485">
        <ele>1390.2</ele>
        <time>2020-08-28T09:41:16Z</time>
      </trkpt>
      <trkpt lat="44.33083" lon="6.32485">
        <ele>1390.2</ele>
        <time>2020-08-28T09:41:21Z</time>
      </trkpt>
      <trkpt lat="44.33083" lon="6.32485">
        <ele>1390.2</ele>
        <time>2020-08-28T09:41:27Z</time>
      </trkpt>
      <trkpt lat="44.33083" lon="6.32485">
        <ele>1399</ele>
        <time>2020-08-28T09:41:33Z</time>
      </trkpt>
      <trkpt lat="44.33083" lon="6.32485">
        <ele>1399</ele>
        <time>2020-08-28T09:41:39Z</time>
      </trkpt>
      <trkpt lat="44.33083" lon="6.32485">
        <ele>1399</ele>
        <time>2020-08-28T09:41:45Z</time>
      </trkpt>
      <trkpt lat="44.33083" lon="6.32485">
        <ele>1399.1</ele>
        <time>2020-08-28T09:41:51Z</time>
      </trkpt>
      <trkpt lat="44.33083" lon="6.32485">
        <ele>1399.1</ele>
        <time>2020-08-28T09:41:56Z</time>
      </trkpt>
      <trkpt lat="44.33085" lon="6.32486">
        <ele>1390.3</ele>
        <time>2020-08-28T09:42:02Z</time>
      </trkpt>
      <trkpt lat="44.33085" lon="6.32492">
        <ele>1391</ele>
        <time>2020-08-28T09:42:08Z</time>
      </trkpt>
      <trkpt lat="44.33085" lon="6.32492">
        <ele>1391</ele>
        <time>2020-08-28T09:42:14Z</time>
      </trkpt>
      <trkpt lat="44.33082" lon="6.32489">
        <ele>1397.9</ele>
        <time>2020-08-28T09:42:19Z</time>
      </trkpt>
      <trkpt lat="44.33084" lon="6.32485">
        <ele>1390.1</ele>
        <time>2020-08-28T09:42:25Z</time>
      </trkpt>
      <trkpt lat="44.33083" lon="6.32483">
        <ele>1399.7</ele>
        <time>2020-08-28T09:42:30Z</time>
      </trkpt>
      <trkpt lat="44.33083" lon="6.32483">
        <ele>1399.6</ele>
        <time>2020-08-28T09:42:37Z</time>
      </trkpt>
      <trkpt lat="44.33083" lon="6.32483">
        <ele>1399.7</ele>
        <time>2020-08-28T09:42:43Z</time>
      </trkpt>
      <trkpt lat="44.33083" lon="6.32483">
        <ele>1399.8</ele>
        <time>2020-08-28T09:42:48Z</time>
      </trkpt>
      <trkpt lat="44.33083" lon="6.32482">
        <ele>1399.9</ele>
        <time>2020-08-28T09:42:54Z</time>
      </trkpt>
      <trkpt lat="44.33084" lon="6.3248">
        <ele>1389.8</ele>
        <time>2020-08-28T09:43:00Z</time>
      </trkpt>
      <trkpt lat="44.33083" lon="6.32479">
        <ele>1400.5</ele>
        <time>2020-08-28T09:43:06Z</time>
      </trkpt>
      <trkpt lat="44.33083" lon="6.32479">
        <ele>1400.5</ele>
        <time>2020-08-28T09:43:12Z</time>
      </trkpt>
      <trkpt lat="44.33087" lon="6.3248">
        <ele>1389.6</ele>
        <time>2020-08-28T09:43:18Z</time>
      </trkpt>
      <trkpt lat="44.33091" lon="6.32478">
        <ele>1389.2</ele>
        <time>2020-08-28T09:43:24Z</time>
      </trkpt>
      <trkpt lat="44.33094" lon="6.32479">
        <ele>1388.9</ele>
        <time>2020-08-28T09:43:29Z</time>
      </trkpt>
      <trkpt lat="44.33099" lon="6.32477">
        <ele>1388.4</ele>
        <time>2020-08-28T09:43:35Z</time>
      </trkpt>
      <trkpt lat="44.33101" lon="6.32475">
        <ele>1388.1</ele>
        <time>2020-08-28T09:43:41Z</time>
      </trkpt>
      <trkpt lat="44.33103" lon="6.32473">
        <ele>1387.9</ele>
        <time>2020-08-28T09:43:46Z</time>
      </trkpt>
      <trkpt lat="44.33106" lon="6.32476">
        <ele>1387.6</ele>
        <time>2020-08-28T09:43:52Z</time>
      </trkpt>
      <trkpt lat="44.33107" lon="6.32472">
        <ele>1387.5</ele>
        <time>2020-08-28T09:43:57Z</time>
      </trkpt>
      <trkpt lat="44.33108" lon="6.3247">
        <ele>1387.3</ele>
        <time>2020-08-28T09:44:02Z</time>
      </trkpt>
      <trkpt lat="44.33109" lon="6.32469">
        <ele>1387.3</ele>
        <time>2020-08-28T09:44:07Z</time>
      </trkpt>
      <trkpt lat="44.33109" lon="6.32468">
        <ele>1387.3</ele>
        <time>2020-08-28T09:44:13Z</time>
      </trkpt>
      <trkpt lat="44.33109" lon="6.32468">
        <ele>1387.3</ele>
        <time>2020-08-28T09:44:19Z</time>
      </trkpt>
      <trkpt lat="44.33108" lon="6.32468">
        <ele>1387.4</ele>
        <time>2020-08-28T09:44:24Z</time>
      </trkpt>
      <trkpt lat="44.33109" lon="6.32469">
        <ele>1387.3</ele>
        <time>2020-08-28T09:44:30Z</time>
      </trkpt>
      <trkpt lat="44.33109" lon="6.32468">
        <ele>1387.3</ele>
        <time>2020-08-28T09:44:35Z</time>
      </trkpt>
      <trkpt lat="44.33109" lon="6.32468">
        <ele>1387.3</ele>
        <time>2020-08-28T09:44:40Z</time>
      </trkpt>
      <trkpt lat="44.33111" lon="6.32465">
        <ele>1387.1</ele>
        <time>2020-08-28T09:44:46Z</time>
      </trkpt>
      <trkpt lat="44.33112" lon="6.32464">
        <ele>1387</ele>
        <time>2020-08-28T09:44:52Z</time>
      </trkpt>
      <trkpt lat="44.33113" lon="6.32464">
        <ele>1386.9</ele>
        <time>2020-08-28T09:44:58Z</time>
      </trkpt>
      <trkpt lat="44.33113" lon="6.32464">
        <ele>1386.9</ele>
        <time>2020-08-28T09:45:03Z</time>
      </trkpt>
      <trkpt lat="44.33113" lon="6.32464">
        <ele>1386.9</ele>
        <time>2020-08-28T09:45:09Z</time>
      </trkpt>
      <trkpt lat="44.33113" lon="6.32464">
        <ele>1386.9</ele>
        <time>2020-08-28T09:45:15Z</time>
      </trkpt>
      <trkpt lat="44.33113" lon="6.32464">
        <ele>1386.9</ele>
        <time>2020-08-28T09:45:20Z</time>
      </trkpt>
      <trkpt lat="44.33116" lon="6.32462">
        <ele>1386.6</ele>
        <time>2020-08-28T09:45:26Z</time>
      </trkpt>
      <trkpt lat="44.3312" lon="6.32465">
        <ele>1385.9</ele>
        <time>2020-08-28T09:45:31Z</time>
      </trkpt>
      <trkpt lat="44.33123" lon="6.32471">
        <ele>1385.3</ele>
        <time>2020-08-28T09:45:37Z</time>
      </trkpt>
      <trkpt lat="44.33128" lon="6.32476">
        <ele>1384.4</ele>
        <time>2020-08-28T09:45:42Z</time>
      </trkpt>
      <trkpt lat="44.33131" lon="6.3248">
        <ele>1383.8</ele>
        <time>2020-08-28T09:45:49Z</time>
      </trkpt>
      <trkpt lat="44.33133" lon="6.3248">
        <ele>1383.4</ele>
        <time>2020-08-28T09:45:55Z</time>
      </trkpt>
      <trkpt lat="44.33135" lon="6.32481">
        <ele>1383.1</ele>
        <time>2020-08-28T09:46:01Z</time>
      </trkpt>
      <trkpt lat="44.33135" lon="6.32481">
        <ele>1383.1</ele>
        <time>2020-08-28T09:46:06Z</time>
      </trkpt>
      <trkpt lat="44.33137" lon="6.32482">
        <ele>1382.6</ele>
        <time>2020-08-28T09:46:12Z</time>
      </trkpt>
      <trkpt lat="44.33138" lon="6.32488">
        <ele>1382.1</ele>
        <time>2020-08-28T09:46:18Z</time>
      </trkpt>
      <trkpt lat="44.33141" lon="6.32488">
        <ele>1381.5</ele>
        <time>2020-08-28T09:46:24Z</time>
      </trkpt>
      <trkpt lat="44.33142" lon="6.32489">
        <ele>1381.2</ele>
        <time>2020-08-28T09:46:30Z</time>
      </trkpt>
      <trkpt lat="44.33144" lon="6.32486">
        <ele>1381.1</ele>
        <time>2020-08-28T09:46:35Z</time>
      </trkpt>
      <trkpt lat="44.33146" lon="6.32487">
        <ele>1380.5</ele>
        <time>2020-08-28T09:46:41Z</time>
      </trkpt>
      <trkpt lat="44.33146" lon="6.32487">
        <ele>1380.6</ele>
        <time>2020-08-28T09:46:47Z</time>
      </trkpt>
      <trkpt lat="44.33146" lon="6.32487">
        <ele>1380.6</ele>
        <time>2020-08-28T09:46:52Z</time>
      </trkpt>
      <trkpt lat="44.33147" lon="6.32487">
        <ele>1380.4</ele>
        <time>2020-08-28T09:46:57Z</time>
      </trkpt>
      <trkpt lat="44.3315" lon="6.32491">
        <ele>1379.2</ele>
        <time>2020-08-28T09:47:02Z</time>
      </trkpt>
      <trkpt lat="44.33151" lon="6.32492">
        <ele>1378.7</ele>
        <time>2020-08-28T09:47:07Z</time>
      </trkpt>
      <trkpt lat="44.33154" lon="6.32491">
        <ele>1378.2</ele>
        <time>2020-08-28T09:47:13Z</time>
      </trkpt>
      <trkpt lat="44.33156" lon="6.32492">
        <ele>1377.5</ele>
        <time>2020-08-28T09:47:19Z</time>
      </trkpt>
      <trkpt lat="44.33159" lon="6.32493">
        <ele>1376.7</ele>
        <time>2020-08-28T09:47:24Z</time>
      </trkpt>
      <trkpt lat="44.3316" lon="6.32493">
        <ele>1376.2</ele>
        <time>2020-08-28T09:47:30Z</time>
      </trkpt>
      <trkpt lat="44.33161" lon="6.32493">
        <ele>1376</ele>
        <time>2020-08-28T09:47:35Z</time>
      </trkpt>
      <trkpt lat="44.33161" lon="6.32493">
        <ele>1376</ele>
        <time>2020-08-28T09:47:41Z</time>
      </trkpt>
      <trkpt lat="44.33161" lon="6.32493">
        <ele>1376</ele>
        <time>2020-08-28T09:47:46Z</time>
      </trkpt>
      <trkpt lat="44.33161" lon="6.32495">
        <ele>1375.4</ele>
        <time>2020-08-28T09:47:52Z</time>
      </trkpt>
      <trkpt lat="44.33161" lon="6.32497">
        <ele>1375</ele>
        <time>2020-08-28T09:47:58Z</time>
      </trkpt>
      <trkpt lat="44.33163" lon="6.32496">
        <ele>1374.5</ele>
        <time>2020-08-28T09:48:04Z</time>
      </trkpt>
      <trkpt lat="44.33163" lon="6.32497">
        <ele>1374.4</ele>
        <time>2020-08-28T09:48:09Z</time>
      </trkpt>
      <trkpt lat="44.33163" lon="6.32497">
        <ele>1374.4</ele>
        <time>2020-08-28T09:48:14Z</time>
      </trkpt>
      <trkpt lat="44.33163" lon="6.32496">
        <ele>1374.5</ele>
        <time>2020-08-28T09:48:20Z</time>
      </trkpt>
      <trkpt lat="44.33163" lon="6.32496">
        <ele>1374.7</ele>
        <time>2020-08-28T09:48:26Z</time>
      </trkpt>
      <trkpt lat="44.33163" lon="6.32496">
        <ele>1374.6</ele>
        <time>2020-08-28T09:48:31Z</time>
      </trkpt>
      <trkpt lat="44.33164" lon="6.32497">
        <ele>1374.2</ele>
        <time>2020-08-28T09:48:37Z</time>
      </trkpt>
      <trkpt lat="44.33164" lon="6.32498">
        <ele>1373.7</ele>
        <time>2020-08-28T09:48:42Z</time>
      </trkpt>
      <trkpt lat="44.33166" lon="6.32499">
        <ele>1372.6</ele>
        <time>2020-08-28T09:48:48Z</time>
      </trkpt>
      <trkpt lat="44.33167" lon="6.325">
        <ele>1372.2</ele>
        <time>2020-08-28T09:48:53Z</time>
      </trkpt>
      <trkpt lat="44.33167" lon="6.325">
        <ele>1371.9</ele>
        <time>2020-08-28T09:48:59Z</time>
      </trkpt>
      <trkpt lat="44.33167" lon="6.325">
        <ele>1371.9</ele>
        <time>2020-08-28T09:49:05Z</time>
      </trkpt>
      <trkpt lat="44.33168" lon="6.32499">
        <ele>1371.7</ele>
        <time>2020-08-28T09:49:11Z</time>
      </trkpt>
      <trkpt lat="44.33169" lon="6.32497">
        <ele>1371.3</ele>
        <time>2020-08-28T09:49:16Z</time>
      </trkpt>
      <trkpt lat="44.33169" lon="6.32498">
        <ele>1371.3</ele>
        <time>2020-08-28T09:49:22Z</time>
      </trkpt>
      <trkpt lat="44.3317" lon="6.32498">
        <ele>1371.3</ele>
        <time>2020-08-28T09:49:27Z</time>
      </trkpt>
      <trkpt lat="44.33171" lon="6.32498">
        <ele>1371.1</ele>
        <time>2020-08-28T09:49:33Z</time>
      </trkpt>
      <trkpt lat="44.33171" lon="6.32498">
        <ele>1371.1</ele>
        <time>2020-08-28T09:49:38Z</time>
      </trkpt>
      <trkpt lat="44.33171" lon="6.32498">
        <ele>1371.1</ele>
        <time>2020-08-28T09:49:44Z</time>
      </trkpt>
      <trkpt lat="44.33171" lon="6.32498">
        <ele>1371.1</ele>
        <time>2020-08-28T09:49:49Z</time>
      </trkpt>
      <trkpt lat="44.33171" lon="6.32498">
        <ele>1371.1</ele>
        <time>2020-08-28T09:49:54Z</time>
      </trkpt>
      <trkpt lat="44.33171" lon="6.32498">
        <ele>1371.1</ele>
        <time>2020-08-28T09:50:00Z</time>
      </trkpt>
      <trkpt lat="44.33171" lon="6.32497">
        <ele>1371</ele>
        <time>2020-08-28T09:50:05Z</time>
      </trkpt>
      <trkpt lat="44.33171" lon="6.32497">
        <ele>1371</ele>
        <time>2020-08-28T09:50:11Z</time>
      </trkpt>
      <trkpt lat="44.3317" lon="6.32495">
        <ele>1370.9</ele>
        <time>2020-08-28T09:50:16Z</time>
      </trkpt>
      <trkpt lat="44.33171" lon="6.32491">
        <ele>1370.4</ele>
        <time>2020-08-28T09:50:22Z</time>
      </trkpt>
      <trkpt lat="44.33172" lon="6.32492">
        <ele>1370.4</ele>
        <time>2020-08-28T09:50:27Z</time>
      </trkpt>
      <trkpt lat="44.33171" lon="6.32492">
        <ele>1370.5</ele>
        <time>2020-08-28T09:50:33Z</time>
      </trkpt>
      <trkpt lat="44.33171" lon="6.32492">
        <ele>1370.5</ele>
        <time>2020-08-28T09:50:38Z</time>
      </trkpt>
      <trkpt lat="44.33171" lon="6.32492">
        <ele>1370.5</ele>
        <time>2020-08-28T09:50:44Z</time>
      </trkpt>
      <trkpt lat="44.3317" lon="6.3249">
        <ele>1370.3</ele>
        <time>2020-08-28T09:50:50Z</time>
      </trkpt>
      <trkpt lat="44.3317" lon="6.32491">
        <ele>1370.4</ele>
        <time>2020-08-28T09:50:55Z</time>
      </trkpt>
      <trkpt lat="44.33169" lon="6.32489">
        <ele>1370.3</ele>
        <time>2020-08-28T09:51:00Z</time>
      </trkpt>
      <trkpt lat="44.33171" lon="6.32487">
        <ele>1370</ele>
        <time>2020-08-28T09:51:06Z</time>
      </trkpt>
      <trkpt lat="44.33176" lon="6.32486">
        <ele>1369.6</ele>
        <time>2020-08-28T09:51:12Z</time>
      </trkpt>
      <trkpt lat="44.33179" lon="6.32487">
        <ele>1369.4</ele>
        <time>2020-08-28T09:51:17Z</time>
      </trkpt>
      <trkpt lat="44.33179" lon="6.32484">
        <ele>1369.2</ele>
        <time>2020-08-28T09:51:23Z</time>
      </trkpt>
      <trkpt lat="44.3318" lon="6.32483">
        <ele>1369.1</ele>
        <time>2020-08-28T09:51:28Z</time>
      </trkpt>
      <trkpt lat="44.33182" lon="6.32486">
        <ele>1369.1</ele>
        <time>2020-08-28T09:51:33Z</time>
      </trkpt>
      <trkpt lat="44.33187" lon="6.32491">
        <ele>1368.8</ele>
        <time>2020-08-28T09:51:40Z</time>
      </trkpt>
      <trkpt lat="44.33191" lon="6.32494">
        <ele>1368.5</ele>
        <time>2020-08-28T09:51:46Z</time>
      </trkpt>
      <trkpt lat="44.33196" lon="6.32497">
        <ele>1368</ele>
        <time>2020-08-28T09:51:52Z</time>
      </trkpt>
      <trkpt lat="44.33201" lon="6.325">
        <ele>1367.6</ele>
        <time>2020-08-28T09:51:58Z</time>
      </trkpt>
      <trkpt lat="44.33203" lon="6.32502">
        <ele>1368.9</ele>
        <time>2020-08-28T09:52:04Z</time>
      </trkpt>
      <trkpt lat="44.33206" lon="6.32506">
        <ele>1368.7</ele>
        <time>2020-08-28T09:52:10Z</time>
      </trkpt>
      <trkpt lat="44.33211" lon="6.32509">
        <ele>1368.3</ele>
        <time>2020-08-28T09:52:15Z</time>
      </trkpt>
      <trkpt lat="44.3322" lon="6.32514">
        <ele>1367.7</ele>
        <time>2020-08-28T09:52:20Z</time>
      </trkpt>
      <trkpt lat="44.33223" lon="6.3252">
        <ele>1367.5</ele>
        <time>2020-08-28T09:52:26Z</time>
      </trkpt>
      <trkpt lat="44.33227" lon="6.32523">
        <ele>1367.4</ele>
        <time>2020-08-28T09:52:31Z</time>
      </trkpt>
      <trkpt lat="44.33231" lon="6.32526">
        <ele>1367.3</ele>
        <time>2020-08-28T09:52:37Z</time>
      </trkpt>
      <trkpt lat="44.3323" lon="6.32527">
        <ele>1367.3</ele>
        <time>2020-08-28T09:52:42Z</time>
      </trkpt>
      <trkpt lat="44.33229" lon="6.32527">
        <ele>1367.4</ele>
        <time>2020-08-28T09:52:48Z</time>
      </trkpt>
      <trkpt lat="44.33229" lon="6.32527">
        <ele>1367.4</ele>
        <time>2020-08-28T09:52:54Z</time>
      </trkpt>
      <trkpt lat="44.33229" lon="6.32527">
        <ele>1367.4</ele>
        <time>2020-08-28T09:52:59Z</time>
      </trkpt>
      <trkpt lat="44.33229" lon="6.32527">
        <ele>1367.4</ele>
        <time>2020-08-28T09:53:05Z</time>
      </trkpt>
      <trkpt lat="44.3323" lon="6.32534">
        <ele>1367.4</ele>
        <time>2020-08-28T09:53:10Z</time>
      </trkpt>
      <trkpt lat="44.33232" lon="6.32536">
        <ele>1367.4</ele>
        <time>2020-08-28T09:53:15Z</time>
      </trkpt>
      <trkpt lat="44.3323" lon="6.32537">
        <ele>1367.5</ele>
        <time>2020-08-28T09:53:21Z</time>
      </trkpt>
      <trkpt lat="44.3323" lon="6.32537">
        <ele>1367.5</ele>
        <time>2020-08-28T09:53:26Z</time>
      </trkpt>
      <trkpt lat="44.3323" lon="6.32537">
        <ele>1367.5</ele>
        <time>2020-08-28T09:53:31Z</time>
      </trkpt>
      <trkpt lat="44.3323" lon="6.32537">
        <ele>1367.5</ele>
        <time>2020-08-28T09:53:37Z</time>
      </trkpt>
      <trkpt lat="44.3323" lon="6.32538">
        <ele>1367.5</ele>
        <time>2020-08-28T09:53:42Z</time>
      </trkpt>
      <trkpt lat="44.3323" lon="6.32538">
        <ele>1367.5</ele>
        <time>2020-08-28T09:53:48Z</time>
      </trkpt>
      <trkpt lat="44.3323" lon="6.32537">
        <ele>1367.5</ele>
        <time>2020-08-28T09:53:54Z</time>
      </trkpt>
      <trkpt lat="44.33231" lon="6.32539">
        <ele>1367.4</ele>
        <time>2020-08-28T09:54:00Z</time>
      </trkpt>
      <trkpt lat="44.33231" lon="6.3254">
        <ele>1367.4</ele>
        <time>2020-08-28T09:54:06Z</time>
      </trkpt>
      <trkpt lat="44.33229" lon="6.32539">
        <ele>1367.5</ele>
        <time>2020-08-28T09:54:11Z</time>
      </trkpt>
      <trkpt lat="44.33226" lon="6.32534">
        <ele>1367.7</ele>
        <time>2020-08-28T09:54:16Z</time>
      </trkpt>
      <trkpt lat="44.33225" lon="6.32534">
        <ele>1367.7</ele>
        <time>2020-08-28T09:54:22Z</time>
      </trkpt>
      <trkpt lat="44.33225" lon="6.32534">
        <ele>1367.7</ele>
        <time>2020-08-28T09:54:27Z</time>
      </trkpt>
      <trkpt lat="44.33225" lon="6.32533">
        <ele>1367.7</ele>
        <time>2020-08-28T09:54:33Z</time>
      </trkpt>
      <trkpt lat="44.33224" lon="6.32535">
        <ele>1367.8</ele>
        <time>2020-08-28T09:54:38Z</time>
      </trkpt>
      <trkpt lat="44.33227" lon="6.32537">
        <ele>1367.6</ele>
        <time>2020-08-28T09:54:43Z</time>
      </trkpt>
      <trkpt lat="44.33232" lon="6.32537">
        <ele>1367.4</ele>
        <time>2020-08-28T09:54:49Z</time>
      </trkpt>
      <trkpt lat="44.33231" lon="6.32536">
        <ele>1367.4</ele>
        <time>2020-08-28T09:54:54Z</time>
      </trkpt>
      <trkpt lat="44.33231" lon="6.32535">
        <ele>1367.4</ele>
        <time>2020-08-28T09:55:00Z</time>
      </trkpt>
      <trkpt lat="44.33232" lon="6.32535">
        <ele>1367.4</ele>
        <time>2020-08-28T09:55:06Z</time>
      </trkpt>
      <trkpt lat="44.33232" lon="6.32535">
        <ele>1367.4</ele>
        <time>2020-08-28T09:55:11Z</time>
      </trkpt>
      <trkpt lat="44.33229" lon="6.32531">
        <ele>1367.5</ele>
        <time>2020-08-28T09:55:17Z</time>
      </trkpt>
      <trkpt lat="44.33228" lon="6.32531">
        <ele>1367.5</ele>
        <time>2020-08-28T09:55:23Z</time>
      </trkpt>
      <trkpt lat="44.33228" lon="6.32533">
        <ele>1367.5</ele>
        <time>2020-08-28T09:55:28Z</time>
      </trkpt>
      <trkpt lat="44.33227" lon="6.32534">
        <ele>1367.6</ele>
        <time>2020-08-28T09:55:34Z</time>
      </trkpt>
      <trkpt lat="44.33227" lon="6.32534">
        <ele>1367.6</ele>
        <time>2020-08-28T09:55:39Z</time>
      </trkpt>
      <trkpt lat="44.33227" lon="6.32534">
        <ele>1367.6</ele>
        <time>2020-08-28T09:55:44Z</time>
      </trkpt>
      <trkpt lat="44.33227" lon="6.32534">
        <ele>1367.6</ele>
        <time>2020-08-28T09:55:50Z</time>
      </trkpt>
      <trkpt lat="44.33227" lon="6.32534">
        <ele>1367.6</ele>
        <time>2020-08-28T09:55:56Z</time>
      </trkpt>
      <trkpt lat="44.33227" lon="6.32534">
        <ele>1367.6</ele>
        <time>2020-08-28T09:56:01Z</time>
      </trkpt>
      <trkpt lat="44.33227" lon="6.32534">
        <ele>1367.6</ele>
        <time>2020-08-28T09:56:07Z</time>
      </trkpt>
      <trkpt lat="44.33227" lon="6.32534">
        <ele>1367.6</ele>
        <time>2020-08-28T09:56:13Z</time>
      </trkpt>
      <trkpt lat="44.33227" lon="6.32534">
        <ele>1367.6</ele>
        <time>2020-08-28T09:56:18Z</time>
      </trkpt>
      <trkpt lat="44.33227" lon="6.32534">
        <ele>1367.6</ele>
        <time>2020-08-28T09:56:24Z</time>
      </trkpt>
      <trkpt lat="44.33227" lon="6.32534">
        <ele>1367.6</ele>
        <time>2020-08-28T09:56:30Z</time>
      </trkpt>
      <trkpt lat="44.33227" lon="6.32534">
        <ele>1367.6</ele>
        <time>2020-08-28T09:56:36Z</time>
      </trkpt>
      <trkpt lat="44.33227" lon="6.32534">
        <ele>1367.6</ele>
        <time>2020-08-28T09:56:41Z</time>
      </trkpt>
      <trkpt lat="44.33227" lon="6.32534">
        <ele>1367.6</ele>
        <time>2020-08-28T09:56:46Z</time>
      </trkpt>
      <trkpt lat="44.33227" lon="6.32534">
        <ele>1367.6</ele>
        <time>2020-08-28T09:56:52Z</time>
      </trkpt>
      <trkpt lat="44.33227" lon="6.32534">
        <ele>1367.6</ele>
        <time>2020-08-28T09:56:58Z</time>
      </trkpt>
      <trkpt lat="44.33227" lon="6.32534">
        <ele>1367.6</ele>
        <time>2020-08-28T09:57:04Z</time>
      </trkpt>
      <trkpt lat="44.33227" lon="6.32534">
        <ele>1367.6</ele>
        <time>2020-08-28T09:57:10Z</time>
      </trkpt>
      <trkpt lat="44.33227" lon="6.32534">
        <ele>1367.6</ele>
        <time>2020-08-28T09:57:16Z</time>
      </trkpt>
      <trkpt lat="44.33227" lon="6.32534">
        <ele>1367.6</ele>
        <time>2020-08-28T09:57:22Z</time>
      </trkpt>
      <trkpt lat="44.33227" lon="6.32534">
        <ele>1367.6</ele>
        <time>2020-08-28T09:57:28Z</time>
      </trkpt>
      <trkpt lat="44.33227" lon="6.32534">
        <ele>1367.6</ele>
        <time>2020-08-28T09:57:33Z</time>
      </trkpt>
      <trkpt lat="44.33227" lon="6.32534">
        <ele>1367.6</ele>
        <time>2020-08-28T09:57:39Z</time>
      </trkpt>
      <trkpt lat="44.33227" lon="6.32534">
        <ele>1367.6</ele>
        <time>2020-08-28T09:57:45Z</time>
      </trkpt>
      <trkpt lat="44.33227" lon="6.32534">
        <ele>1367.6</ele>
        <time>2020-08-28T09:57:51Z</time>
      </trkpt>
      <trkpt lat="44.33227" lon="6.32534">
        <ele>1367.6</ele>
        <time>2020-08-28T09:57:57Z</time>
      </trkpt>
      <trkpt lat="44.33227" lon="6.32534">
        <ele>1367.6</ele>
        <time>2020-08-28T09:58:02Z</time>
      </trkpt>
      <trkpt lat="44.33227" lon="6.32534">
        <ele>1367.6</ele>
        <time>2020-08-28T09:58:08Z</time>
      </trkpt>
      <trkpt lat="44.33227" lon="6.32534">
        <ele>1367.6</ele>
        <time>2020-08-28T09:58:14Z</time>
      </trkpt>
      <trkpt lat="44.33227" lon="6.32534">
        <ele>1367.6</ele>
        <time>2020-08-28T09:58:20Z</time>
      </trkpt>
      <trkpt lat="44.33227" lon="6.32534">
        <ele>1367.6</ele>
        <time>2020-08-28T09:58:26Z</time>
      </trkpt>
      <trkpt lat="44.33227" lon="6.32534">
        <ele>1367.6</ele>
        <time>2020-08-28T09:58:31Z</time>
      </trkpt>
      <trkpt lat="44.33227" lon="6.32534">
        <ele>1367.6</ele>
        <time>2020-08-28T09:58:36Z</time>
      </trkpt>
      <trkpt lat="44.33227" lon="6.32534">
        <ele>1367.6</ele>
        <time>2020-08-28T09:58:42Z</time>
      </trkpt>
      <trkpt lat="44.33227" lon="6.32534">
        <ele>1367.6</ele>
        <time>2020-08-28T09:58:47Z</time>
      </trkpt>
      <trkpt lat="44.33227" lon="6.32534">
        <ele>1367.6</ele>
        <time>2020-08-28T09:58:53Z</time>
      </trkpt>
      <trkpt lat="44.33227" lon="6.32534">
        <ele>1367.6</ele>
        <time>2020-08-28T09:58:59Z</time>
      </trkpt>
      <trkpt lat="44.33227" lon="6.32534">
        <ele>1367.6</ele>
        <time>2020-08-28T09:59:04Z</time>
      </trkpt>
      <trkpt lat="44.33227" lon="6.32534">
        <ele>1367.6</ele>
        <time>2020-08-28T09:59:09Z</time>
      </trkpt>
      <trkpt lat="44.33227" lon="6.32534">
        <ele>1367.6</ele>
        <time>2020-08-28T09:59:15Z</time>
      </trkpt>
      <trkpt lat="44.33228" lon="6.32533">
        <ele>1367.5</ele>
        <time>2020-08-28T09:59:21Z</time>
      </trkpt>
      <trkpt lat="44.33231" lon="6.32532">
        <ele>1367.4</ele>
        <time>2020-08-28T09:59:27Z</time>
      </trkpt>
      <trkpt lat="44.33231" lon="6.32532">
        <ele>1367.4</ele>
        <time>2020-08-28T09:59:32Z</time>
      </trkpt>
      <trkpt lat="44.33231" lon="6.32532">
        <ele>1367.4</ele>
        <time>2020-08-28T09:59:38Z</time>
      </trkpt>
      <trkpt lat="44.33231" lon="6.32531">
        <ele>1367.3</ele>
        <time>2020-08-28T09:59:43Z</time>
      </trkpt>
      <trkpt lat="44.33231" lon="6.3253">
        <ele>1367.4</ele>
        <time>2020-08-28T09:59:49Z</time>
      </trkpt>
      <trkpt lat="44.33231" lon="6.32531">
        <ele>1367.4</ele>
        <time>2020-08-28T09:59:54Z</time>
      </trkpt>
      <trkpt lat="44.3323" lon="6.32531">
        <ele>1367.4</ele>
        <time>2020-08-28T10:00:00Z</time>
      </trkpt>
      <trkpt lat="44.3323" lon="6.32531">
        <ele>1367.4</ele>
        <time>2020-08-28T10:00:06Z</time>
      </trkpt>
      <trkpt lat="44.3323" lon="6.32532">
        <ele>1367.4</ele>
        <time>2020-08-28T10:00:12Z</time>
      </trkpt>
      <trkpt lat="44.3323" lon="6.32532">
        <ele>1367.4</ele>
        <time>2020-08-28T10:00:18Z</time>
      </trkpt>
      <trkpt lat="44.3323" lon="6.32532">
        <ele>1367.4</ele>
        <time>2020-08-28T10:00:24Z</time>
      </trkpt>
      <trkpt lat="44.3323" lon="6.32533">
        <ele>1367.4</ele>
        <time>2020-08-28T10:00:30Z</time>
      </trkpt>
      <trkpt lat="44.3323" lon="6.32533">
        <ele>1367.4</ele>
        <time>2020-08-28T10:00:36Z</time>
      </trkpt>
      <trkpt lat="44.33232" lon="6.32536">
        <ele>1367.3</ele>
        <time>2020-08-28T10:00:42Z</time>
      </trkpt>
      <trkpt lat="44.33233" lon="6.32535">
        <ele>1367.3</ele>
        <time>2020-08-28T10:00:47Z</time>
      </trkpt>
      <trkpt lat="44.33234" lon="6.32536">
        <ele>1367.3</ele>
        <time>2020-08-28T10:00:53Z</time>
      </trkpt>
      <trkpt lat="44.33233" lon="6.32537">
        <ele>1367.3</ele>
        <time>2020-08-28T10:00:58Z</time>
      </trkpt>
      <trkpt lat="44.33233" lon="6.3254">
        <ele>1367.3</ele>
        <time>2020-08-28T10:01:04Z</time>
      </trkpt>
      <trkpt lat="44.33233" lon="6.32539">
        <ele>1367.3</ele>
        <time>2020-08-28T10:01:09Z</time>
      </trkpt>
      <trkpt lat="44.33233" lon="6.32539">
        <ele>1367.3</ele>
        <time>2020-08-28T10:01:14Z</time>
      </trkpt>
      <trkpt lat="44.33234" lon="6.3254">
        <ele>1367.3</ele>
        <time>2020-08-28T10:01:20Z</time>
      </trkpt>
      <trkpt lat="44.33234" lon="6.3254">
        <ele>1367.3</ele>
        <time>2020-08-28T10:01:26Z</time>
      </trkpt>
      <trkpt lat="44.33234" lon="6.32539">
        <ele>1367.3</ele>
        <time>2020-08-28T10:01:32Z</time>
      </trkpt>
      <trkpt lat="44.33235" lon="6.32539">
        <ele>1367.2</ele>
        <time>2020-08-28T10:01:37Z</time>
      </trkpt>
      <trkpt lat="44.33234" lon="6.32538">
        <ele>1367.3</ele>
        <time>2020-08-28T10:01:43Z</time>
      </trkpt>
      <trkpt lat="44.33234" lon="6.32536">
        <ele>1367.3</ele>
        <time>2020-08-28T10:01:48Z</time>
      </trkpt>
      <trkpt lat="44.33238" lon="6.32533">
        <ele>1367.1</ele>
        <time>2020-08-28T10:01:54Z</time>
      </trkpt>
      <trkpt lat="44.3324" lon="6.32528">
        <ele>1366.8</ele>
        <time>2020-08-28T10:01:59Z</time>
      </trkpt>
      <trkpt lat="44.33245" lon="6.32525">
        <ele>1366.6</ele>
        <time>2020-08-28T10:02:05Z</time>
      </trkpt>
      <trkpt lat="44.33247" lon="6.32525">
        <ele>1366.5</ele>
        <time>2020-08-28T10:02:10Z</time>
      </trkpt>
      <trkpt lat="44.33251" lon="6.32523">
        <ele>1358.5</ele>
        <time>2020-08-28T10:02:16Z</time>
      </trkpt>
      <trkpt lat="44.33254" lon="6.32522">
        <ele>1358.4</ele>
        <time>2020-08-28T10:02:21Z</time>
      </trkpt>
      <trkpt lat="44.33258" lon="6.32519">
        <ele>1358.6</ele>
        <time>2020-08-28T10:02:26Z</time>
      </trkpt>
      <trkpt lat="44.33263" lon="6.32515">
        <ele>1358.5</ele>
        <time>2020-08-28T10:02:32Z</time>
      </trkpt>
      <trkpt lat="44.33268" lon="6.32513">
        <ele>1358</ele>
        <time>2020-08-28T10:02:37Z</time>
      </trkpt>
      <trkpt lat="44.33272" lon="6.32511">
        <ele>1357.4</ele>
        <time>2020-08-28T10:02:42Z</time>
      </trkpt>
      <trkpt lat="44.33278" lon="6.32507">
        <ele>1356.5</ele>
        <time>2020-08-28T10:02:48Z</time>
      </trkpt>
      <trkpt lat="44.33281" lon="6.32506">
        <ele>1356.1</ele>
        <time>2020-08-28T10:02:53Z</time>
      </trkpt>
      <trkpt lat="44.33286" lon="6.32501">
        <ele>1355.3</ele>
        <time>2020-08-28T10:02:59Z</time>
      </trkpt>
      <trkpt lat="44.33295" lon="6.32502">
        <ele>1353.9</ele>
        <time>2020-08-28T10:03:05Z</time>
      </trkpt>
      <trkpt lat="44.33301" lon="6.32503">
        <ele>1353.1</ele>
        <time>2020-08-28T10:03:11Z</time>
      </trkpt>
      <trkpt lat="44.33305" lon="6.32504">
        <ele>1352.6</ele>
        <time>2020-08-28T10:03:17Z</time>
      </trkpt>
      <trkpt lat="44.3331" lon="6.32506">
        <ele>1351.8</ele>
        <time>2020-08-28T10:03:23Z</time>
      </trkpt>
      <trkpt lat="44.33312" lon="6.32506">
        <ele>1351.6</ele>
        <time>2020-08-28T10:03:29Z</time>
      </trkpt>
      <trkpt lat="44.33312" lon="6.32507">
        <ele>1351.5</ele>
        <time>2020-08-28T10:03:34Z</time>
      </trkpt>
      <trkpt lat="44.33318" lon="6.3251">
        <ele>1350.9</ele>
        <time>2020-08-28T10:03:40Z</time>
      </trkpt>
      <trkpt lat="44.33316" lon="6.32512">
        <ele>1351.1</ele>
        <time>2020-08-28T10:03:46Z</time>
      </trkpt>
      <trkpt lat="44.33318" lon="6.32512">
        <ele>1350.9</ele>
        <time>2020-08-28T10:03:52Z</time>
      </trkpt>
      <trkpt lat="44.33321" lon="6.32513">
        <ele>1350.6</ele>
        <time>2020-08-28T10:03:58Z</time>
      </trkpt>
      <trkpt lat="44.33326" lon="6.32513">
        <ele>1350.2</ele>
        <time>2020-08-28T10:04:04Z</time>
      </trkpt>
      <trkpt lat="44.33329" lon="6.32513">
        <ele>1350</ele>
        <time>2020-08-28T10:04:09Z</time>
      </trkpt>
      <trkpt lat="44.33331" lon="6.32514">
        <ele>1349.9</ele>
        <time>2020-08-28T10:04:15Z</time>
      </trkpt>
      <trkpt lat="44.33333" lon="6.32514">
        <ele>1349.8</ele>
        <time>2020-08-28T10:04:21Z</time>
      </trkpt>
      <trkpt lat="44.33334" lon="6.32513">
        <ele>1342.2</ele>
        <time>2020-08-28T10:04:27Z</time>
      </trkpt>
      <trkpt lat="44.33333" lon="6.32515">
        <ele>1349.9</ele>
        <time>2020-08-28T10:04:32Z</time>
      </trkpt>
      <trkpt lat="44.33332" lon="6.32516">
        <ele>1350</ele>
        <time>2020-08-28T10:04:37Z</time>
      </trkpt>
      <trkpt lat="44.33335" lon="6.32516">
        <ele>1341.5</ele>
        <time>2020-08-28T10:04:42Z</time>
      </trkpt>
      <trkpt lat="44.33337" lon="6.32519">
        <ele>1340.5</ele>
        <time>2020-08-28T10:04:48Z</time>
      </trkpt>
      <trkpt lat="44.33342" lon="6.3252">
        <ele>1339.8</ele>
        <time>2020-08-28T10:04:54Z</time>
      </trkpt>
      <trkpt lat="44.33349" lon="6.3252">
        <ele>1338.8</ele>
        <time>2020-08-28T10:05:00Z</time>
      </trkpt>
      <trkpt lat="44.33349" lon="6.3252">
        <ele>1338.8</ele>
        <time>2020-08-28T10:05:06Z</time>
      </trkpt>
      <trkpt lat="44.33349" lon="6.32522">
        <ele>1338.5</ele>
        <time>2020-08-28T10:05:12Z</time>
      </trkpt>
      <trkpt lat="44.3335" lon="6.3252">
        <ele>1338.7</ele>
        <time>2020-08-28T10:05:18Z</time>
      </trkpt>
      <trkpt lat="44.3335" lon="6.32521">
        <ele>1338.5</ele>
        <time>2020-08-28T10:05:24Z</time>
      </trkpt>
      <trkpt lat="44.33355" lon="6.32521">
        <ele>1337.5</ele>
        <time>2020-08-28T10:05:29Z</time>
      </trkpt>
      <trkpt lat="44.33359" lon="6.32524">
        <ele>1336.6</ele>
        <time>2020-08-28T10:05:34Z</time>
      </trkpt>
      <trkpt lat="44.33359" lon="6.32525">
        <ele>1336.6</ele>
        <time>2020-08-28T10:05:39Z</time>
      </trkpt>
      <trkpt lat="44.33361" lon="6.32527">
        <ele>1336.1</ele>
        <time>2020-08-28T10:05:45Z</time>
      </trkpt>
      <trkpt lat="44.33363" lon="6.32533">
        <ele>1335.4</ele>
        <time>2020-08-28T10:05:50Z</time>
      </trkpt>
      <trkpt lat="44.33367" lon="6.32536">
        <ele>1334.8</ele>
        <time>2020-08-28T10:05:55Z</time>
      </trkpt>
      <trkpt lat="44.33368" lon="6.32536">
        <ele>1334.6</ele>
        <time>2020-08-28T10:06:01Z</time>
      </trkpt>
      <trkpt lat="44.33371" lon="6.32536">
        <ele>1334.2</ele>
        <time>2020-08-28T10:06:07Z</time>
      </trkpt>
      <trkpt lat="44.33371" lon="6.32537">
        <ele>1334.2</ele>
        <time>2020-08-28T10:06:13Z</time>
      </trkpt>
      <trkpt lat="44.33372" lon="6.3254">
        <ele>1333.9</ele>
        <time>2020-08-28T10:06:18Z</time>
      </trkpt>
      <trkpt lat="44.33376" lon="6.32539">
        <ele>1333.5</ele>
        <time>2020-08-28T10:06:23Z</time>
      </trkpt>
      <trkpt lat="44.33376" lon="6.32539">
        <ele>1333.5</ele>
        <time>2020-08-28T10:06:29Z</time>
      </trkpt>
      <trkpt lat="44.33378" lon="6.32539">
        <ele>1333.3</ele>
        <time>2020-08-28T10:06:35Z</time>
      </trkpt>
      <trkpt lat="44.33378" lon="6.3254">
        <ele>1333.3</ele>
        <time>2020-08-28T10:06:41Z</time>
      </trkpt>
      <trkpt lat="44.33377" lon="6.32543">
        <ele>1333.3</ele>
        <time>2020-08-28T10:06:47Z</time>
      </trkpt>
      <trkpt lat="44.33376" lon="6.32543">
        <ele>1333.3</ele>
        <time>2020-08-28T10:06:52Z</time>
      </trkpt>
      <trkpt lat="44.33379" lon="6.32543">
        <ele>1333</ele>
        <time>2020-08-28T10:06:58Z</time>
      </trkpt>
      <trkpt lat="44.33385" lon="6.32543">
        <ele>1332.2</ele>
        <time>2020-08-28T10:07:04Z</time>
      </trkpt>
      <trkpt lat="44.33387" lon="6.32543">
        <ele>1332.1</ele>
        <time>2020-08-28T10:07:10Z</time>
      </trkpt>
      <trkpt lat="44.33388" lon="6.32542">
        <ele>1332</ele>
        <time>2020-08-28T10:07:15Z</time>
      </trkpt>
      <trkpt lat="44.33392" lon="6.32542">
        <ele>1331.5</ele>
        <time>2020-08-28T10:07:21Z</time>
      </trkpt>
      <trkpt lat="44.33397" lon="6.32543">
        <ele>1331</ele>
        <time>2020-08-28T10:07:27Z</time>
      </trkpt>
      <trkpt lat="44.33403" lon="6.32544">
        <ele>1330.4</ele>
        <time>2020-08-28T10:07:33Z</time>
      </trkpt>
      <trkpt lat="44.33407" lon="6.32543">
        <ele>1330.1</ele>
        <time>2020-08-28T10:07:38Z</time>
      </trkpt>
      <trkpt lat="44.33414" lon="6.32543">
        <ele>1329.7</ele>
        <time>2020-08-28T10:07:44Z</time>
      </trkpt>
      <trkpt lat="44.33416" lon="6.32545">
        <ele>1329.5</ele>
        <time>2020-08-28T10:07:50Z</time>
      </trkpt>
      <trkpt lat="44.33416" lon="6.32545">
        <ele>1329.5</ele>
        <time>2020-08-28T10:07:56Z</time>
      </trkpt>
      <trkpt lat="44.3342" lon="6.32547">
        <ele>1315</ele>
        <time>2020-08-28T10:08:01Z</time>
      </trkpt>
      <trkpt lat="44.33424" lon="6.32549">
        <ele>1314.7</ele>
        <time>2020-08-28T10:08:07Z</time>
      </trkpt>
      <trkpt lat="44.33428" lon="6.32549">
        <ele>1314.3</ele>
        <time>2020-08-28T10:08:13Z</time>
      </trkpt>
      <trkpt lat="44.33429" lon="6.32547">
        <ele>1314.3</ele>
        <time>2020-08-28T10:08:18Z</time>
      </trkpt>
      <trkpt lat="44.33432" lon="6.32546">
        <ele>1314.1</ele>
        <time>2020-08-28T10:08:23Z</time>
      </trkpt>
      <trkpt lat="44.33432" lon="6.32546">
        <ele>1314</ele>
        <time>2020-08-28T10:08:28Z</time>
      </trkpt>
      <trkpt lat="44.33434" lon="6.32547">
        <ele>1313.8</ele>
        <time>2020-08-28T10:08:34Z</time>
      </trkpt>
      <trkpt lat="44.3344" lon="6.32546">
        <ele>1313.1</ele>
        <time>2020-08-28T10:08:40Z</time>
      </trkpt>
      <trkpt lat="44.33441" lon="6.32546">
        <ele>1312.9</ele>
        <time>2020-08-28T10:08:45Z</time>
      </trkpt>
      <trkpt lat="44.33444" lon="6.32546">
        <ele>1312.6</ele>
        <time>2020-08-28T10:08:50Z</time>
      </trkpt>
      <trkpt lat="44.33447" lon="6.32548">
        <ele>1312</ele>
        <time>2020-08-28T10:08:56Z</time>
      </trkpt>
      <trkpt lat="44.33449" lon="6.32546">
        <ele>1311.7</ele>
        <time>2020-08-28T10:09:01Z</time>
      </trkpt>
      <trkpt lat="44.33452" lon="6.32546">
        <ele>1311.4</ele>
        <time>2020-08-28T10:09:07Z</time>
      </trkpt>
      <trkpt lat="44.33454" lon="6.32549">
        <ele>1311</ele>
        <time>2020-08-28T10:09:13Z</time>
      </trkpt>
      <trkpt lat="44.33455" lon="6.32549">
        <ele>1310.9</ele>
        <time>2020-08-28T10:09:18Z</time>
      </trkpt>
      <trkpt lat="44.33455" lon="6.32549">
        <ele>1310.8</ele>
        <time>2020-08-28T10:09:24Z</time>
      </trkpt>
      <trkpt lat="44.33458" lon="6.32548">
        <ele>1310.4</ele>
        <time>2020-08-28T10:09:29Z</time>
      </trkpt>
      <trkpt lat="44.33462" lon="6.32546">
        <ele>1309.8</ele>
        <time>2020-08-28T10:09:35Z</time>
      </trkpt>
      <trkpt lat="44.33465" lon="6.32544">
        <ele>1309.4</ele>
        <time>2020-08-28T10:09:40Z</time>
      </trkpt>
      <trkpt lat="44.33467" lon="6.32544">
        <ele>1309.2</ele>
        <time>2020-08-28T10:09:46Z</time>
      </trkpt>
      <trkpt lat="44.33468" lon="6.32545">
        <ele>1309</ele>
        <time>2020-08-28T10:09:52Z</time>
      </trkpt>
      <trkpt lat="44.33469" lon="6.32545">
        <ele>1308.7</ele>
        <time>2020-08-28T10:09:58Z</time>
      </trkpt>
      <trkpt lat="44.3347" lon="6.32545">
        <ele>1308.7</ele>
        <time>2020-08-28T10:10:04Z</time>
      </trkpt>
      <trkpt lat="44.33474" lon="6.32547">
        <ele>1308</ele>
        <time>2020-08-28T10:10:09Z</time>
      </trkpt>
      <trkpt lat="44.33478" lon="6.32547">
        <ele>1307.5</ele>
        <time>2020-08-28T10:10:14Z</time>
      </trkpt>
      <trkpt lat="44.33479" lon="6.32547">
        <ele>1307.3</ele>
        <time>2020-08-28T10:10:20Z</time>
      </trkpt>
      <trkpt lat="44.33479" lon="6.32547">
        <ele>1307.3</ele>
        <time>2020-08-28T10:10:25Z</time>
      </trkpt>
      <trkpt lat="44.3348" lon="6.32549">
        <ele>1307.1</ele>
        <time>2020-08-28T10:10:31Z</time>
      </trkpt>
      <trkpt lat="44.33484" lon="6.32549">
        <ele>1306.6</ele>
        <time>2020-08-28T10:10:37Z</time>
      </trkpt>
      <trkpt lat="44.33489" lon="6.3255">
        <ele>1306</ele>
        <time>2020-08-28T10:10:43Z</time>
      </trkpt>
      <trkpt lat="44.33491" lon="6.3255">
        <ele>1305.7</ele>
        <time>2020-08-28T10:10:48Z</time>
      </trkpt>
      <trkpt lat="44.33494" lon="6.3255">
        <ele>1305.5</ele>
        <time>2020-08-28T10:10:54Z</time>
      </trkpt>
      <trkpt lat="44.33497" lon="6.32551">
        <ele>1305.1</ele>
        <time>2020-08-28T10:10:59Z</time>
      </trkpt>
      <trkpt lat="44.33502" lon="6.32551">
        <ele>1289.7</ele>
        <time>2020-08-28T10:11:04Z</time>
      </trkpt>
      <trkpt lat="44.33506" lon="6.32549">
        <ele>1289.4</ele>
        <time>2020-08-28T10:11:10Z</time>
      </trkpt>
      <trkpt lat="44.33508" lon="6.3255">
        <ele>1289.2</ele>
        <time>2020-08-28T10:11:16Z</time>
      </trkpt>
      <trkpt lat="44.3351" lon="6.3255">
        <ele>1289.1</ele>
        <time>2020-08-28T10:11:22Z</time>
      </trkpt>
      <trkpt lat="44.3351" lon="6.3255">
        <ele>1289.1</ele>
        <time>2020-08-28T10:11:27Z</time>
      </trkpt>
      <trkpt lat="44.33511" lon="6.32553">
        <ele>1289.1</ele>
        <time>2020-08-28T10:11:33Z</time>
      </trkpt>
      <trkpt lat="44.33515" lon="6.32555">
        <ele>1288.8</ele>
        <time>2020-08-28T10:11:39Z</time>
      </trkpt>
      <trkpt lat="44.3352" lon="6.32558">
        <ele>1288.2</ele>
        <time>2020-08-28T10:11:44Z</time>
      </trkpt>
      <trkpt lat="44.33525" lon="6.32564">
        <ele>1287.8</ele>
        <time>2020-08-28T10:11:50Z</time>
      </trkpt>
      <trkpt lat="44.33527" lon="6.32566">
        <ele>1287.4</ele>
        <time>2020-08-28T10:11:56Z</time>
      </trkpt>
      <trkpt lat="44.33528" lon="6.32568">
        <ele>1287.3</ele>
        <time>2020-08-28T10:12:01Z</time>
      </trkpt>
      <trkpt lat="44.33531" lon="6.32573">
        <ele>1286.9</ele>
        <time>2020-08-28T10:12:07Z</time>
      </trkpt>
      <trkpt lat="44.33535" lon="6.32575">
        <ele>1286</ele>
        <time>2020-08-28T10:12:13Z</time>
      </trkpt>
      <trkpt lat="44.33536" lon="6.32575">
        <ele>1285.8</ele>
        <time>2020-08-28T10:12:19Z</time>
      </trkpt>
      <trkpt lat="44.33537" lon="6.32575">
        <ele>1285.7</ele>
        <time>2020-08-28T10:12:24Z</time>
      </trkpt>
      <trkpt lat="44.33538" lon="6.32575">
        <ele>1285.4</ele>
        <time>2020-08-28T10:12:30Z</time>
      </trkpt>
      <trkpt lat="44.3354" lon="6.32575">
        <ele>1285.1</ele>
        <time>2020-08-28T10:12:35Z</time>
      </trkpt>
      <trkpt lat="44.3354" lon="6.32575">
        <ele>1285.1</ele>
        <time>2020-08-28T10:12:40Z</time>
      </trkpt>
      <trkpt lat="44.3354" lon="6.32575">
        <ele>1285.1</ele>
        <time>2020-08-28T10:12:46Z</time>
      </trkpt>
      <trkpt lat="44.3354" lon="6.32575">
        <ele>1285.1</ele>
        <time>2020-08-28T10:12:51Z</time>
      </trkpt>
      <trkpt lat="44.33541" lon="6.32577">
        <ele>1284.8</ele>
        <time>2020-08-28T10:12:57Z</time>
      </trkpt>
      <trkpt lat="44.33541" lon="6.32578">
        <ele>1284.9</ele>
        <time>2020-08-28T10:13:02Z</time>
      </trkpt>
      <trkpt lat="44.33541" lon="6.3258">
        <ele>1284.8</ele>
        <time>2020-08-28T10:13:08Z</time>
      </trkpt>
      <trkpt lat="44.33541" lon="6.32581">
        <ele>1284.9</ele>
        <time>2020-08-28T10:13:13Z</time>
      </trkpt>
      <trkpt lat="44.33541" lon="6.32581">
        <ele>1284.8</ele>
        <time>2020-08-28T10:13:18Z</time>
      </trkpt>
      <trkpt lat="44.33545" lon="6.3258">
        <ele>1283.9</ele>
        <time>2020-08-28T10:13:23Z</time>
      </trkpt>
      <trkpt lat="44.3355" lon="6.32582">
        <ele>1282.9</ele>
        <time>2020-08-28T10:13:29Z</time>
      </trkpt>
      <trkpt lat="44.3355" lon="6.32583">
        <ele>1282.9</ele>
        <time>2020-08-28T10:13:34Z</time>
      </trkpt>
      <trkpt lat="44.3355" lon="6.32582">
        <ele>1282.8</ele>
        <time>2020-08-28T10:13:40Z</time>
      </trkpt>
      <trkpt lat="44.33553" lon="6.32579">
        <ele>1282.2</ele>
        <time>2020-08-28T10:13:46Z</time>
      </trkpt>
      <trkpt lat="44.33554" lon="6.32578">
        <ele>1281.8</ele>
        <time>2020-08-28T10:13:51Z</time>
      </trkpt>
      <trkpt lat="44.33559" lon="6.32576">
        <ele>1280.7</ele>
        <time>2020-08-28T10:13:56Z</time>
      </trkpt>
      <trkpt lat="44.33565" lon="6.32572">
        <ele>1279.8</ele>
        <time>2020-08-28T10:14:02Z</time>
      </trkpt>
      <trkpt lat="44.33569" lon="6.32568">
        <ele>1279.3</ele>
        <time>2020-08-28T10:14:08Z</time>
      </trkpt>
      <trkpt lat="44.33572" lon="6.32564">
        <ele>1279.5</ele>
        <time>2020-08-28T10:14:14Z</time>
      </trkpt>
      <trkpt lat="44.33574" lon="6.32562">
        <ele>1279.4</ele>
        <time>2020-08-28T10:14:20Z</time>
      </trkpt>
      <trkpt lat="44.33577" lon="6.32561">
        <ele>1279.3</ele>
        <time>2020-08-28T10:14:26Z</time>
      </trkpt>
      <trkpt lat="44.33578" lon="6.32559">
        <ele>1279.3</ele>
        <time>2020-08-28T10:14:31Z</time>
      </trkpt>
      <trkpt lat="44.3358" lon="6.32559">
        <ele>1279.2</ele>
        <time>2020-08-28T10:14:37Z</time>
      </trkpt>
      <trkpt lat="44.33582" lon="6.32559">
        <ele>1279.1</ele>
        <time>2020-08-28T10:14:42Z</time>
      </trkpt>
      <trkpt lat="44.33582" lon="6.32558">
        <ele>1279.2</ele>
        <time>2020-08-28T10:14:47Z</time>
      </trkpt>
      <trkpt lat="44.33585" lon="6.32559">
        <ele>1266.6</ele>
        <time>2020-08-28T10:14:53Z</time>
      </trkpt>
      <trkpt lat="44.33586" lon="6.32559">
        <ele>1266.6</ele>
        <time>2020-08-28T10:14:58Z</time>
      </trkpt>
      <trkpt lat="44.3359" lon="6.32557">
        <ele>1266.2</ele>
        <time>2020-08-28T10:15:03Z</time>
      </trkpt>
      <trkpt lat="44.33591" lon="6.32552">
        <ele>1265.8</ele>
        <time>2020-08-28T10:15:09Z</time>
      </trkpt>
      <trkpt lat="44.3359" lon="6.3255">
        <ele>1265.7</ele>
        <time>2020-08-28T10:15:14Z</time>
      </trkpt>
      <trkpt lat="44.33593" lon="6.32548">
        <ele>1265.5</ele>
        <time>2020-08-28T10:15:20Z</time>
      </trkpt>
      <trkpt lat="44.33597" lon="6.32546">
        <ele>1265.1</ele>
        <time>2020-08-28T10:15:25Z</time>
      </trkpt>
      <trkpt lat="44.33604" lon="6.32546">
        <ele>1264.5</ele>
        <time>2020-08-28T10:15:31Z</time>
      </trkpt>
      <trkpt lat="44.33606" lon="6.32543">
        <ele>1264.3</ele>
        <time>2020-08-28T10:15:37Z</time>
      </trkpt>
      <trkpt lat="44.3361" lon="6.32542">
        <ele>1263.8</ele>
        <time>2020-08-28T10:15:42Z</time>
      </trkpt>
      <trkpt lat="44.33616" lon="6.3254">
        <ele>1263.2</ele>
        <time>2020-08-28T10:15:48Z</time>
      </trkpt>
      <trkpt lat="44.33619" lon="6.32536">
        <ele>1262.8</ele>
        <time>2020-08-28T10:15:53Z</time>
      </trkpt>
      <trkpt lat="44.33625" lon="6.32537">
        <ele>1262</ele>
        <time>2020-08-28T10:15:59Z</time>
      </trkpt>
      <trkpt lat="44.33631" lon="6.32534">
        <ele>1261.2</ele>
        <time>2020-08-28T10:16:05Z</time>
      </trkpt>
      <trkpt lat="44.33633" lon="6.3253">
        <ele>1261</ele>
        <time>2020-08-28T10:16:10Z</time>
      </trkpt>
      <trkpt lat="44.33633" lon="6.32528">
        <ele>1260.8</ele>
        <time>2020-08-28T10:16:16Z</time>
      </trkpt>
      <trkpt lat="44.33634" lon="6.32526">
        <ele>1260.7</ele>
        <time>2020-08-28T10:16:22Z</time>
      </trkpt>
      <trkpt lat="44.33635" lon="6.32527">
        <ele>1260.5</ele>
        <time>2020-08-28T10:16:28Z</time>
      </trkpt>
      <trkpt lat="44.33636" lon="6.32528">
        <ele>1260.4</ele>
        <time>2020-08-28T10:16:33Z</time>
      </trkpt>
      <trkpt lat="44.33636" lon="6.32527">
        <ele>1260.4</ele>
        <time>2020-08-28T10:16:39Z</time>
      </trkpt>
      <trkpt lat="44.33639" lon="6.32525">
        <ele>1259.9</ele>
        <time>2020-08-28T10:16:45Z</time>
      </trkpt>
      <trkpt lat="44.33644" lon="6.32521">
        <ele>1259</ele>
        <time>2020-08-28T10:16:51Z</time>
      </trkpt>
      <trkpt lat="44.33649" lon="6.32515">
        <ele>1257.9</ele>
        <time>2020-08-28T10:16:57Z</time>
      </trkpt>
      <trkpt lat="44.3365" lon="6.32514">
        <ele>1257.5</ele>
        <time>2020-08-28T10:17:03Z</time>
      </trkpt>
      <trkpt lat="44.33651" lon="6.32513">
        <ele>1257.2</ele>
        <time>2020-08-28T10:17:09Z</time>
      </trkpt>
      <trkpt lat="44.33652" lon="6.32514">
        <ele>1257.2</ele>
        <time>2020-08-28T10:17:15Z</time>
      </trkpt>
      <trkpt lat="44.33652" lon="6.32514">
        <ele>1257.1</ele>
        <time>2020-08-28T10:17:20Z</time>
      </trkpt>
      <trkpt lat="44.33652" lon="6.32514">
        <ele>1257.2</ele>
        <time>2020-08-28T10:17:26Z</time>
      </trkpt>
      <trkpt lat="44.33652" lon="6.32514">
        <ele>1257.2</ele>
        <time>2020-08-28T10:17:31Z</time>
      </trkpt>
      <trkpt lat="44.33652" lon="6.32514">
        <ele>1257.2</ele>
        <time>2020-08-28T10:17:37Z</time>
      </trkpt>
      <trkpt lat="44.33652" lon="6.32515">
        <ele>1257.2</ele>
        <time>2020-08-28T10:17:43Z</time>
      </trkpt>
      <trkpt lat="44.33652" lon="6.32515">
        <ele>1257.2</ele>
        <time>2020-08-28T10:17:49Z</time>
      </trkpt>
      <trkpt lat="44.33652" lon="6.32515">
        <ele>1257.2</ele>
        <time>2020-08-28T10:17:55Z</time>
      </trkpt>
      <trkpt lat="44.33652" lon="6.32515">
        <ele>1257.2</ele>
        <time>2020-08-28T10:18:00Z</time>
      </trkpt>
      <trkpt lat="44.33652" lon="6.32515">
        <ele>1257.2</ele>
        <time>2020-08-28T10:18:06Z</time>
      </trkpt>
      <trkpt lat="44.33653" lon="6.32516">
        <ele>1257.2</ele>
        <time>2020-08-28T10:18:12Z</time>
      </trkpt>
      <trkpt lat="44.33654" lon="6.32518">
        <ele>1257.3</ele>
        <time>2020-08-28T10:18:18Z</time>
      </trkpt>
      <trkpt lat="44.33654" lon="6.32518">
        <ele>1257.3</ele>
        <time>2020-08-28T10:18:24Z</time>
      </trkpt>
      <trkpt lat="44.33654" lon="6.32518">
        <ele>1257.3</ele>
        <time>2020-08-28T10:18:30Z</time>
      </trkpt>
      <trkpt lat="44.33654" lon="6.32518">
        <ele>1257.4</ele>
        <time>2020-08-28T10:18:35Z</time>
      </trkpt>
      <trkpt lat="44.33654" lon="6.32518">
        <ele>1257.4</ele>
        <time>2020-08-28T10:18:41Z</time>
      </trkpt>
      <trkpt lat="44.33654" lon="6.32518">
        <ele>1257.4</ele>
        <time>2020-08-28T10:18:46Z</time>
      </trkpt>
      <trkpt lat="44.33653" lon="6.32518">
        <ele>1257.5</ele>
        <time>2020-08-28T10:18:51Z</time>
      </trkpt>
      <trkpt lat="44.33652" lon="6.32517">
        <ele>1257.5</ele>
        <time>2020-08-28T10:18:57Z</time>
      </trkpt>
      <trkpt lat="44.33652" lon="6.32517">
        <ele>1257.4</ele>
        <time>2020-08-28T10:19:02Z</time>
      </trkpt>
      <trkpt lat="44.33652" lon="6.32517">
        <ele>1257.4</ele>
        <time>2020-08-28T10:19:08Z</time>
      </trkpt>
      <trkpt lat="44.33652" lon="6.32517">
        <ele>1257.4</ele>
        <time>2020-08-28T10:19:13Z</time>
      </trkpt>
      <trkpt lat="44.33652" lon="6.32517">
        <ele>1257.4</ele>
        <time>2020-08-28T10:19:19Z</time>
      </trkpt>
      <trkpt lat="44.33652" lon="6.32517">
        <ele>1257.4</ele>
        <time>2020-08-28T10:19:24Z</time>
      </trkpt>
      <trkpt lat="44.33652" lon="6.32517">
        <ele>1257.4</ele>
        <time>2020-08-28T10:19:30Z</time>
      </trkpt>
      <trkpt lat="44.33652" lon="6.32517">
        <ele>1257.4</ele>
        <time>2020-08-28T10:19:36Z</time>
      </trkpt>
      <trkpt lat="44.33652" lon="6.32517">
        <ele>1257.4</ele>
        <time>2020-08-28T10:19:44Z</time>
      </trkpt>
      <trkpt lat="44.33652" lon="6.32517">
        <ele>1257.5</ele>
        <time>2020-08-28T10:19:50Z</time>
      </trkpt>
      <trkpt lat="44.33653" lon="6.32515">
        <ele>1257.2</ele>
        <time>2020-08-28T10:19:55Z</time>
      </trkpt>
      <trkpt lat="44.33653" lon="6.32515">
        <ele>1257.1</ele>
        <time>2020-08-28T10:20:00Z</time>
      </trkpt>
      <trkpt lat="44.33653" lon="6.32515">
        <ele>1257.1</ele>
        <time>2020-08-28T10:20:06Z</time>
      </trkpt>
      <trkpt lat="44.33653" lon="6.32515">
        <ele>1257.1</ele>
        <time>2020-08-28T10:20:12Z</time>
      </trkpt>
      <trkpt lat="44.33653" lon="6.32515">
        <ele>1257.1</ele>
        <time>2020-08-28T10:20:18Z</time>
      </trkpt>
      <trkpt lat="44.33653" lon="6.32515">
        <ele>1257.1</ele>
        <time>2020-08-28T10:20:24Z</time>
      </trkpt>
      <trkpt lat="44.33653" lon="6.32515">
        <ele>1257.1</ele>
        <time>2020-08-28T10:20:30Z</time>
      </trkpt>
      <trkpt lat="44.33653" lon="6.32515">
        <ele>1257.1</ele>
        <time>2020-08-28T10:20:35Z</time>
      </trkpt>
      <trkpt lat="44.33653" lon="6.32515">
        <ele>1257.1</ele>
        <time>2020-08-28T10:20:41Z</time>
      </trkpt>
      <trkpt lat="44.33653" lon="6.32515">
        <ele>1257.1</ele>
        <time>2020-08-28T10:20:47Z</time>
      </trkpt>
      <trkpt lat="44.33653" lon="6.32515">
        <ele>1257.1</ele>
        <time>2020-08-28T10:20:52Z</time>
      </trkpt>
      <trkpt lat="44.33653" lon="6.32515">
        <ele>1257.1</ele>
        <time>2020-08-28T10:20:58Z</time>
      </trkpt>
      <trkpt lat="44.33653" lon="6.32515">
        <ele>1257.1</ele>
        <time>2020-08-28T10:21:03Z</time>
      </trkpt>
      <trkpt lat="44.33653" lon="6.32515">
        <ele>1257.1</ele>
        <time>2020-08-28T10:21:09Z</time>
      </trkpt>
      <trkpt lat="44.33653" lon="6.32515">
        <ele>1257.1</ele>
        <time>2020-08-28T10:21:14Z</time>
      </trkpt>
      <trkpt lat="44.33653" lon="6.32515">
        <ele>1257.1</ele>
        <time>2020-08-28T10:21:20Z</time>
      </trkpt>
      <trkpt lat="44.33653" lon="6.32515">
        <ele>1257.1</ele>
        <time>2020-08-28T10:21:26Z</time>
      </trkpt>
      <trkpt lat="44.33653" lon="6.32515">
        <ele>1257.1</ele>
        <time>2020-08-28T10:21:31Z</time>
      </trkpt>
      <trkpt lat="44.33653" lon="6.32515">
        <ele>1257.1</ele>
        <time>2020-08-28T10:21:37Z</time>
      </trkpt>
      <trkpt lat="44.33653" lon="6.32515">
        <ele>1257.1</ele>
        <time>2020-08-28T10:21:43Z</time>
      </trkpt>
      <trkpt lat="44.33653" lon="6.32515">
        <ele>1257.1</ele>
        <time>2020-08-28T10:21:48Z</time>
      </trkpt>
      <trkpt lat="44.33653" lon="6.32515">
        <ele>1257.1</ele>
        <time>2020-08-28T10:21:54Z</time>
      </trkpt>
      <trkpt lat="44.33653" lon="6.32515">
        <ele>1257.1</ele>
        <time>2020-08-28T10:21:59Z</time>
      </trkpt>
      <trkpt lat="44.33653" lon="6.32515">
        <ele>1257.1</ele>
        <time>2020-08-28T10:22:05Z</time>
      </trkpt>
      <trkpt lat="44.33653" lon="6.32515">
        <ele>1257.1</ele>
        <time>2020-08-28T10:22:10Z</time>
      </trkpt>
      <trkpt lat="44.33653" lon="6.32515">
        <ele>1257.1</ele>
        <time>2020-08-28T10:22:16Z</time>
      </trkpt>
      <trkpt lat="44.33653" lon="6.32515">
        <ele>1257.1</ele>
        <time>2020-08-28T10:22:22Z</time>
      </trkpt>
      <trkpt lat="44.33653" lon="6.32515">
        <ele>1257.1</ele>
        <time>2020-08-28T10:22:27Z</time>
      </trkpt>
      <trkpt lat="44.33653" lon="6.32515">
        <ele>1257.1</ele>
        <time>2020-08-28T10:22:32Z</time>
      </trkpt>
      <trkpt lat="44.33653" lon="6.32515">
        <ele>1257.1</ele>
        <time>2020-08-28T10:22:38Z</time>
      </trkpt>
      <trkpt lat="44.33653" lon="6.32515">
        <ele>1257.1</ele>
        <time>2020-08-28T10:22:44Z</time>
      </trkpt>
      <trkpt lat="44.33653" lon="6.32515">
        <ele>1257.1</ele>
        <time>2020-08-28T10:22:50Z</time>
      </trkpt>
      <trkpt lat="44.33653" lon="6.32515">
        <ele>1257.1</ele>
        <time>2020-08-28T10:22:56Z</time>
      </trkpt>
      <trkpt lat="44.33653" lon="6.32515">
        <ele>1257.1</ele>
        <time>2020-08-28T10:23:02Z</time>
      </trkpt>
      <trkpt lat="44.33653" lon="6.32515">
        <ele>1257.1</ele>
        <time>2020-08-28T10:23:08Z</time>
      </trkpt>
      <trkpt lat="44.33653" lon="6.32515">
        <ele>1257.1</ele>
        <time>2020-08-28T10:23:14Z</time>
      </trkpt>
      <trkpt lat="44.33653" lon="6.32515">
        <ele>1257.1</ele>
        <time>2020-08-28T10:23:20Z</time>
      </trkpt>
      <trkpt lat="44.33653" lon="6.32515">
        <ele>1257.1</ele>
        <time>2020-08-28T10:23:26Z</time>
      </trkpt>
      <trkpt lat="44.33653" lon="6.32515">
        <ele>1257.1</ele>
        <time>2020-08-28T10:23:32Z</time>
      </trkpt>
      <trkpt lat="44.33654" lon="6.32512">
        <ele>1256.7</ele>
        <time>2020-08-28T10:23:37Z</time>
      </trkpt>
      <trkpt lat="44.33654" lon="6.3251">
        <ele>1256.4</ele>
        <time>2020-08-28T10:23:43Z</time>
      </trkpt>
      <trkpt lat="44.33654" lon="6.32509">
        <ele>1256.4</ele>
        <time>2020-08-28T10:23:48Z</time>
      </trkpt>
      <trkpt lat="44.33654" lon="6.32508">
        <ele>1256.1</ele>
        <time>2020-08-28T10:23:53Z</time>
      </trkpt>
      <trkpt lat="44.33657" lon="6.32508">
        <ele>1255.5</ele>
        <time>2020-08-28T10:23:59Z</time>
      </trkpt>
      <trkpt lat="44.33658" lon="6.32506">
        <ele>1254.7</ele>
        <time>2020-08-28T10:24:05Z</time>
      </trkpt>
      <trkpt lat="44.33659" lon="6.32505">
        <ele>1254.5</ele>
        <time>2020-08-28T10:24:11Z</time>
      </trkpt>
      <trkpt lat="44.33661" lon="6.32505">
        <ele>1253.9</ele>
        <time>2020-08-28T10:24:16Z</time>
      </trkpt>
      <trkpt lat="44.33664" lon="6.325">
        <ele>1252</ele>
        <time>2020-08-28T10:24:22Z</time>
      </trkpt>
      <trkpt lat="44.33668" lon="6.32497">
        <ele>1249</ele>
        <time>2020-08-28T10:24:28Z</time>
      </trkpt>
      <trkpt lat="44.33671" lon="6.32495">
        <ele>1246.8</ele>
        <time>2020-08-28T10:24:33Z</time>
      </trkpt>
      <trkpt lat="44.33672" lon="6.32494">
        <ele>1246.3</ele>
        <time>2020-08-28T10:24:39Z</time>
      </trkpt>
      <trkpt lat="44.33674" lon="6.32492">
        <ele>1245</ele>
        <time>2020-08-28T10:24:44Z</time>
      </trkpt>
      <trkpt lat="44.33678" lon="6.32489">
        <ele>1243</ele>
        <time>2020-08-28T10:24:50Z</time>
      </trkpt>
      <trkpt lat="44.33683" lon="6.32488">
        <ele>1241.5</ele>
        <time>2020-08-28T10:24:56Z</time>
      </trkpt>
      <trkpt lat="44.33686" lon="6.32483">
        <ele>1239.9</ele>
        <time>2020-08-28T10:25:02Z</time>
      </trkpt>
      <trkpt lat="44.33687" lon="6.32482">
        <ele>1239.4</ele>
        <time>2020-08-28T10:25:07Z</time>
      </trkpt>
      <trkpt lat="44.33687" lon="6.32482">
        <ele>1239.5</ele>
        <time>2020-08-28T10:25:12Z</time>
      </trkpt>
      <trkpt lat="44.33688" lon="6.32481">
        <ele>1239.2</ele>
        <time>2020-08-28T10:25:18Z</time>
      </trkpt>
      <trkpt lat="44.33689" lon="6.32479">
        <ele>1238.6</ele>
        <time>2020-08-28T10:25:23Z</time>
      </trkpt>
      <trkpt lat="44.33692" lon="6.32474">
        <ele>1237.6</ele>
        <time>2020-08-28T10:25:29Z</time>
      </trkpt>
      <trkpt lat="44.33695" lon="6.32471">
        <ele>1237</ele>
        <time>2020-08-28T10:25:35Z</time>
      </trkpt>
      <trkpt lat="44.33698" lon="6.32468">
        <ele>1236.4</ele>
        <time>2020-08-28T10:25:40Z</time>
      </trkpt>
      <trkpt lat="44.33703" lon="6.32466">
        <ele>1235.5</ele>
        <time>2020-08-28T10:25:46Z</time>
      </trkpt>
      <trkpt lat="44.33708" lon="6.32461">
        <ele>1234.6</ele>
        <time>2020-08-28T10:25:52Z</time>
      </trkpt>
      <trkpt lat="44.33711" lon="6.32455">
        <ele>1234.1</ele>
        <time>2020-08-28T10:25:58Z</time>
      </trkpt>
      <trkpt lat="44.33715" lon="6.32449">
        <ele>1233.4</ele>
        <time>2020-08-28T10:26:04Z</time>
      </trkpt>
      <trkpt lat="44.33717" lon="6.32442">
        <ele>1233</ele>
        <time>2020-08-28T10:26:10Z</time>
      </trkpt>
      <trkpt lat="44.33719" lon="6.32441">
        <ele>1232.7</ele>
        <time>2020-08-28T10:26:15Z</time>
      </trkpt>
      <trkpt lat="44.33722" lon="6.32436">
        <ele>1232.1</ele>
        <time>2020-08-28T10:26:21Z</time>
      </trkpt>
      <trkpt lat="44.33727" lon="6.32433">
        <ele>1231.4</ele>
        <time>2020-08-28T10:26:26Z</time>
      </trkpt>
      <trkpt lat="44.33729" lon="6.32427">
        <ele>1230.8</ele>
        <time>2020-08-28T10:26:31Z</time>
      </trkpt>
      <trkpt lat="44.33732" lon="6.32421">
        <ele>1229.9</ele>
        <time>2020-08-28T10:26:36Z</time>
      </trkpt>
      <trkpt lat="44.33735" lon="6.32415">
        <ele>1226</ele>
        <time>2020-08-28T10:26:42Z</time>
      </trkpt>
      <trkpt lat="44.33737" lon="6.32411">
        <ele>1225.8</ele>
        <time>2020-08-28T10:26:48Z</time>
      </trkpt>
      <trkpt lat="44.33737" lon="6.3241">
        <ele>1225.8</ele>
        <time>2020-08-28T10:26:54Z</time>
      </trkpt>
      <trkpt lat="44.33737" lon="6.32405">
        <ele>1225.8</ele>
        <time>2020-08-28T10:27:00Z</time>
      </trkpt>
      <trkpt lat="44.33737" lon="6.32405">
        <ele>1225.8</ele>
        <time>2020-08-28T10:27:05Z</time>
      </trkpt>
      <trkpt lat="44.33737" lon="6.32404">
        <ele>1225.8</ele>
        <time>2020-08-28T10:27:11Z</time>
      </trkpt>
      <trkpt lat="44.33737" lon="6.32404">
        <ele>1225.8</ele>
        <time>2020-08-28T10:27:16Z</time>
      </trkpt>
      <trkpt lat="44.33736" lon="6.32399">
        <ele>1225.8</ele>
        <time>2020-08-28T10:27:22Z</time>
      </trkpt>
      <trkpt lat="44.33735" lon="6.32394">
        <ele>1225.6</ele>
        <time>2020-08-28T10:27:27Z</time>
      </trkpt>
      <trkpt lat="44.33735" lon="6.32392">
        <ele>1225.6</ele>
        <time>2020-08-28T10:27:33Z</time>
      </trkpt>
      <trkpt lat="44.33735" lon="6.32392">
        <ele>1225.6</ele>
        <time>2020-08-28T10:27:38Z</time>
      </trkpt>
      <trkpt lat="44.33735" lon="6.32389">
        <ele>1225.4</ele>
        <time>2020-08-28T10:27:43Z</time>
      </trkpt>
      <trkpt lat="44.33737" lon="6.32385">
        <ele>1225.1</ele>
        <time>2020-08-28T10:27:49Z</time>
      </trkpt>
      <trkpt lat="44.33742" lon="6.32385">
        <ele>1224.8</ele>
        <time>2020-08-28T10:27:54Z</time>
      </trkpt>
      <trkpt lat="44.33741" lon="6.3238">
        <ele>1224.5</ele>
        <time>2020-08-28T10:27:59Z</time>
      </trkpt>
      <trkpt lat="44.33743" lon="6.32375">
        <ele>1223.9</ele>
        <time>2020-08-28T10:28:05Z</time>
      </trkpt>
      <trkpt lat="44.33746" lon="6.32371">
        <ele>1223.3</ele>
        <time>2020-08-28T10:28:11Z</time>
      </trkpt>
      <trkpt lat="44.33747" lon="6.32371">
        <ele>1223.2</ele>
        <time>2020-08-28T10:28:16Z</time>
      </trkpt>
      <trkpt lat="44.33752" lon="6.32368">
        <ele>1209.3</ele>
        <time>2020-08-28T10:28:22Z</time>
      </trkpt>
      <trkpt lat="44.33759" lon="6.32366">
        <ele>1208.7</ele>
        <time>2020-08-28T10:28:28Z</time>
      </trkpt>
      <trkpt lat="44.33762" lon="6.32364">
        <ele>1208.4</ele>
        <time>2020-08-28T10:28:34Z</time>
      </trkpt>
      <trkpt lat="44.33765" lon="6.32363">
        <ele>1208.1</ele>
        <time>2020-08-28T10:28:39Z</time>
      </trkpt>
      <trkpt lat="44.33768" lon="6.32363">
        <ele>1207.6</ele>
        <time>2020-08-28T10:28:45Z</time>
      </trkpt>
      <trkpt lat="44.33773" lon="6.32363">
        <ele>1207.1</ele>
        <time>2020-08-28T10:28:51Z</time>
      </trkpt>
      <trkpt lat="44.33774" lon="6.32364">
        <ele>1206.9</ele>
        <time>2020-08-28T10:28:56Z</time>
      </trkpt>
      <trkpt lat="44.33779" lon="6.32362">
        <ele>1206.2</ele>
        <time>2020-08-28T10:29:02Z</time>
      </trkpt>
      <trkpt lat="44.33782" lon="6.32361">
        <ele>1205.7</ele>
        <time>2020-08-28T10:29:08Z</time>
      </trkpt>
      <trkpt lat="44.33785" lon="6.32365">
        <ele>1205.3</ele>
        <time>2020-08-28T10:29:13Z</time>
      </trkpt>
      <trkpt lat="44.33788" lon="6.32367">
        <ele>1204.9</ele>
        <time>2020-08-28T10:29:19Z</time>
      </trkpt>
      <trkpt lat="44.33791" lon="6.32367">
        <ele>1204.6</ele>
        <time>2020-08-28T10:29:24Z</time>
      </trkpt>
      <trkpt lat="44.33793" lon="6.32366">
        <ele>1204.1</ele>
        <time>2020-08-28T10:29:29Z</time>
      </trkpt>
      <trkpt lat="44.33794" lon="6.32367">
        <ele>1204</ele>
        <time>2020-08-28T10:29:35Z</time>
      </trkpt>
      <trkpt lat="44.33795" lon="6.32368">
        <ele>1203.9</ele>
        <time>2020-08-28T10:29:41Z</time>
      </trkpt>
      <trkpt lat="44.33795" lon="6.32368">
        <ele>1203.9</ele>
        <time>2020-08-28T10:29:47Z</time>
      </trkpt>
      <trkpt lat="44.33797" lon="6.32369">
        <ele>1203.6</ele>
        <time>2020-08-28T10:29:53Z</time>
      </trkpt>
      <trkpt lat="44.338" lon="6.3237">
        <ele>1203.2</ele>
        <time>2020-08-28T10:29:59Z</time>
      </trkpt>
      <trkpt lat="44.33805" lon="6.32373">
        <ele>1202.5</ele>
        <time>2020-08-28T10:30:04Z</time>
      </trkpt>
      <trkpt lat="44.33809" lon="6.32373">
        <ele>1201.9</ele>
        <time>2020-08-28T10:30:09Z</time>
      </trkpt>
      <trkpt lat="44.33811" lon="6.32371">
        <ele>1201.6</ele>
        <time>2020-08-28T10:30:15Z</time>
      </trkpt>
      <trkpt lat="44.33811" lon="6.32377">
        <ele>1201.8</ele>
        <time>2020-08-28T10:30:21Z</time>
      </trkpt>
      <trkpt lat="44.3381" lon="6.3238">
        <ele>1202</ele>
        <time>2020-08-28T10:30:27Z</time>
      </trkpt>
      <trkpt lat="44.3381" lon="6.32381">
        <ele>1202.1</ele>
        <time>2020-08-28T10:30:33Z</time>
      </trkpt>
      <trkpt lat="44.33809" lon="6.32381">
        <ele>1202.1</ele>
        <time>2020-08-28T10:30:38Z</time>
      </trkpt>
      <trkpt lat="44.33811" lon="6.32381">
        <ele>1201.9</ele>
        <time>2020-08-28T10:30:44Z</time>
      </trkpt>
      <trkpt lat="44.3381" lon="6.3238">
        <ele>1202</ele>
        <time>2020-08-28T10:30:49Z</time>
      </trkpt>
      <trkpt lat="44.33813" lon="6.32375">
        <ele>1201.5</ele>
        <time>2020-08-28T10:30:55Z</time>
      </trkpt>
      <trkpt lat="44.33814" lon="6.32376">
        <ele>1201.4</ele>
        <time>2020-08-28T10:31:01Z</time>
      </trkpt>
      <trkpt lat="44.33814" lon="6.32375">
        <ele>1201.3</ele>
        <time>2020-08-28T10:31:06Z</time>
      </trkpt>
      <trkpt lat="44.33813" lon="6.32369">
        <ele>1201.1</ele>
        <time>2020-08-28T10:31:12Z</time>
      </trkpt>
      <trkpt lat="44.33812" lon="6.32363">
        <ele>1200.9</ele>
        <time>2020-08-28T10:31:18Z</time>
      </trkpt>
      <trkpt lat="44.33808" lon="6.32359">
        <ele>1201.3</ele>
        <time>2020-08-28T10:31:24Z</time>
      </trkpt>
      <trkpt lat="44.33808" lon="6.32354">
        <ele>1200.9</ele>
        <time>2020-08-28T10:31:30Z</time>
      </trkpt>
      <trkpt lat="44.33807" lon="6.3235">
        <ele>1200.8</ele>
        <time>2020-08-28T10:31:36Z</time>
      </trkpt>
      <trkpt lat="44.33806" lon="6.32341">
        <ele>1200.4</ele>
        <time>2020-08-28T10:31:42Z</time>
      </trkpt>
      <trkpt lat="44.33808" lon="6.32334">
        <ele>1199.7</ele>
        <time>2020-08-28T10:31:47Z</time>
      </trkpt>
      <trkpt lat="44.3381" lon="6.32328">
        <ele>1196.8</ele>
        <time>2020-08-28T10:31:53Z</time>
      </trkpt>
      <trkpt lat="44.33813" lon="6.32321">
        <ele>1196.5</ele>
        <time>2020-08-28T10:31:59Z</time>
      </trkpt>
      <trkpt lat="44.33817" lon="6.32315">
        <ele>1196.4</ele>
        <time>2020-08-28T10:32:05Z</time>
      </trkpt>
      <trkpt lat="44.33817" lon="6.32308">
        <ele>1196.8</ele>
        <time>2020-08-28T10:32:11Z</time>
      </trkpt>
      <trkpt lat="44.33819" lon="6.32303">
        <ele>1196.9</ele>
        <time>2020-08-28T10:32:16Z</time>
      </trkpt>
      <trkpt lat="44.3382" lon="6.323">
        <ele>1197</ele>
        <time>2020-08-28T10:32:22Z</time>
      </trkpt>
      <trkpt lat="44.33822" lon="6.32298">
        <ele>1197</ele>
        <time>2020-08-28T10:32:28Z</time>
      </trkpt>
      <trkpt lat="44.33821" lon="6.32298">
        <ele>1197</ele>
        <time>2020-08-28T10:32:34Z</time>
      </trkpt>
      <trkpt lat="44.3382" lon="6.32296">
        <ele>1197.2</ele>
        <time>2020-08-28T10:32:39Z</time>
      </trkpt>
      <trkpt lat="44.33821" lon="6.32293">
        <ele>1197.2</ele>
        <time>2020-08-28T10:32:44Z</time>
      </trkpt>
      <trkpt lat="44.33822" lon="6.3229">
        <ele>1197.2</ele>
        <time>2020-08-28T10:32:50Z</time>
      </trkpt>
      <trkpt lat="44.33821" lon="6.32286">
        <ele>1197.2</ele>
        <time>2020-08-28T10:32:56Z</time>
      </trkpt>
      <trkpt lat="44.3382" lon="6.32282">
        <ele>1197.3</ele>
        <time>2020-08-28T10:33:01Z</time>
      </trkpt>
      <trkpt lat="44.33818" lon="6.32281">
        <ele>1197.3</ele>
        <time>2020-08-28T10:33:07Z</time>
      </trkpt>
      <trkpt lat="44.33818" lon="6.32281">
        <ele>1197.3</ele>
        <time>2020-08-28T10:33:13Z</time>
      </trkpt>
      <trkpt lat="44.3382" lon="6.3228">
        <ele>1197.2</ele>
        <time>2020-08-28T10:33:19Z</time>
      </trkpt>
      <trkpt lat="44.3382" lon="6.3228">
        <ele>1197.2</ele>
        <time>2020-08-28T10:33:24Z</time>
      </trkpt>
      <trkpt lat="44.3382" lon="6.3228">
        <ele>1197.2</ele>
        <time>2020-08-28T10:33:30Z</time>
      </trkpt>
      <trkpt lat="44.33817" lon="6.32281">
        <ele>1197.4</ele>
        <time>2020-08-28T10:33:35Z</time>
      </trkpt>
      <trkpt lat="44.33819" lon="6.32278">
        <ele>1197.2</ele>
        <time>2020-08-28T10:33:41Z</time>
      </trkpt>
      <trkpt lat="44.33819" lon="6.32276">
        <ele>1197.1</ele>
        <time>2020-08-28T10:33:46Z</time>
      </trkpt>
      <trkpt lat="44.33818" lon="6.32274">
        <ele>1197.1</ele>
        <time>2020-08-28T10:33:52Z</time>
      </trkpt>
      <trkpt lat="44.33817" lon="6.32275">
        <ele>1197.2</ele>
        <time>2020-08-28T10:33:57Z</time>
      </trkpt>
      <trkpt lat="44.33818" lon="6.32274">
        <ele>1197.1</ele>
        <time>2020-08-28T10:34:03Z</time>
      </trkpt>
      <trkpt lat="44.33818" lon="6.32271">
        <ele>1197</ele>
        <time>2020-08-28T10:34:08Z</time>
      </trkpt>
      <trkpt lat="44.33822" lon="6.32272">
        <ele>1196.7</ele>
        <time>2020-08-28T10:34:14Z</time>
      </trkpt>
      <trkpt lat="44.33829" lon="6.32276">
        <ele>1196.6</ele>
        <time>2020-08-28T10:34:20Z</time>
      </trkpt>
      <trkpt lat="44.33833" lon="6.32284">
        <ele>1196.6</ele>
        <time>2020-08-28T10:34:26Z</time>
      </trkpt>
      <trkpt lat="44.33839" lon="6.32292">
        <ele>1188.8</ele>
        <time>2020-08-28T10:34:32Z</time>
      </trkpt>
      <trkpt lat="44.33845" lon="6.32295">
        <ele>1188.5</ele>
        <time>2020-08-28T10:34:38Z</time>
      </trkpt>
      <trkpt lat="44.33848" lon="6.32299">
        <ele>1188.3</ele>
        <time>2020-08-28T10:34:43Z</time>
      </trkpt>
      <trkpt lat="44.3385" lon="6.323">
        <ele>1188.2</ele>
        <time>2020-08-28T10:34:49Z</time>
      </trkpt>
      <trkpt lat="44.33851" lon="6.32299">
        <ele>1188.2</ele>
        <time>2020-08-28T10:34:55Z</time>
      </trkpt>
      <trkpt lat="44.33851" lon="6.32299">
        <ele>1188.2</ele>
        <time>2020-08-28T10:35:01Z</time>
      </trkpt>
      <trkpt lat="44.3385" lon="6.32299">
        <ele>1188.2</ele>
        <time>2020-08-28T10:35:06Z</time>
      </trkpt>
      <trkpt lat="44.3385" lon="6.32299">
        <ele>1188.2</ele>
        <time>2020-08-28T10:35:12Z</time>
      </trkpt>
      <trkpt lat="44.33848" lon="6.32299">
        <ele>1188.3</ele>
        <time>2020-08-28T10:35:17Z</time>
      </trkpt>
      <trkpt lat="44.33849" lon="6.323">
        <ele>1188.3</ele>
        <time>2020-08-28T10:35:22Z</time>
      </trkpt>
      <trkpt lat="44.33851" lon="6.32302">
        <ele>1188.1</ele>
        <time>2020-08-28T10:35:28Z</time>
      </trkpt>
      <trkpt lat="44.33852" lon="6.32302">
        <ele>1188.1</ele>
        <time>2020-08-28T10:35:33Z</time>
      </trkpt>
      <trkpt lat="44.33856" lon="6.32296">
        <ele>1188.1</ele>
        <time>2020-08-28T10:35:39Z</time>
      </trkpt>
      <trkpt lat="44.33862" lon="6.32293">
        <ele>1187.9</ele>
        <time>2020-08-28T10:35:45Z</time>
      </trkpt>
      <trkpt lat="44.33869" lon="6.32294">
        <ele>1187.5</ele>
        <time>2020-08-28T10:35:51Z</time>
      </trkpt>
      <trkpt lat="44.33876" lon="6.32294">
        <ele>1187.1</ele>
        <time>2020-08-28T10:35:57Z</time>
      </trkpt>
      <trkpt lat="44.33881" lon="6.32291">
        <ele>1187</ele>
        <time>2020-08-28T10:36:02Z</time>
      </trkpt>
      <trkpt lat="44.33886" lon="6.32286">
        <ele>1186.9</ele>
        <time>2020-08-28T10:36:07Z</time>
      </trkpt>
      <trkpt lat="44.33893" lon="6.32284">
        <ele>1186.7</ele>
        <time>2020-08-28T10:36:13Z</time>
      </trkpt>
      <trkpt lat="44.33896" lon="6.32283">
        <ele>1186.7</ele>
        <time>2020-08-28T10:36:18Z</time>
      </trkpt>
      <trkpt lat="44.33897" lon="6.32283">
        <ele>1186.6</ele>
        <time>2020-08-28T10:36:24Z</time>
      </trkpt>
      <trkpt lat="44.33897" lon="6.32283">
        <ele>1186.6</ele>
        <time>2020-08-28T10:36:30Z</time>
      </trkpt>
      <trkpt lat="44.33898" lon="6.3229">
        <ele>1186.3</ele>
        <time>2020-08-28T10:36:36Z</time>
      </trkpt>
      <trkpt lat="44.33899" lon="6.32294">
        <ele>1186</ele>
        <time>2020-08-28T10:36:41Z</time>
      </trkpt>
      <trkpt lat="44.33901" lon="6.32298">
        <ele>1185.6</ele>
        <time>2020-08-28T10:36:47Z</time>
      </trkpt>
      <trkpt lat="44.33901" lon="6.32299">
        <ele>1185.6</ele>
        <time>2020-08-28T10:36:52Z</time>
      </trkpt>
    </trkseg>
  </trk>
</gpx>